Provisional Data: Moose Creek near Plymptonville, PA


Please select a monitoring station.
Please select start date.
Please select start date.

Toggle Unit: C/F Toggle Unit: C/F
Sample Time Temperature (C) Temperature (F) Specific Conductivity (mS/cm) pH   Turbidity (NTU+) DO (mg/L)
1/12/2021 12:00:00 AM 3.11 37.598 0.106 11.98 2.04 12.96
1/12/2021 12:15:00 AM 3.11 37.598 0.106 12.01 2.05 12.96
1/12/2021 12:30:00 AM 3.1 37.58 0.106 12.01 2.05 12.96
1/12/2021 12:45:00 AM 3.09 37.562 0.106 11.97 2.06 12.96
1/12/2021 1:00:00 AM 3.08 37.544 0.106 12.03 2.08 12.96
1/12/2021 1:15:00 AM 3.06 37.508 0.106 12.01 2.04 12.97
1/12/2021 1:30:00 AM 3.05 37.49 0.106 12.01 2.06 12.97
1/12/2021 1:45:00 AM 3.05 37.49 0.106 12.07 2.03 12.98
1/12/2021 2:00:00 AM 3.05 37.49 0.106 12.02 2.08 12.98
1/12/2021 2:15:00 AM 3.03 37.454 0.106 12.07 2.08 12.99
1/12/2021 2:30:00 AM 3.02 37.436 0.106 12.04 2.03 12.99
1/12/2021 2:45:00 AM 3 37.4 0.106 12.04 2.05 13
1/12/2021 3:00:00 AM 2.99 37.382 0.106 11.99 2.07 13
1/12/2021 3:15:00 AM 2.98 37.364 0.106 11.98 2.1 13
1/12/2021 3:30:00 AM 2.97 37.346 0.106 12 2.04 13.01
1/12/2021 3:45:00 AM 2.97 37.346 0.106 11.99 2.1 13
1/12/2021 4:00:00 AM 2.95 37.31 0.106 11.98 2.03 13.01
1/12/2021 4:15:00 AM 2.92 37.256 0.106 11.99 2.04 13.02
1/12/2021 4:30:00 AM 2.9 37.22 0.106 12.02 2.12 13.02
1/12/2021 4:45:00 AM 2.87 37.166 0.106 12.05 2.09 13.03
1/12/2021 5:00:00 AM 2.84 37.112 0.106 12.08 2.02 13.04
1/12/2021 5:15:00 AM 2.82 37.076 0.106 12.07 2.01 13.05
1/12/2021 5:30:00 AM 2.8 37.04 0.106 12.06 2.06 13.06
1/12/2021 5:45:00 AM 2.8 37.04 0.106 12.05 2.07 13.06
1/12/2021 6:00:00 AM 2.8 37.04 0.106 12.04 2.16 13.06
1/12/2021 6:15:00 AM 2.79 37.022 0.106 12.03 2.06 13.06
1/12/2021 6:30:00 AM 2.78 37.004 0.106 12.04 2.03 13.07
1/12/2021 6:45:00 AM 2.78 37.004 0.106 12.08 2.04 13.07
1/12/2021 7:00:00 AM 2.77 36.986 0.106 12.04 2.08 13.07
1/12/2021 7:15:00 AM 2.77 36.986 0.106 12.03 2.05 13.07
1/12/2021 7:30:00 AM 2.76 36.968 0.106 12.04 2.04 13.07
1/12/2021 7:45:00 AM 2.74 36.932 0.106 12.03 2.06 13.07
1/12/2021 8:00:00 AM 2.72 36.896 0.106 12.06 2.06 13.08
1/12/2021 8:15:00 AM 2.7 36.86 0.106 12.05 2.06 13.09
1/12/2021 8:30:00 AM 2.68 36.824 0.106 12.06 2.04 13.1
1/12/2021 8:45:00 AM 2.69 36.842 0.106 12.05 2 13.1
1/12/2021 9:00:00 AM 2.69 36.842 0.106 12.05 2.07 13.1
1/12/2021 9:15:00 AM 2.71 36.878 0.106 12.07 2.01 13.1
1/12/2021 9:30:00 AM 2.72 36.896 0.106 12.02 2.08 13.09
1/12/2021 9:45:00 AM 2.72 36.896 0.106 12.04 2.06 13.1
1/12/2021 10:00:00 AM 2.74 36.932 0.106 12.09 2.02 13.09
1/12/2021 10:15:00 AM 2.78 37.004 0.106 12.06 2.07 13.08
1/12/2021 10:30:00 AM 2.83 37.094 0.106 12.01 2.07 13.07
1/12/2021 10:45:00 AM 2.89 37.202 0.106 12.01 2.06 13.05
1/12/2021 11:00:00 AM 2.92 37.256 0.106 12.04 2.01 13.04
1/12/2021 11:15:00 AM 2.96 37.328 0.106 12.05 2.05 13.03
1/12/2021 11:30:00 AM 2.98 37.364 0.106 12.02 2.1 13.02
1/12/2021 11:45:00 AM 3.02 37.436 0.106 11.98 2.05 13
1/12/2021 12:00:00 PM 3.04 37.472 0.106 12.05 2.1 12.99
1/12/2021 12:15:00 PM 3.05 37.49 0.106 12.01 2.04 12.98
1/12/2021 12:30:00 PM 3.06 37.508 0.106 11.97 2.07 12.97
1/12/2021 12:45:00 PM 3.1 37.58 0.106 11.95 2.08 12.96
1/12/2021 1:00:00 PM 3.13 37.634 0.106 11.92 2.09 12.95
1/12/2021 1:15:00 PM 3.17 37.706 0.106 11.97 2.04 12.93
1/12/2021 1:30:00 PM 3.21 37.778 0.106 11.93 2.04 12.9
1/12/2021 1:45:00 PM 3.21 37.778 0.106 12 2.12 12.9
1/12/2021 2:00:00 PM 3.24 37.832 0.106 11.98 2.03 12.89
1/12/2021 2:15:00 PM 3.21 37.778 0.106 11.93 2 12.9
1/12/2021 2:30:00 PM 3.21 37.778 0.106 11.93 2.12 12.89
1/12/2021 2:45:00 PM 3.21 37.778 0.106 11.98 2.04 12.89
1/12/2021 3:00:00 PM 3.2 37.76 0.106 11.89 2.08 12.9
1/12/2021 3:15:00 PM 3.21 37.778 0.106 11.94 2.07 12.89
1/12/2021 3:30:00 PM 3.22 37.796 0.106 11.94 2.1 12.89
1/12/2021 3:45:00 PM 3.21 37.778 0.106 11.99 2.06 12.89
1/12/2021 4:00:00 PM 3.21 37.778 0.106 11.93 2.08 12.89
1/12/2021 4:15:00 PM 3.2 37.76 0.106 11.95 1.95 12.89
1/12/2021 4:30:00 PM 3.18 37.724 0.106 11.91 1.89 12.89
1/12/2021 4:45:00 PM 3.17 37.706 0.106 11.94 1.9 12.9
1/12/2021 5:00:00 PM 3.17 37.706 0.106 11.93 1.88 12.9
1/12/2021 5:15:00 PM 3.17 37.706 0.106 11.96 1.88 12.9
1/12/2021 5:30:00 PM 3.16 37.688 0.106 11.91 1.93 12.9
1/12/2021 5:45:00 PM 3.15 37.67 0.106 11.96 1.88 12.9
1/12/2021 6:00:00 PM 3.15 37.67 0.106 11.95 1.91 12.91
1/12/2021 6:15:00 PM 3.14 37.652 0.106 11.93 1.84 12.91
1/12/2021 6:30:00 PM 3.13 37.634 0.106 11.93 1.84 12.91
1/12/2021 6:45:00 PM 3.13 37.634 0.106 11.95 1.9 12.92
1/12/2021 7:00:00 PM 3.12 37.616 0.106 11.92 1.87 12.92
1/12/2021 7:15:00 PM 3.12 37.616 0.106 12.03 1.86 12.91
1/12/2021 7:30:00 PM 3.11 37.598 0.106 11.85 1.89 12.92
1/12/2021 7:45:00 PM 3.12 37.616 0.106 11.93 1.91 12.91
1/12/2021 8:00:00 PM 3.12 37.616 0.106 11.94 1.93 12.92
1/12/2021 8:15:00 PM 3.12 37.616 0.106 11.95 1.83 12.92
1/12/2021 8:30:00 PM 3.13 37.634 0.106 11.89 1.84 12.91
1/12/2021 8:45:00 PM 3.12 37.616 0.106 11.92 1.86 12.91
1/12/2021 9:00:00 PM 3.1 37.58 0.106 11.89 1.81 12.93
1/12/2021 9:15:00 PM 3.09 37.562 0.106 11.91 1.86 12.93
1/12/2021 9:30:00 PM 3.09 37.562 0.106 11.94 1.83 12.93
1/12/2021 9:45:00 PM 3.07 37.526 0.106 11.92 1.84 12.94
1/12/2021 10:00:00 PM 3.06 37.508 0.106 11.94 1.84 12.95
1/12/2021 10:15:00 PM 3.04 37.472 0.106 11.92 1.86 12.95
1/12/2021 10:30:00 PM 3.03 37.454 0.106 11.93 1.88 12.96
1/12/2021 10:45:00 PM 3.01 37.418 0.106 12.05 1.84 12.96
1/12/2021 11:00:00 PM 3 37.4 0.106 12.07 1.82 12.96
1/12/2021 11:15:00 PM 2.99 37.382 0.106 11.97 1.85 12.97
1/12/2021 11:30:00 PM 2.98 37.364 0.106 11.94 1.82 12.97
1/12/2021 11:45:00 PM 2.97 37.346 0.106 11.96 1.84 12.98
1/13/2021 12:00:00 AM 2.95 37.31 0.106 11.92 1.86 12.98
1/13/2021 12:15:00 AM 2.94 37.292 0.106 11.94 1.84 12.99
1/13/2021 12:30:00 AM 2.93 37.274 0.106 11.94 1.97 12.99
1/13/2021 12:45:00 AM 2.92 37.256 0.106 11.96 1.88 12.99
1/13/2021 1:00:00 AM 2.9 37.22 0.106 11.98 1.88 13
1/13/2021 1:15:00 AM 2.88 37.184 0.106 12 1.85 13
1/13/2021 1:30:00 AM 2.87 37.166 0.106 11.99 1.85 13.01
1/13/2021 1:45:00 AM 2.84 37.112 0.106 11.96 1.96 13.02
1/13/2021 2:00:00 AM 2.83 37.094 0.106 11.88 1.9 13.02
1/13/2021 2:15:00 AM 2.82 37.076 0.106 11.98 1.86 13.02
1/13/2021 2:30:00 AM 2.8 37.04 0.106 11.99 1.86 13.03
1/13/2021 2:45:00 AM 2.78 37.004 0.106 12 1.94 13.03
1/13/2021 3:00:00 AM 2.77 36.986 0.106 11.99 1.93 13.04
1/13/2021 3:15:00 AM 2.75 36.95 0.106 11.98 1.88 13.05
1/13/2021 3:30:00 AM 2.74 36.932 0.106 12.03 1.94 13.05
1/13/2021 3:45:00 AM 2.74 36.932 0.106 11.96 1.82 13.04
1/13/2021 4:00:00 AM 2.73 36.914 0.106 11.96 1.93 13.04
1/13/2021 4:15:00 AM 2.72 36.896 0.106 12.03 1.91 13.05
1/13/2021 4:30:00 AM 2.72 36.896 0.106 12 1.97 13.05
1/13/2021 4:45:00 AM 2.72 36.896 0.106 11.97 1.95 13.04
1/13/2021 5:00:00 AM 2.72 36.896 0.106 11.99 1.81 13.04
1/13/2021 5:15:00 AM 2.72 36.896 0.106 12.03 1.92 13.04
1/13/2021 5:30:00 AM 2.73 36.914 0.106 11.99 1.94 13.04
1/13/2021 5:45:00 AM 2.73 36.914 0.106 12.01 2 13.04
1/13/2021 6:00:00 AM 2.72 36.896 0.106 12.06 1.93 13.04
1/13/2021 6:15:00 AM 2.72 36.896 0.106 11.99 1.91 13.04
1/13/2021 6:30:00 AM 2.71 36.878 0.106 12.12 1.97 13.04
1/13/2021 6:45:00 AM 2.71 36.878 0.106 11.98 1.9 13.03
1/13/2021 7:00:00 AM 2.7 36.86 0.106 12 1.92 13.04
1/13/2021 7:15:00 AM 2.7 36.86 0.106 11.95 1.94 13.04
1/13/2021 7:30:00 AM 2.68 36.824 0.106 11.94 2.01 13.04
1/13/2021 7:45:00 AM 2.68 36.824 0.106 12.05 1.88 13.04
1/13/2021 8:00:00 AM 2.67 36.806 0.106 12 1.91 13.04
1/13/2021 8:15:00 AM 2.68 36.824 0.106 11.96 1.88 13.04
1/13/2021 8:30:00 AM 2.68 36.824 0.106 12.03 2.14 13.04
1/13/2021 8:45:00 AM 2.68 36.824 0.106 12.02 1.98 13.04
1/13/2021 9:00:00 AM 2.69 36.842 0.106 12.01 1.94 13.04
1/13/2021 9:15:00 AM 2.71 36.878 0.106 11.99 1.95 13.04
1/13/2021 9:30:00 AM 2.72 36.896 0.106 12 1.95 13.04
1/13/2021 9:45:00 AM 2.74 36.932 0.106 12.03 1.96 13.03
1/13/2021 10:00:00 AM 2.77 36.986 0.106 12.02 1.91 13.02
1/13/2021 10:15:00 AM 2.8 37.04 0.106 12.02 1.85 13.02
1/13/2021 10:30:00 AM 2.83 37.094 0.106 11.94 1.96 13.01
1/13/2021 10:45:00 AM 2.88 37.184 0.106 11.99 1.93 12.99
1/13/2021 11:00:00 AM 2.93 37.274 0.106 11.96 1.91 12.97
1/13/2021 11:15:00 AM 3 37.4 0.106 11.93 1.9 12.95
1/13/2021 11:30:00 AM 3.04 37.472 0.106 11.94 1.92 12.92
1/13/2021 11:45:00 AM 3.11 37.598 0.106 11.89 1.93 12.89
1/13/2021 12:00:00 PM 3.18 37.724 0.106 11.91 2 12.86
1/13/2021 12:15:00 PM 3.24 37.832 0.106 11.86 1.94 12.84
1/13/2021 12:30:00 PM 3.31 37.958 0.106 11.85 1.94 12.81
1/13/2021 12:45:00 PM 3.39 38.102 0.106 11.89 1.98 12.78
1/13/2021 1:00:00 PM 3.43 38.174 0.106 11.87 1.91 12.76
1/13/2021 1:15:00 PM 3.48 38.264 0.106 11.82 1.93 12.74
1/13/2021 1:30:00 PM 3.5 38.3 0.106 11.82 1.9 12.73
1/13/2021 1:45:00 PM 3.51 38.318 0.106 11.8 1.94 12.72
1/13/2021 2:00:00 PM 3.54 38.372 0.106 11.85 2 12.71
1/13/2021 2:15:00 PM 3.55 38.39 0.106 11.83 1.99 12.71
1/13/2021 2:30:00 PM 3.56 38.408 0.106 11.85 1.91 12.7
1/13/2021 2:45:00 PM 3.56 38.408 0.106 11.79 1.9 12.7
1/13/2021 3:00:00 PM 3.56 38.408 0.106 11.77 1.97 12.7
1/13/2021 3:15:00 PM 3.56 38.408 0.106 11.8 1.93 12.7
1/13/2021 3:30:00 PM 3.56 38.408 0.106 11.77 1.97 12.7
1/13/2021 3:45:00 PM 3.57 38.426 0.106 11.73 2 12.69
1/13/2021 4:00:00 PM 3.57 38.426 0.106 11.79 1.96 12.69
1/13/2021 4:15:00 PM 3.56 38.408 0.106 11.78 1.97 12.69
1/13/2021 4:30:00 PM 3.56 38.408 0.106 11.77 1.95 12.69
1/13/2021 4:45:00 PM 3.56 38.408 0.106 11.79 1.92 12.68
1/13/2021 5:00:00 PM 3.55 38.39 0.106 11.77 1.98 12.69
1/13/2021 5:15:00 PM 3.55 38.39 0.106 11.75 1.93 12.68
1/13/2021 5:30:00 PM 3.54 38.372 0.106 11.76 1.98 12.68
1/13/2021 5:45:00 PM 3.53 38.354 0.106 11.78 1.96 12.69
1/13/2021 6:00:00 PM 3.53 38.354 0.106 11.79 1.99 12.68
1/13/2021 6:15:00 PM 3.53 38.354 0.106 11.77 1.96 12.69
1/13/2021 6:30:00 PM 3.53 38.354 0.106 11.81 2 12.69
1/13/2021 6:45:00 PM 3.52 38.336 0.106 11.81 1.97 12.69
1/13/2021 7:00:00 PM 3.52 38.336 0.106 11.79 1.95 12.68
1/13/2021 7:15:00 PM 3.53 38.354 0.106 11.8 2.03 12.68
1/13/2021 7:30:00 PM 3.53 38.354 0.106 11.82 2 12.69
1/13/2021 7:45:00 PM 3.54 38.372 0.106 11.79 2 12.68
1/13/2021 8:00:00 PM 3.55 38.39 0.106 11.76 1.97 12.68
1/13/2021 8:15:00 PM 3.56 38.408 0.106 11.72 1.98 12.67
1/13/2021 8:30:00 PM 3.56 38.408 0.106 11.71 1.99 12.67
1/13/2021 8:45:00 PM 3.57 38.426 0.106 11.75 2.01 12.67
1/13/2021 9:00:00 PM 3.57 38.426 0.106 11.77 2 12.67
1/13/2021 9:15:00 PM 3.58 38.444 0.106 11.71 1.97 12.66
1/13/2021 9:30:00 PM 3.58 38.444 0.106 11.84 1.92 12.67
1/13/2021 9:45:00 PM 3.58 38.444 0.106 11.77 1.99 12.66
1/13/2021 10:00:00 PM 3.58 38.444 0.106 11.76 1.94 12.66
1/13/2021 10:15:00 PM 3.58 38.444 0.106 11.78 1.98 12.66
1/13/2021 10:30:00 PM 3.58 38.444 0.106 11.73 1.98 12.66
1/13/2021 10:45:00 PM 3.58 38.444 0.106 11.74 2.05 12.67
1/13/2021 11:00:00 PM 3.58 38.444 0.106 11.74 1.95 12.66
1/13/2021 11:15:00 PM 3.58 38.444 0.106 11.77 2.02 12.66
1/13/2021 11:30:00 PM 3.58 38.444 0.106 11.75 2.08 12.66
1/13/2021 11:45:00 PM 3.57 38.426 0.106 11.76 1.97 12.66
1/14/2021 12:00:00 AM 3.56 38.408 0.106 11.76 1.94 12.66
1/14/2021 12:15:00 AM 3.56 38.408 0.106 11.74 1.97 12.66
1/14/2021 12:30:00 AM 3.57 38.426 0.106 11.79 1.98 12.66
1/14/2021 12:45:00 AM 3.58 38.444 0.106 11.76 2.04 12.66
1/14/2021 1:00:00 AM 3.59 38.462 0.106 11.77 2.02 12.65
1/14/2021 1:15:00 AM 3.59 38.462 0.106 11.78 1.91 12.65
1/14/2021 1:30:00 AM 3.6 38.48 0.106 11.78 2.03 12.64
1/14/2021 1:45:00 AM 3.6 38.48 0.106 11.78 1.98 12.64
1/14/2021 2:00:00 AM 3.61 38.498 0.106 11.81 2.03 12.63
1/14/2021 2:15:00 AM 3.62 38.516 0.106 11.76 2.01 12.64
1/14/2021 2:30:00 AM 3.63 38.534 0.106 11.84 1.95 12.63
1/14/2021 2:45:00 AM 3.63 38.534 0.106 11.75 2 12.62
1/14/2021 3:00:00 AM 3.64 38.552 0.106 11.78 1.95 12.62
1/14/2021 3:15:00 AM 3.64 38.552 0.106 11.73 1.99 12.63
1/14/2021 3:30:00 AM 3.64 38.552 0.106 11.75 2.01 12.62
1/14/2021 3:45:00 AM 3.64 38.552 0.106 11.76 2.01 12.62
1/14/2021 4:00:00 AM 3.64 38.552 0.106 11.73 2.02 12.61
1/14/2021 4:15:00 AM 3.64 38.552 0.106 11.75 2.03 12.62
1/14/2021 4:30:00 AM 3.65 38.57 0.106 11.72 1.95 12.61
1/14/2021 4:45:00 AM 3.65 38.57 0.106 11.72 2.02 12.61
1/14/2021 5:00:00 AM 3.65 38.57 0.106 11.76 1.96 12.61
1/14/2021 5:15:00 AM 3.65 38.57 0.106 11.68 2.04 12.61
1/14/2021 5:30:00 AM 3.65 38.57 0.106 11.74 1.95 12.62
1/14/2021 5:45:00 AM 3.65 38.57 0.106 11.73 2.02 12.61
1/14/2021 6:00:00 AM 3.65 38.57 0.106 11.73 1.95 12.61
1/14/2021 6:15:00 AM 3.65 38.57 0.106 11.73 2.04 12.62
1/14/2021 6:30:00 AM 3.65 38.57 0.106 11.73 2 12.62
1/14/2021 6:45:00 AM 3.65 38.57 0.106 11.77 2.01 12.62
1/14/2021 7:00:00 AM 3.65 38.57 0.106 11.69 1.97 12.62
1/14/2021 7:15:00 AM 3.65 38.57 0.106 11.68 1.97 12.62
1/14/2021 7:30:00 AM 3.65 38.57 0.106 11.75 1.97 12.62
1/14/2021 7:45:00 AM 3.65 38.57 0.106 11.7 2.02 12.63
1/14/2021 8:00:00 AM 3.65 38.57 0.106 11.69 1.94 12.63
1/14/2021 8:15:00 AM 3.65 38.57 0.106 11.73 2 12.63
1/14/2021 8:30:00 AM 3.66 38.588 0.106 11.73 1.94 12.62
1/14/2021 8:45:00 AM 3.68 38.624 0.106 11.72 1.95 12.62
1/14/2021 9:00:00 AM 3.69 38.642 0.106 11.68 1.96 12.62
1/14/2021 9:15:00 AM 3.71 38.678 0.106 11.74 1.95 12.62
1/14/2021 9:30:00 AM 3.74 38.732 0.106 11.74 2.01 12.61
1/14/2021 9:45:00 AM 3.77 38.786 0.106 11.71 2 12.6
1/14/2021 10:00:00 AM 3.8 38.84 0.106 11.71 2.01 12.59
1/14/2021 10:15:00 AM 3.83 38.894 0.106 11.69 1.97 12.58
1/14/2021 10:30:00 AM 3.88 38.984 0.106 11.68 1.96 12.57
1/14/2021 10:45:00 AM 3.91 39.038 0.106 11.67 1.96 12.56
1/14/2021 11:00:00 AM 3.96 39.128 0.106 11.65 2 12.54
1/14/2021 11:15:00 AM 4.02 39.236 0.106 11.68 2.12 12.53
1/14/2021 11:30:00 AM 4.09 39.362 0.106 11.6 2.04 12.5
1/14/2021 11:45:00 AM 4.17 39.506 0.106 11.62 1.94 12.47
1/14/2021 12:00:00 PM 4.25 39.65 0.106 11.64 1.91 12.44
1/14/2021 12:15:00 PM 4.29 39.722 0.106 11.57 2 12.42
1/14/2021 12:30:00 PM 4.33 39.794 0.106 11.62 2.01 12.4
1/14/2021 12:45:00 PM 4.37 39.866 0.106 11.66 1.99 12.38
1/14/2021 1:00:00 PM 4.4 39.92 0.106 11.62 1.98 12.37
1/14/2021 1:15:00 PM 4.43 39.974 0.106 11.65 1.98 12.36
1/14/2021 1:30:00 PM 4.46 40.028 0.106 11.63 1.97 12.35
1/14/2021 1:45:00 PM 4.49 40.082 0.106 11.56 1.96 12.34
1/14/2021 2:00:00 PM 4.54 40.172 0.106 11.55 2.02 12.32
1/14/2021 2:15:00 PM 4.57 40.226 0.106 11.52 2.03 12.31
1/14/2021 2:30:00 PM 4.59 40.262 0.106 11.58 1.98 12.3
1/14/2021 2:45:00 PM 4.57 40.226 0.106 11.53 2.02 12.3
1/14/2021 3:00:00 PM 4.53 40.154 0.106 11.6 2.06 12.32
1/14/2021 3:15:00 PM 4.48 40.064 0.106 11.66 2 12.33
1/14/2021 3:30:00 PM 4.44 39.992 0.107 11.69 2 12.35
1/14/2021 3:45:00 PM 4.4 39.92 0.107 11.59 2.09 12.36
1/14/2021 4:00:00 PM 4.36 39.848 0.107 11.76 2.05 12.38
1/14/2021 4:15:00 PM 4.32 39.776 0.107 11.62 2.02 12.39
1/14/2021 4:30:00 PM 4.29 39.722 0.107 11.66 2.06 12.4
1/14/2021 4:45:00 PM 4.27 39.686 0.108 11.66 2.01 12.4
1/14/2021 5:00:00 PM 4.25 39.65 0.109 11.85 2.01 12.41
1/14/2021 5:15:00 PM 4.23 39.614 0.11 11.68 2.06 12.41
1/14/2021 5:30:00 PM 4.2 39.56 0.111 11.69 2.04 12.42
1/14/2021 5:45:00 PM 4.18 39.524 0.112 11.75 2.14 12.43
1/14/2021 6:00:00 PM 4.14 39.452 0.113 11.72 2.09 12.44
1/14/2021 6:15:00 PM 4.11 39.398 0.114 11.76 2.03 12.46
1/14/2021 6:30:00 PM 4.08 39.344 0.114 11.73 2.05 12.47
1/14/2021 6:45:00 PM 4.05 39.29 0.115 11.74 2.01 12.48
1/14/2021 7:00:00 PM 4.03 39.254 0.115 11.8 2.16 12.48
1/14/2021 7:15:00 PM 4 39.2 0.115 11.9 2.22 12.5
1/14/2021 7:30:00 PM 3.97 39.146 0.116 11.76 2.03 12.51
1/14/2021 7:45:00 PM 3.93 39.074 0.116 11.82 2.01 12.53
1/14/2021 8:00:00 PM 3.9 39.02 0.116 11.9 2.12 12.53
1/14/2021 8:15:00 PM 3.87 38.966 0.116 11.86 1.98 12.55
1/14/2021 8:30:00 PM 3.84 38.912 0.117 11.98 2.03 12.56
1/14/2021 8:45:00 PM 3.81 38.858 0.117 11.88 1.96 12.56
1/14/2021 9:00:00 PM 3.79 38.822 0.117 11.92 1.99 12.57
1/14/2021 9:15:00 PM 3.78 38.804 0.117 11.84 1.97 12.57
1/14/2021 9:30:00 PM 3.77 38.786 0.117 11.82 2.09 12.57
1/14/2021 9:45:00 PM 3.76 38.768 0.117 11.9 2 12.58
1/14/2021 10:00:00 PM 3.75 38.75 0.117 11.94 1.97 12.58
1/14/2021 10:15:00 PM 3.75 38.75 0.117 11.84 2.08 12.59
1/14/2021 10:30:00 PM 3.75 38.75 0.117 11.85 1.99 12.58
1/14/2021 10:45:00 PM 3.75 38.75 0.117 11.82 1.99 12.59
1/14/2021 11:00:00 PM 3.75 38.75 0.117 11.85 2.04 12.59
1/14/2021 11:15:00 PM 3.75 38.75 0.117 11.97 1.97 12.58
1/14/2021 11:30:00 PM 3.75 38.75 0.117 11.91 1.97 12.59
1/14/2021 11:45:00 PM 3.74 38.732 0.117 11.88 2.03 12.59
1/15/2021 12:00:00 AM 3.72 38.696 0.117 11.9 1.98 12.6
1/15/2021 12:15:00 AM 3.7 38.66 0.117 12.22 2.06 12.6
1/15/2021 12:30:00 AM 3.67 38.606 0.117 12.22 2.02 12.61
1/15/2021 12:45:00 AM 3.64 38.552 0.117 12.16 1.98 12.62
1/15/2021 1:00:00 AM 3.61 38.498 0.117 12.2 2 12.63
1/15/2021 1:15:00 AM 3.6 38.48 0.117 12.18 1.98 12.63
1/15/2021 1:30:00 AM 3.59 38.462 0.117 12.19 1.97 12.64
1/15/2021 1:45:00 AM 3.6 38.48 0.117 12.22 1.96 12.64
1/15/2021 2:00:00 AM 3.61 38.498 0.117 12.29 2.01 12.64
1/15/2021 2:15:00 AM 3.62 38.516 0.117 12.22 1.93 12.62
1/15/2021 2:30:00 AM 3.63 38.534 0.117 12.23 1.96 12.62
1/15/2021 2:45:00 AM 3.65 38.57 0.117 12.25 2.02 12.62
1/15/2021 3:00:00 AM 3.64 38.552 0.117 12.27 2.02 12.62
1/15/2021 3:15:00 AM 3.63 38.534 0.117 12.31 1.99 12.62
1/15/2021 3:30:00 AM 3.62 38.516 0.117 12.29 2 12.63
1/15/2021 3:45:00 AM 3.59 38.462 0.117 12.3 1.99 12.63
1/15/2021 4:00:00 AM 3.57 38.426 0.117 12.32 2.08 12.64
1/15/2021 4:15:00 AM 3.55 38.39 0.118 12.32 2.02 12.64
1/15/2021 4:30:00 AM 3.54 38.372 0.117 12.31 1.99 12.65
1/15/2021 4:45:00 AM 3.53 38.354 0.117 12.32 2.08 12.65
1/15/2021 5:00:00 AM 3.52 38.336 0.117 12.34 2.05 12.65
1/15/2021 5:15:00 AM 3.52 38.336 0.117 12.34 2.01 12.66
1/15/2021 5:30:00 AM 3.52 38.336 0.117 12.32 2.01 12.65
1/15/2021 5:45:00 AM 3.52 38.336 0.117 12.33 2.05 12.66
1/15/2021 6:00:00 AM 3.52 38.336 0.117 12.34 2.02 12.66
1/15/2021 6:15:00 AM 3.52 38.336 0.117 12.35 1.97 12.66
1/15/2021 6:30:00 AM 3.53 38.354 0.117 12.34 2 12.65
1/15/2021 6:45:00 AM 3.53 38.354 0.117 12.36 1.96 12.65
1/15/2021 7:00:00 AM 3.53 38.354 0.117 12.36 1.96 12.65
1/15/2021 7:15:00 AM 3.53 38.354 0.117 12.37 2.01 12.65
1/15/2021 7:30:00 AM 3.53 38.354 0.117 12.39 2.01 12.65
1/15/2021 7:45:00 AM 3.53 38.354 0.117 12.39 2.12 12.65
1/15/2021 8:00:00 AM 3.53 38.354 0.117 12.38 2.08 12.65
1/15/2021 8:15:00 AM 3.52 38.336 0.117 12.36 2.05 12.65
1/15/2021 8:30:00 AM 3.52 38.336 0.117 12.38 2.04 12.66
1/15/2021 8:45:00 AM 3.53 38.354 0.117 12.39 1.98 12.66
1/15/2021 9:00:00 AM 3.54 38.372 0.117 12.36 2.02 12.65
1/15/2021 9:15:00 AM 3.56 38.408 0.117 12.38 2.06 12.65
1/15/2021 9:30:00 AM 3.58 38.444 0.117 12.38 1.99 12.64
1/15/2021 9:45:00 AM 3.6 38.48 0.117 12.39 2.15 12.63
1/15/2021 10:00:00 AM 3.62 38.516 0.117 12.39 1.91 12.62
1/15/2021 10:15:00 AM 3.65 38.57 0.117 12.38 2.07 12.61
1/15/2021 10:30:00 AM 3.68 38.624 0.117 12.43 2.02 12.6
1/15/2021 10:45:00 AM 3.71 38.678 0.117 12.37 2.07 12.59
1/15/2021 11:00:00 AM 3.74 38.732 0.117 12.36 2.01 12.58
1/15/2021 11:15:00 AM 3.76 38.768 0.117 12.4 1.97 12.57
1/15/2021 11:30:00 AM 3.8 38.84 0.117 12.37 1.99 12.55
1/15/2021 11:45:00 AM 3.82 38.876 0.117 12.38 1.94 12.55
1/15/2021 12:00:00 PM 3.86 38.948 0.117 12.37 1.94 12.54
1/15/2021 12:15:00 PM 3.89 39.002 0.117 12.37 1.98 12.51
1/15/2021 12:30:00 PM 3.9 39.02 0.117 12.36 2.03 12.51
1/15/2021 12:45:00 PM 3.92 39.056 0.117 12.35 2 12.49
1/15/2021 1:00:00 PM 3.96 39.128 0.117 12.34 2.01 12.48
1/15/2021 1:15:00 PM 4.01 39.218 0.117 12.33 2.03 12.46
1/15/2021 1:30:00 PM 4.01 39.218 0.117 12.34 2.01 12.45
1/15/2021 1:45:00 PM 4.02 39.236 0.117 12.33 1.97 12.45
1/15/2021 2:00:00 PM 4.02 39.236 0.117 12.34 2.03 12.45
1/15/2021 2:15:00 PM 4.02 39.236 0.117 12.37 2.02 12.45
1/15/2021 2:30:00 PM 4.01 39.218 0.117 12.37 2.07 12.46
1/15/2021 2:45:00 PM 3.99 39.182 0.117 12.38 2.04 12.45
1/15/2021 3:00:00 PM 3.97 39.146 0.117 12.38 2.06 12.46
1/15/2021 3:15:00 PM 3.95 39.11 0.118 12.38 2.05 12.47
1/15/2021 3:30:00 PM 3.92 39.056 0.118 12.36 2.04 12.48
1/15/2021 3:45:00 PM 3.84 38.912 0.118 12.38 2.05 12.49
1/15/2021 4:00:00 PM 3.74 38.732 0.118 12.42 2.05 12.53
1/15/2021 4:15:00 PM 3.71 38.678 0.118 12.4 2.11 12.54
1/15/2021 4:30:00 PM 3.61 38.498 0.118 12.44 2.12 12.56
1/15/2021 4:45:00 PM 3.48 38.264 0.118 12.46 2.12 12.59
1/15/2021 5:00:00 PM 3.37 38.066 0.118 12.49 2.13 12.64
1/15/2021 5:15:00 PM 3.29 37.922 0.118 12.51 2.21 12.68
1/15/2021 5:30:00 PM 3.25 37.85 0.118 12.53 2.16 12.7
1/15/2021 5:45:00 PM 3.23 37.814 0.119 12.54 2.18 12.71
1/15/2021 6:00:00 PM 3.24 37.832 0.119 12.53 2.1 12.72
1/15/2021 6:15:00 PM 3.24 37.832 0.119 12.52 2.16 12.72
1/15/2021 6:30:00 PM 3.26 37.868 0.12 12.53 2.1 12.71
1/15/2021 6:45:00 PM 3.24 37.832 0.12 12.55 2.13 12.71
1/15/2021 7:00:00 PM 3.21 37.778 0.12 12.57 2.13 12.72
1/15/2021 7:15:00 PM 3.18 37.724 0.12 12.55 2.1 12.73
1/15/2021 7:30:00 PM 3.13 37.634 0.12 12.56 2.13 12.75
1/15/2021 7:45:00 PM 3.12 37.616 0.12 12.58 2.12 12.76
1/15/2021 8:00:00 PM 3.12 37.616 0.121 12.68 2.11 12.76
1/15/2021 8:15:00 PM 3.11 37.598 0.121 12.56 2.09 12.76
1/15/2021 8:30:00 PM 3.12 37.616 0.121 12.54 2.09 12.76
1/15/2021 8:45:00 PM 3.14 37.652 0.121 12.59 2.11 12.75
1/15/2021 9:00:00 PM 3.18 37.724 0.121 12.56 2.04 12.74
1/15/2021 9:15:00 PM 3.23 37.814 0.121 12.56 2.05 12.73
1/15/2021 9:30:00 PM 3.26 37.868 0.121 12.59 1.99 12.71
1/15/2021 9:45:00 PM 3.27 37.886 0.121 12.59 2.04 12.71
1/15/2021 10:00:00 PM 3.27 37.886 0.121 12.55 2.09 12.71
1/15/2021 10:15:00 PM 3.29 37.922 0.122 12.6 2.07 12.7
1/15/2021 10:30:00 PM 3.32 37.976 0.125 12.59 2 12.7
1/15/2021 10:45:00 PM 3.34 38.012 0.128 12.56 2.03 12.69
1/15/2021 11:00:00 PM 3.36 38.048 0.129 12.57 2.02 12.68
1/15/2021 11:15:00 PM 3.38 38.084 0.13 12.57 2.05 12.67
1/15/2021 11:30:00 PM 3.4 38.12 0.13 12.74 2.06 12.66
1/15/2021 11:45:00 PM 3.42 38.156 0.131 12.61 2.02 12.65
1/16/2021 12:00:00 AM 3.43 38.174 0.132 12.63 1.99 12.65
1/16/2021 12:15:00 AM 3.44 38.192 0.133 12.63 2.02 12.64
1/16/2021 12:30:00 AM 3.44 38.192 0.135 12.68 2 12.63
1/16/2021 12:45:00 AM 3.44 38.192 0.137 12.7 2.03 12.64
1/16/2021 1:00:00 AM 3.44 38.192 0.139 12.66 2.06 12.63
1/16/2021 1:15:00 AM 3.44 38.192 0.14 12.65 2.06 12.63
1/16/2021 1:30:00 AM 3.43 38.174 0.142 12.64 2 12.64
1/16/2021 1:45:00 AM 3.42 38.156 0.143 12.67 1.98 12.64
1/16/2021 2:00:00 AM 3.42 38.156 0.145 12.69 2.01 12.64
1/16/2021 2:15:00 AM 3.4 38.12 0.146 12.65 2.04 12.64
1/16/2021 2:30:00 AM 3.37 38.066 0.146 12.65 2.03 12.65
1/16/2021 2:45:00 AM 3.34 38.012 0.146 12.67 2.04 12.66
1/16/2021 3:00:00 AM 3.3 37.94 0.146 12.66 2.02 12.68
1/16/2021 3:15:00 AM 3.26 37.868 0.146 12.69 1.99 12.68
1/16/2021 3:30:00 AM 3.22 37.796 0.147 12.71 2.03 12.7
1/16/2021 3:45:00 AM 3.18 37.724 0.147 12.73 1.97 12.71
1/16/2021 4:00:00 AM 3.14 37.652 0.147 12.7 1.99 12.72
1/16/2021 4:15:00 AM 3.1 37.58 0.148 12.69 2.03 12.73
1/16/2021 4:30:00 AM 3.06 37.508 0.148 12.73 1.99 12.74
1/16/2021 4:45:00 AM 3.02 37.436 0.148 12.76 1.97 12.75
1/16/2021 5:00:00 AM 2.98 37.364 0.149 12.74 2 12.76
1/16/2021 5:15:00 AM 2.94 37.292 0.149 12.79 1.98 12.77
1/16/2021 5:30:00 AM 2.9 37.22 0.149 12.76 1.98 12.78
1/16/2021 5:45:00 AM 2.86 37.148 0.149 12.8 2.02 12.79
1/16/2021 6:00:00 AM 2.82 37.076 0.149 12.81 1.97 12.81
1/16/2021 6:15:00 AM 2.79 37.022 0.15 12.79 2.02 12.82
1/16/2021 6:30:00 AM 2.75 36.95 0.15 12.84 2.01 12.83
1/16/2021 6:45:00 AM 2.72 36.896 0.15 12.84 1.97 12.84
1/16/2021 7:00:00 AM 2.7 36.86 0.15 12.84 1.96 12.85
1/16/2021 7:15:00 AM 2.68 36.824 0.15 12.82 2.01 12.86
1/16/2021 7:30:00 AM 2.67 36.806 0.15 12.83 1.99 12.87
1/16/2021 7:45:00 AM 2.66 36.788 0.149 12.85 1.99 12.87
1/16/2021 8:00:00 AM 2.66 36.788 0.149 12.83 2.01 12.87
1/16/2021 8:15:00 AM 2.66 36.788 0.149 12.83 1.98 12.87
1/16/2021 8:30:00 AM 2.66 36.788 0.149 12.82 1.96 12.87
1/16/2021 8:45:00 AM 2.66 36.788 0.149 12.83 2.02 12.87
1/16/2021 9:00:00 AM 2.66 36.788 0.148 12.86 2.04 12.87
1/16/2021 9:15:00 AM 2.68 36.824 0.148 12.88 1.99 12.87
1/16/2021 9:30:00 AM 2.7 36.86 0.148 12.87 2.02 12.86
1/16/2021 9:45:00 AM 2.73 36.914 0.148 12.87 2 12.85
1/16/2021 10:00:00 AM 2.78 37.004 0.147 12.85 2.04 12.83
1/16/2021 10:15:00 AM 2.84 37.112 0.147 12.85 1.97 12.81
1/16/2021 10:30:00 AM 2.89 37.202 0.147 12.79 2.02 12.78
1/16/2021 10:45:00 AM 2.96 37.328 0.147 12.77 2.02 12.76
1/16/2021 11:00:00 AM 3.04 37.472 0.147 12.76 2.06 12.73
1/16/2021 11:15:00 AM 3.13 37.634 0.147 12.72 2.05 12.7
1/16/2021 11:30:00 AM 3.22 37.796 0.147 12.74 2.05 12.67
1/16/2021 11:45:00 AM 3.32 37.976 0.146 12.71 2.04 12.64
1/16/2021 12:00:00 PM 3.41 38.138 0.146 12.7 1.99 12.6
1/16/2021 12:15:00 PM 3.45 38.21 0.146 12.66 1.99 12.58
1/16/2021 12:30:00 PM 3.47 38.246 0.146 12.66 1.95 12.57
1/16/2021 12:45:00 PM 3.49 38.282 0.146 12.66 1.98 12.56
1/16/2021 1:00:00 PM 3.5 38.3 0.145 12.68 2.01 12.56
1/16/2021 1:15:00 PM 3.52 38.336 0.145 12.68 2.02 12.54
1/16/2021 1:30:00 PM 3.54 38.372 0.145 12.66 2.06 12.54
1/16/2021 1:45:00 PM 3.55 38.39 0.145 12.65 2.1 12.53
1/16/2021 2:00:00 PM 3.56 38.408 0.145 12.58 2.02 12.52
1/16/2021 2:15:00 PM 3.57 38.426 0.145 12.66 2.03 12.52
1/16/2021 2:30:00 PM 3.57 38.426 0.146 12.67 2.05 12.52
1/16/2021 2:45:00 PM 3.58 38.444 0.146 12.65 2.04 12.52
1/16/2021 3:00:00 PM 3.59 38.462 0.146 12.67 2.06 12.51
1/16/2021 3:15:00 PM 3.56 38.408 0.146 12.68 2.14 12.52
1/16/2021 3:30:00 PM 3.54 38.372 0.146 12.67 2.02 12.53
1/16/2021 3:45:00 PM 3.52 38.336 0.146 12.68 2.05 12.54
1/16/2021 4:00:00 PM 3.5 38.3 0.146 12.69 2.01 12.55
1/16/2021 4:15:00 PM 3.48 38.264 0.146 12.69 1.99 12.56
1/16/2021 4:30:00 PM 3.45 38.21 0.146 12.7 2.1 12.56
1/16/2021 4:45:00 PM 3.43 38.174 0.146 12.72 2.01 12.57
1/16/2021 5:00:00 PM 3.4 38.12 0.146 12.7 1.98 12.59
1/16/2021 5:15:00 PM 3.38 38.084 0.146 12.74 1.99 12.59
1/16/2021 5:30:00 PM 3.36 38.048 0.146 12.75 1.98 12.6
1/16/2021 5:45:00 PM 3.34 38.012 0.146 12.72 2.05 12.61
1/16/2021 6:00:00 PM 3.31 37.958 0.146 12.77 2.02 12.62
1/16/2021 6:15:00 PM 3.29 37.922 0.146 12.8 1.97 12.63
1/16/2021 6:30:00 PM 3.27 37.886 0.146 12.84 2.1 12.64
1/16/2021 6:45:00 PM 3.26 37.868 0.146 12.79 2.1 12.65
1/16/2021 7:00:00 PM 3.25 37.85 0.146 12.79 1.99 12.65
1/16/2021 7:15:00 PM 3.24 37.832 0.146 12.83 2.04 12.66
1/16/2021 7:30:00 PM 3.23 37.814 0.145 12.84 2.02 12.66
1/16/2021 7:45:00 PM 3.22 37.796 0.145 12.82 2.03 12.66
1/16/2021 8:00:00 PM 3.21 37.778 0.145 12.84 2 12.66
1/16/2021 8:15:00 PM 3.2 37.76 0.145 12.83 2.06 12.67
1/16/2021 8:30:00 PM 3.17 37.706 0.145 12.83 2.03 12.68
1/16/2021 8:45:00 PM 3.15 37.67 0.145 12.8 2.03 12.68
1/16/2021 9:00:00 PM 3.13 37.634 0.145 12.85 2.03 12.68
1/16/2021 9:15:00 PM 3.06 37.508 0.145 12.82 1.98 12.69
1/16/2021 9:30:00 PM 3.03 37.454 0.144 12.83 2.04 12.71
1/16/2021 9:45:00 PM 2.86 37.148 0.144 12.88 2.02 12.74
1/16/2021 10:00:00 PM 2.52 36.536 0.143 12.92 2.05 12.84
1/16/2021 10:15:00 PM 2.42 36.356 0.143 12.92 2.07 12.91
1/16/2021 10:30:00 PM 2.29 36.122 0.143 12.98 2.07 12.95
1/16/2021 10:45:00 PM 2.25 36.05 0.143 12.97 2.07 12.98
1/16/2021 11:00:00 PM 2.27 36.086 0.142 13.01 2.07 12.98
1/16/2021 11:15:00 PM 2.3 36.14 0.143 12.97 2.12 12.99
1/16/2021 11:30:00 PM 2.36 36.248 0.143 12.97 2.04 12.97
1/16/2021 11:45:00 PM 2.42 36.356 0.143 12.89 2.04 12.95
1/17/2021 12:00:00 AM 2.48 36.464 0.143 12.94 2 12.93
1/17/2021 12:15:00 AM 2.53 36.554 0.143 12.95 2.05 12.91
1/17/2021 12:30:00 AM 2.57 36.626 0.143 12.97 2.03 12.9
1/17/2021 12:45:00 AM 2.59 36.662 0.143 12.94 2.1 12.89
1/17/2021 1:00:00 AM 2.6 36.68 0.143 12.94 2.02 12.89
1/17/2021 1:15:00 AM 2.58 36.644 0.143 12.95 2.05 12.89
1/17/2021 1:30:00 AM 2.57 36.626 0.143 12.95 2 12.9
1/17/2021 1:45:00 AM 2.55 36.59 0.143 12.95 2.07 12.91
1/17/2021 2:00:00 AM 2.53 36.554 0.143 12.96 2.07 12.91
1/17/2021 2:15:00 AM 2.52 36.536 0.143 12.96 2.05 12.92
1/17/2021 2:30:00 AM 2.51 36.518 0.143 12.95 2.01 12.93
1/17/2021 2:45:00 AM 2.49 36.482 0.143 12.95 2.05 12.94
1/17/2021 3:00:00 AM 2.49 36.482 0.143 12.92 2.01 12.94
1/17/2021 3:15:00 AM 2.51 36.518 0.143 12.95 2.04 12.93
1/17/2021 3:30:00 AM 2.52 36.536 0.143 12.95 2.03 12.92
1/17/2021 3:45:00 AM 2.53 36.554 0.143 12.91 2.05 12.93
1/17/2021 4:00:00 AM 2.55 36.59 0.143 12.97 2.04 12.92
1/17/2021 4:15:00 AM 2.56 36.608 0.143 12.96 2.05 12.92
1/17/2021 4:30:00 AM 2.58 36.644 0.143 12.95 2.01 12.91
1/17/2021 4:45:00 AM 2.58 36.644 0.143 12.94 2.03 12.91
1/17/2021 5:00:00 AM 2.59 36.662 0.143 12.94 2.01 12.91
1/17/2021 5:15:00 AM 2.59 36.662 0.144 12.93 2 12.91
1/17/2021 5:30:00 AM 2.6 36.68 0.144 12.92 2.06 12.91
1/17/2021 5:45:00 AM 2.6 36.68 0.144 12.95 2.1 12.91
1/17/2021 6:00:00 AM 2.61 36.698 0.144 12.92 2.01 12.9
1/17/2021 6:15:00 AM 2.62 36.716 0.144 12.92 2 12.9
1/17/2021 6:30:00 AM 2.63 36.734 0.143 12.96 2.01 12.9
1/17/2021 6:45:00 AM 2.64 36.752 0.143 12.92 1.99 12.9
1/17/2021 7:00:00 AM 2.64 36.752 0.143 12.92 2.01 12.9
1/17/2021 7:15:00 AM 2.64 36.752 0.143 12.93 2.05 12.9
1/17/2021 7:30:00 AM 2.65 36.77 0.143 12.93 2.08 12.9
1/17/2021 7:45:00 AM 2.66 36.788 0.143 12.93 2.03 12.9
1/17/2021 8:00:00 AM 2.66 36.788 0.143 12.92 1.97 12.9
1/17/2021 8:15:00 AM 2.66 36.788 0.143 12.91 1.99 12.9
1/17/2021 8:30:00 AM 2.66 36.788 0.143 12.91 1.99 12.9
1/17/2021 8:45:00 AM 2.67 36.806 0.143 12.92 1.99 12.91
1/17/2021 9:00:00 AM 2.68 36.824 0.143 12.94 2.03 12.9
1/17/2021 9:15:00 AM 2.71 36.878 0.143 12.93 1.97 12.9
1/17/2021 9:30:00 AM 2.72 36.896 0.143 12.92 2 12.9
1/17/2021 9:45:00 AM 2.74 36.932 0.143 12.93 2.12 12.9
1/17/2021 10:00:00 AM 2.76 36.968 0.143 12.92 2.05 12.89
1/17/2021 10:15:00 AM 2.8 37.04 0.143 12.91 2.03 12.88
1/17/2021 10:30:00 AM 2.86 37.148 0.143 12.88 1.97 12.86
1/17/2021 10:45:00 AM 2.9 37.22 0.143 12.89 1.99 12.84
1/17/2021 11:00:00 AM 2.93 37.274 0.143 12.88 2.1 12.82
1/17/2021 11:15:00 AM 2.96 37.328 0.142 12.88 2.02 12.81
1/17/2021 11:30:00 AM 2.98 37.364 0.142 12.88 2.04 12.81
1/17/2021 11:45:00 AM 3.01 37.418 0.142 12.86 2.02 12.79
1/17/2021 12:00:00 PM 3.04 37.472 0.142 12.86 2 12.78
1/17/2021 12:15:00 PM 3.05 37.49 0.142 12.82 2.01 12.78
1/17/2021 12:30:00 PM 3.06 37.508 0.142 12.82 2.01 12.78
1/17/2021 12:45:00 PM 3.08 37.544 0.142 12.85 2.06 12.77
1/17/2021 1:00:00 PM 3.09 37.562 0.142 12.86 2.03 12.76
1/17/2021 1:15:00 PM 3.1 37.58 0.142 12.86 2.05 12.76
1/17/2021 1:30:00 PM 3.09 37.562 0.142 12.83 1.96 12.75
1/17/2021 1:45:00 PM 3.12 37.616 0.142 12.79 2 12.75
1/17/2021 2:00:00 PM 3.14 37.652 0.142 12.79 2.05 12.74
1/17/2021 2:15:00 PM 3.17 37.706 0.142 12.8 2.01 12.74
1/17/2021 2:30:00 PM 3.2 37.76 0.142 12.79 2.05 12.73
1/17/2021 2:45:00 PM 3.23 37.814 0.142 12.8 2.01 12.72
1/17/2021 3:00:00 PM 3.26 37.868 0.142 12.79 2.02 12.71
1/17/2021 3:15:00 PM 3.28 37.904 0.142 12.79 2.06 12.7
1/17/2021 3:30:00 PM 3.29 37.922 0.142 12.8 2.04 12.7
1/17/2021 3:45:00 PM 3.28 37.904 0.142 12.78 2.02 12.7
1/17/2021 4:00:00 PM 3.28 37.904 0.142 12.8 2.03 12.7
1/17/2021 4:15:00 PM 3.26 37.868 0.142 12.81 2 12.71
1/17/2021 4:30:00 PM 3.21 37.778 0.142 12.8 1.99 12.71
1/17/2021 4:45:00 PM 3.19 37.742 0.142 12.84 2.08 12.73
1/17/2021 5:00:00 PM 3.18 37.724 0.142 12.81 2.05 12.74
1/17/2021 5:15:00 PM 3.16 37.688 0.143 12.85 2.03 12.73
1/17/2021 5:30:00 PM 3.15 37.67 0.143 12.88 2.03 12.74
1/17/2021 5:45:00 PM 3.14 37.652 0.143 12.81 2.05 12.74
1/17/2021 6:00:00 PM 3.14 37.652 0.143 12.83 2.01 12.75
1/17/2021 6:15:00 PM 3.13 37.634 0.143 12.87 2.03 12.75
1/17/2021 6:30:00 PM 3.11 37.598 0.142 12.87 2.07 12.75
1/17/2021 6:45:00 PM 3.07 37.526 0.142 12.86 2.09 12.76
1/17/2021 7:00:00 PM 3.07 37.526 0.142 12.84 2.01 12.76
1/17/2021 7:15:00 PM 3.07 37.526 0.142 12.88 2.09 12.77
1/17/2021 7:30:00 PM 3.08 37.544 0.143 12.86 2.03 12.77
1/17/2021 7:45:00 PM 3.07 37.526 0.143 12.83 2.12 12.76
1/17/2021 8:00:00 PM 3.07 37.526 0.143 12.86 2.04 12.76
1/17/2021 8:15:00 PM 3.05 37.49 0.142 12.87 2.05 12.77
1/17/2021 8:30:00 PM 3.02 37.436 0.142 12.85 2.01 12.77
1/17/2021 8:45:00 PM 3.01 37.418 0.142 12.88 2.02 12.78
1/17/2021 9:00:00 PM 2.99 37.382 0.142 12.85 2.02 12.78
1/17/2021 9:15:00 PM 2.98 37.364 0.142 12.82 2.12 12.79
1/17/2021 9:30:00 PM 2.96 37.328 0.142 12.83 2.03 12.79
1/17/2021 9:45:00 PM 2.96 37.328 0.142 12.84 2.19 12.79
1/17/2021 10:00:00 PM 2.96 37.328 0.142 12.84 2.07 12.79
1/17/2021 10:15:00 PM 2.96 37.328 0.142 12.86 2.05 12.79
1/17/2021 10:30:00 PM 2.96 37.328 0.142 12.86 2.03 12.79
1/17/2021 10:45:00 PM 2.96 37.328 0.142 12.88 2.1 12.79
1/17/2021 11:00:00 PM 2.95 37.31 0.142 12.86 2.03 12.79
1/17/2021 11:15:00 PM 2.95 37.31 0.142 12.93 2.03 12.79
1/17/2021 11:30:00 PM 2.95 37.31 0.142 12.84 2 12.79
1/17/2021 11:45:00 PM 2.96 37.328 0.142 12.85 2.03 12.79
1/18/2021 12:00:00 AM 2.96 37.328 0.142 12.85 2.03 12.79
1/18/2021 12:15:00 AM 2.96 37.328 0.142 12.84 2.05 12.79
1/18/2021 12:30:00 AM 2.96 37.328 0.142 12.87 2.01 12.79
1/18/2021 12:45:00 AM 2.96 37.328 0.142 12.86 2.01 12.78
1/18/2021 1:00:00 AM 2.96 37.328 0.142 12.84 2.08 12.79
1/18/2021 1:15:00 AM 2.95 37.31 0.142 12.83 2.02 12.79
1/18/2021 1:30:00 AM 2.95 37.31 0.142 12.86 1.97 12.79
1/18/2021 1:45:00 AM 2.95 37.31 0.142 12.87 2 12.79
1/18/2021 2:00:00 AM 2.94 37.292 0.142 12.85 2.02 12.79
1/18/2021 2:15:00 AM 2.94 37.292 0.142 12.89 1.93 12.8
1/18/2021 2:30:00 AM 2.92 37.256 0.142 12.88 1.97 12.8
1/18/2021 2:45:00 AM 2.92 37.256 0.142 12.84 1.98 12.8
1/18/2021 3:00:00 AM 2.92 37.256 0.142 12.88 2.09 12.81
1/18/2021 3:15:00 AM 2.92 37.256 0.142 12.84 1.96 12.8
1/18/2021 3:30:00 AM 2.9 37.22 0.142 12.86 1.97 12.81
1/18/2021 3:45:00 AM 2.89 37.202 0.142 12.85 2.01 12.81
1/18/2021 4:00:00 AM 2.88 37.184 0.142 13.05 2.07 12.82
1/18/2021 4:15:00 AM 2.86 37.148 0.143 13.07 2.05 12.82
1/18/2021 4:30:00 AM 2.82 37.076 0.143 13.02 2.03 12.83
1/18/2021 4:45:00 AM 2.8 37.04 0.143 12.96 2.02 12.84
1/18/2021 5:00:00 AM 2.8 37.04 0.144 12.92 2.1 12.85
1/18/2021 5:15:00 AM 2.8 37.04 0.144 12.86 2.03 12.86
1/18/2021 5:30:00 AM 2.79 37.022 0.144 12.88 2.06 12.86
1/18/2021 5:45:00 AM 2.78 37.004 0.144 12.86 2.02 12.86
1/18/2021 6:00:00 AM 2.77 36.986 0.144 12.92 2.13 12.86
1/18/2021 6:15:00 AM 2.77 36.986 0.144 12.93 2.05 12.87
1/18/2021 6:30:00 AM 2.77 36.986 0.144 12.92 2.08 12.87
1/18/2021 6:45:00 AM 2.78 37.004 0.144 12.87 2.02 12.87
1/18/2021 7:00:00 AM 2.78 37.004 0.145 12.87 2.05 12.87
1/18/2021 7:15:00 AM 2.77 36.986 0.145 12.9 2.05 12.87
1/18/2021 7:30:00 AM 2.75 36.95 0.145 12.91 1.99 12.88
1/18/2021 7:45:00 AM 2.76 36.968 0.145 12.91 2.05 12.89
1/18/2021 8:00:00 AM 2.76 36.968 0.145 12.89 2.06 12.89
1/18/2021 8:15:00 AM 2.75 36.95 0.145 12.93 2 12.9
1/18/2021 8:30:00 AM 2.75 36.95 0.145 12.91 2.06 12.9
1/18/2021 8:45:00 AM 2.75 36.95 0.145 12.9 2.04 12.91
1/18/2021 9:00:00 AM 2.74 36.932 0.145 12.88 2.05 12.92
1/18/2021 9:15:00 AM 2.73 36.914 0.145 12.88 2.07 12.92
1/18/2021 9:30:00 AM 2.72 36.896 0.145 12.89 2.01 12.93
1/18/2021 9:45:00 AM -99999.99 -179968 -99999.99 -99999.99 -99999.99 -99999.99
1/18/2021 10:00:00 AM -99999.99 -179968 -99999.99 -99999.99 -99999.99 -99999.99
1/18/2021 10:15:00 AM -99999.99 -179968 -99999.99 -99999.99 -99999.99 -99999.99
1/18/2021 10:30:00 AM -99999.99 -179968 -99999.99 -99999.99 -99999.99 -99999.99
1/18/2021 10:45:00 AM -99999.99 -179968 -99999.99 -99999.99 -99999.99 -99999.99
1/18/2021 11:00:00 AM 2.86 37.148 0.147 12.9 2.05 12.89
1/18/2021 11:15:00 AM 2.9 37.22 0.147 12.88 1.97 12.88
1/18/2021 11:30:00 AM 2.92 37.256 0.148 12.91 2.04 12.87
1/18/2021 11:45:00 AM 2.94 37.292 0.149 12.85 2 12.86
1/18/2021 12:00:00 PM 2.97 37.346 0.149 12.84 2.02 12.85
1/18/2021 12:15:00 PM 3 37.4 0.149 12.86 2.06 12.84
1/18/2021 12:30:00 PM 2.98 37.364 0.149 12.87 2.02 12.84
1/18/2021 12:45:00 PM 2.97 37.346 0.149 12.89 1.96 12.85
1/18/2021 1:00:00 PM 2.97 37.346 0.149 12.86 2.03 12.85
1/18/2021 1:15:00 PM 2.96 37.328 0.149 12.83 1.97 12.85
1/18/2021 1:30:00 PM 2.95 37.31 0.149 12.87 2.06 12.86
1/18/2021 1:45:00 PM 2.93 37.274 0.149 12.87 2.03 12.87
1/18/2021 2:00:00 PM 2.89 37.202 0.149 12.89 2.02 12.88
1/18/2021 2:15:00 PM 2.85 37.13 0.149 12.86 2.05 12.9
1/18/2021 2:30:00 PM 2.84 37.112 0.149 12.87 2.04 12.9
1/18/2021 2:45:00 PM 2.8 37.04 0.149 12.88 2.01 12.92
1/18/2021 3:00:00 PM 2.78 37.004 0.15 12.84 2.08 12.93
1/18/2021 3:15:00 PM 2.75 36.95 0.151 12.86 2.01 12.94
1/18/2021 3:30:00 PM 2.74 36.932 0.152 12.89 2.01 12.95
1/18/2021 3:45:00 PM 2.72 36.896 0.152 12.86 2.11 12.97
1/18/2021 4:00:00 PM 2.7 36.86 0.152 12.87 2.05 12.97
1/18/2021 4:15:00 PM 2.7 36.86 0.152 12.88 2.03 12.98
1/18/2021 4:30:00 PM 2.7 36.86 0.152 12.88 2 12.98
1/18/2021 4:45:00 PM 2.69 36.842 0.152 12.88 2.05 12.99
1/18/2021 5:00:00 PM 2.69 36.842 0.152 12.87 2.03 12.99
1/18/2021 5:15:00 PM 2.69 36.842 0.152 12.9 2.03 12.99
1/18/2021 5:30:00 PM 2.68 36.824 0.152 12.91 2.01 12.99
1/18/2021 5:45:00 PM 2.67 36.806 0.152 12.88 2.06 13
1/18/2021 6:00:00 PM 2.66 36.788 0.152 12.87 2.03 13
1/18/2021 6:15:00 PM 2.66 36.788 0.152 12.9 1.98 13.01
1/18/2021 6:30:00 PM 2.65 36.77 0.152 12.87 1.98 13.01
1/18/2021 6:45:00 PM 2.65 36.77 0.152 12.89 2.05 13.02
1/18/2021 7:00:00 PM 2.65 36.77 0.152 12.89 2.05 13.02
1/18/2021 7:15:00 PM 2.65 36.77 0.152 12.87 2.04 13.03
1/18/2021 7:30:00 PM 2.64 36.752 0.152 12.9 2.02 13.03
1/18/2021 7:45:00 PM 2.64 36.752 0.152 12.91 1.99 13.03
1/18/2021 8:00:00 PM 2.63 36.734 0.152 12.89 1.97 13.04
1/18/2021 8:15:00 PM 2.63 36.734 0.152 12.89 2.11 13.04
1/18/2021 8:30:00 PM 2.61 36.698 0.152 12.88 1.96 13.05
1/18/2021 8:45:00 PM 2.6 36.68 0.152 12.92 2.13 13.05
1/18/2021 9:00:00 PM 2.59 36.662 0.152 12.92 2.07 13.05
1/18/2021 9:15:00 PM 2.58 36.644 0.152 12.92 2.04 13.06
1/18/2021 9:30:00 PM 2.55 36.59 0.152 12.92 2.05 13.06
1/18/2021 9:45:00 PM 2.51 36.518 0.152 12.94 2.02 13.08
1/18/2021 10:00:00 PM 2.49 36.482 0.152 12.94 2.06 13.09
1/18/2021 10:15:00 PM 2.48 36.464 0.152 12.93 2.05 13.09
1/18/2021 10:30:00 PM 2.48 36.464 0.152 12.95 2 13.1
1/18/2021 10:45:00 PM 2.46 36.428 0.152 12.91 2.04 13.11
1/18/2021 11:00:00 PM 2.44 36.392 0.152 12.92 2.04 13.11
1/18/2021 11:15:00 PM 2.42 36.356 0.152 12.95 2.03 13.11
1/18/2021 11:30:00 PM 2.38 36.284 0.152 12.95 2.03 13.12
1/18/2021 11:45:00 PM 2.34 36.212 0.152 13.02 2.03 13.14
1/19/2021 12:00:00 AM 2.32 36.176 0.152 12.99 2.05 13.15
1/19/2021 12:15:00 AM 2.31 36.158 0.152 13 2.05 13.15
1/19/2021 12:30:00 AM 2.29 36.122 0.151 12.95 2.07 13.16
1/19/2021 12:45:00 AM 2.27 36.086 0.151 12.94 2.02 13.17
1/19/2021 1:00:00 AM 2.25 36.05 0.151 12.96 2.06 13.17
1/19/2021 1:15:00 AM 2.23 36.014 0.151 12.96 2.06 13.18
1/19/2021 1:30:00 AM 2.23 36.014 0.151 12.95 2.03 13.19
1/19/2021 1:45:00 AM 2.22 35.996 0.151 12.95 2.03 13.18
1/19/2021 2:00:00 AM 2.23 36.014 0.152 12.95 1.97 13.19
1/19/2021 2:15:00 AM 2.24 36.032 0.151 12.97 1.98 13.18
1/19/2021 2:30:00 AM 2.25 36.05 0.151 12.96 2.07 13.18
1/19/2021 2:45:00 AM 2.24 36.032 0.151 12.98 2.09 13.18
1/19/2021 3:00:00 AM 2.24 36.032 0.151 12.95 2.08 13.19
1/19/2021 3:15:00 AM 2.25 36.05 0.151 12.94 1.99 13.18
1/19/2021 3:30:00 AM 2.25 36.05 0.151 12.96 2.02 13.18
1/19/2021 3:45:00 AM 2.25 36.05 0.151 12.93 2.03 13.18
1/19/2021 4:00:00 AM 2.26 36.068 0.151 12.91 2.1 13.18
1/19/2021 4:15:00 AM 2.26 36.068 0.151 12.97 2.03 13.18
1/19/2021 4:30:00 AM 2.26 36.068 0.151 12.93 2.03 13.18
1/19/2021 4:45:00 AM 2.26 36.068 0.151 12.98 2.01 13.18
1/19/2021 5:00:00 AM 2.26 36.068 0.151 12.94 2.02 13.18
1/19/2021 5:15:00 AM 2.26 36.068 0.151 12.96 2.02 13.19
1/19/2021 5:30:00 AM 2.26 36.068 0.151 12.96 2.14 13.18
1/19/2021 5:45:00 AM 2.26 36.068 0.151 12.95 2.03 13.19
1/19/2021 6:00:00 AM 2.26 36.068 0.151 12.95 2.01 13.19
1/19/2021 6:15:00 AM 2.25 36.05 0.151 12.94 2.05 13.19
1/19/2021 6:30:00 AM 2.24 36.032 0.151 12.96 2 13.2
1/19/2021 6:45:00 AM 2.25 36.05 0.151 12.98 2 13.19
1/19/2021 7:00:00 AM 2.26 36.068 0.151 12.94 2.01 13.19
1/19/2021 7:15:00 AM 2.26 36.068 0.151 12.95 2.04 13.19
1/19/2021 7:30:00 AM 2.26 36.068 0.151 12.96 2.02 13.19
1/19/2021 7:45:00 AM 2.26 36.068 0.151 12.95 2.03 13.19
1/19/2021 8:00:00 AM 2.27 36.086 0.151 12.92 2.03 13.19
1/19/2021 8:15:00 AM 2.27 36.086 0.151 12.92 2.13 13.19
1/19/2021 8:30:00 AM 2.26 36.068 0.151 12.95 2.04 13.2
1/19/2021 8:45:00 AM 2.25 36.05 0.151 12.94 2.03 13.2
1/19/2021 9:00:00 AM 2.22 35.996 0.15 12.93 2.01 13.21
1/19/2021 9:15:00 AM 2.21 35.978 0.15 12.97 2.04 13.22
1/19/2021 9:30:00 AM 2.22 35.996 0.15 12.95 2.04 13.23
1/19/2021 9:45:00 AM 2.23 36.014 0.15 12.94 2.02 13.23
1/19/2021 10:00:00 AM 2.17 35.906 0.15 12.96 2.02 13.24
1/19/2021 10:15:00 AM 2.09 35.762 0.15 12.95 2.04 13.27
1/19/2021 10:30:00 AM 2.15 35.87 0.15 12.92 2.04 13.27
1/19/2021 10:45:00 AM 2.22 35.996 0.15 12.93 2.04 13.24
1/19/2021 11:00:00 AM 2.27 36.086 0.15 12.92 2.02 13.23
1/19/2021 11:15:00 AM 2.32 36.176 0.15 12.89 2.04 13.2
1/19/2021 11:30:00 AM 2.36 36.248 0.15 12.89 2.02 13.19
1/19/2021 11:45:00 AM 2.4 36.32 0.15 12.89 2.03 13.17
1/19/2021 12:00:00 PM 2.45 36.41 0.15 12.88 2.06 13.16
1/19/2021 12:15:00 PM 2.52 36.536 0.15 12.85 2.12 13.14
1/19/2021 12:30:00 PM 2.61 36.698 0.15 12.85 2.01 13.11
1/19/2021 12:45:00 PM 2.69 36.842 0.15 12.87 2.07 13.08
1/19/2021 1:00:00 PM 2.81 37.058 0.15 12.82 2.02 13.04
1/19/2021 1:15:00 PM 2.85 37.13 0.151 12.79 2 13.01
1/19/2021 1:30:00 PM 2.88 37.184 0.151 12.83 2.1 13
1/19/2021 1:45:00 PM 2.85 37.13 0.152 12.8 2.03 13.01
1/19/2021 2:00:00 PM 2.8 37.04 0.152 12.83 2.03 13.03
1/19/2021 2:15:00 PM 2.78 37.004 0.152 12.83 2.01 13.05
1/19/2021 2:30:00 PM 2.74 36.932 0.152 12.8 2.07 13.06
1/19/2021 2:45:00 PM 2.73 36.914 0.152 12.81 2.02 13.06
1/19/2021 3:00:00 PM 2.71 36.878 0.152 12.78 2.04 13.07
1/19/2021 3:15:00 PM 2.66 36.788 0.153 12.81 2.03 13.08
1/19/2021 3:30:00 PM 2.61 36.698 0.153 12.78 2.06 13.11
1/19/2021 3:45:00 PM 2.58 36.644 0.154 12.82 2.03 13.12
1/19/2021 4:00:00 PM 2.56 36.608 0.154 12.86 2.04 13.12
1/19/2021 4:15:00 PM 2.54 36.572 0.155 12.83 2 13.12
1/19/2021 4:30:00 PM 2.53 36.554 0.155 12.81 2.08 13.13
1/19/2021 4:45:00 PM 2.5 36.5 0.156 12.82 2.05 13.14
1/19/2021 5:00:00 PM 2.47 36.446 0.156 12.87 2.09 13.15
1/19/2021 5:15:00 PM 2.44 36.392 0.157 12.87 2.03 13.15
1/19/2021 5:30:00 PM 2.42 36.356 0.157 12.83 2.04 13.16
1/19/2021 5:45:00 PM 2.39 36.302 0.156 12.86 2.06 13.17
1/19/2021 6:00:00 PM 2.38 36.284 0.156 12.87 2.06 13.18
1/19/2021 6:15:00 PM 2.35 36.23 0.156 12.85 2.03 13.18
1/19/2021 6:30:00 PM 2.35 36.23 0.156 12.87 2.03 13.18
1/19/2021 6:45:00 PM 2.35 36.23 0.156 12.86 2.07 13.19
1/19/2021 7:00:00 PM 2.35 36.23 0.156 12.86 2.08 13.18
1/19/2021 7:15:00 PM 2.35 36.23 0.156 12.89 2.02 13.18
1/19/2021 7:30:00 PM 2.35 36.23 0.156 12.93 2.09 13.18
1/19/2021 7:45:00 PM 2.36 36.248 0.155 12.91 2.04 13.18
1/19/2021 8:00:00 PM 2.37 36.266 0.155 12.9 1.99 13.17
1/19/2021 8:15:00 PM 2.37 36.266 0.155 12.88 2.01 13.17
1/19/2021 8:30:00 PM 2.37 36.266 0.155 12.89 1.97 13.17
1/19/2021 8:45:00 PM 2.37 36.266 0.155 12.86 2.01 13.16
1/19/2021 9:00:00 PM 2.37 36.266 0.155 12.85 2.03 13.16
1/19/2021 9:15:00 PM 2.36 36.248 0.155 12.9 2.02 13.16
1/19/2021 9:30:00 PM 2.37 36.266 0.155 12.93 2.03 13.15
1/19/2021 9:45:00 PM 2.36 36.248 0.155 12.92 2.06 13.16
1/19/2021 10:00:00 PM 2.35 36.23 0.155 12.89 2.03 13.16
1/19/2021 10:15:00 PM 2.34 36.212 0.155 12.9 2 13.15
1/19/2021 10:30:00 PM 2.34 36.212 0.155 12.91 2.04 13.15
1/19/2021 10:45:00 PM 2.33 36.194 0.155 12.93 2.02 13.16
1/19/2021 11:00:00 PM 2.32 36.176 0.154 12.92 2.03 13.16
1/19/2021 11:15:00 PM 2.32 36.176 0.155 12.89 2.03 13.16
1/19/2021 11:30:00 PM 2.31 36.158 0.155 12.87 2 13.15
1/19/2021 11:45:00 PM 2.32 36.176 0.155 12.9 2.03 13.15
1/20/2021 12:00:00 AM 2.32 36.176 0.155 12.9 2.05 13.14
1/20/2021 12:15:00 AM 2.33 36.194 0.155 12.89 2.01 13.13
1/20/2021 12:30:00 AM 2.33 36.194 0.155 12.94 2.04 13.13
1/20/2021 12:45:00 AM 2.33 36.194 0.155 12.92 2.04 13.12
1/20/2021 1:00:00 AM 2.33 36.194 0.155 12.93 2.05 13.12
1/20/2021 1:15:00 AM 2.33 36.194 0.155 12.89 2.02 13.12
1/20/2021 1:30:00 AM 2.32 36.176 0.155 12.92 2.04 13.12
1/20/2021 1:45:00 AM 2.31 36.158 0.155 12.91 2.06 13.12
1/20/2021 2:00:00 AM 2.3 36.14 0.155 12.9 2.04 13.11
1/20/2021 2:15:00 AM 2.24 36.032 0.155 12.94 2.06 13.13
1/20/2021 2:30:00 AM 2.16 35.888 0.154 12.96 2.04 13.16
1/20/2021 2:45:00 AM 2.13 35.834 0.155 12.96 2 13.18
1/20/2021 3:00:00 AM 2.08 35.744 0.154 12.97 2.02 13.19
1/20/2021 3:15:00 AM 2.02 35.636 0.154 13.01 2.02 13.22
1/20/2021 3:30:00 AM 1.99 35.582 0.154 13.02 2.06 13.23
1/20/2021 3:45:00 AM 1.97 35.546 0.154 12.99 2.02 13.24
1/20/2021 4:00:00 AM 1.97 35.546 0.154 12.97 2.06 13.24
1/20/2021 4:15:00 AM 1.95 35.51 0.154 13.01 2.06 13.25
1/20/2021 4:30:00 AM 1.92 35.456 0.154 13.05 2.1 13.26
1/20/2021 4:45:00 AM 1.93 35.474 0.154 13.02 2.01 13.26
1/20/2021 5:00:00 AM 1.9 35.42 0.154 13.04 2.09 13.26
1/20/2021 5:15:00 AM 1.79 35.222 0.154 12.98 2.03 13.28
1/20/2021 5:30:00 AM 1.64 34.952 0.154 12.99 2.09 13.33
1/20/2021 5:45:00 AM 1.63 34.934 0.153 13.04 2.05 13.36
1/20/2021 6:00:00 AM 1.66 34.988 0.154 13.01 2.07 13.36
1/20/2021 6:15:00 AM 1.68 35.024 0.154 13.03 2.06 13.37
1/20/2021 6:30:00 AM 1.63 34.934 0.154 13.05 2.07 13.38
1/20/2021 6:45:00 AM 1.64 34.952 0.154 13.04 2.03 13.38
1/20/2021 7:00:00 AM 1.7 35.06 0.154 13.03 2.02 13.36
1/20/2021 7:15:00 AM 1.72 35.096 0.154 13.02 2.06 13.36
1/20/2021 7:30:00 AM 1.74 35.132 0.154 13.02 2.01 13.36
1/20/2021 7:45:00 AM 1.76 35.168 0.154 13 2.09 13.35
1/20/2021 8:00:00 AM 1.68 35.024 0.154 12.97 2.1 13.36
1/20/2021 8:15:00 AM 1.68 35.024 0.154 13.02 2.03 13.38
1/20/2021 8:30:00 AM 1.69 35.042 0.154 13.02 2 13.39
1/20/2021 8:45:00 AM 1.71 35.078 0.154 12.94 2.03 13.4
1/20/2021 9:00:00 AM 1.74 35.132 0.154 13 2.03 13.4
1/20/2021 9:15:00 AM 1.75 35.15 0.154 12.98 2.04 13.39
1/20/2021 9:30:00 AM 1.69 35.042 0.155 13 2.04 13.4
1/20/2021 9:45:00 AM 1.74 35.132 0.155 12.97 2.02 13.4
1/20/2021 10:00:00 AM 1.75 35.15 0.156 12.99 2.03 13.4
1/20/2021 10:15:00 AM 1.77 35.186 0.156 12.95 2.03 13.4
1/20/2021 10:30:00 AM 1.74 35.132 0.156 12.98 2.07 13.41
1/20/2021 10:45:00 AM 1.74 35.132 0.156 12.98 2.12 13.42
1/20/2021 11:00:00 AM 1.73 35.114 0.156 12.98 2.06 13.42
1/20/2021 11:15:00 AM 1.78 35.204 0.156 12.95 2.04 13.42
1/20/2021 11:30:00 AM 1.79 35.222 0.155 12.98 2.07 13.41
1/20/2021 11:45:00 AM 1.82 35.276 0.155 12.94 2.07 13.4
1/20/2021 12:00:00 PM 1.86 35.348 0.155 12.87 2.04 13.39
1/20/2021 12:15:00 PM 1.89 35.402 0.155 12.9 2.06 13.37
1/20/2021 12:30:00 PM 1.9 35.42 0.155 12.94 2.04 13.37
1/20/2021 12:45:00 PM 1.94 35.492 0.155 12.89 2.11 13.36
1/20/2021 1:00:00 PM 1.97 35.546 0.155 12.9 1.99 13.36
1/20/2021 1:15:00 PM 1.96 35.528 0.155 12.92 2.02 13.36
1/20/2021 1:30:00 PM 1.96 35.528 0.155 12.86 2.05 13.36
1/20/2021 1:45:00 PM 1.95 35.51 0.155 12.91 2.11 13.37
1/20/2021 2:00:00 PM 1.92 35.456 0.155 12.86 2.07 13.38
1/20/2021 2:15:00 PM 1.9 35.42 0.155 12.83 2.07 13.38
1/20/2021 2:30:00 PM 1.89 35.402 0.155 12.85 2.03 13.38
1/20/2021 2:45:00 PM 1.9 35.42 0.155 12.9 2.05 13.38
1/20/2021 3:00:00 PM 1.87 35.366 0.155 12.9 2.07 13.39
1/20/2021 3:15:00 PM 1.82 35.276 0.155 12.85 2.08 13.4
1/20/2021 3:30:00 PM 1.76 35.168 0.155 12.92 2.05 13.42
1/20/2021 3:45:00 PM 1.7 35.06 0.155 12.96 2.08 13.44
1/20/2021 4:00:00 PM 1.68 35.024 0.155 13.02 2.06 13.44
1/20/2021 4:15:00 PM 1.64 34.952 0.155 12.94 2.06 13.45
1/20/2021 4:30:00 PM 1.56 34.808 0.155 13 1.99 13.47
1/20/2021 4:45:00 PM 1.5 34.7 0.155 12.96 2.06 13.5
1/20/2021 5:00:00 PM 1.45 34.61 0.155 12.98 2.04 13.52
1/20/2021 5:15:00 PM 1.41 34.538 0.155 13.04 2.07 13.53
1/20/2021 5:30:00 PM 1.38 34.484 0.156 13.06 2.06 13.55
1/20/2021 5:45:00 PM 1.34 34.412 0.156 13.06 2.09 13.56
1/20/2021 6:00:00 PM 1.3 34.34 0.156 13.06 2.07 13.57
1/20/2021 6:15:00 PM 1.25 34.25 0.156 13.05 2.02 13.59
1/20/2021 6:30:00 PM 1.2 34.16 0.156 13.07 2.02 13.61
1/20/2021 6:45:00 PM 1.16 34.088 0.155 13.07 2.06 13.63
1/20/2021 7:00:00 PM 1.11 33.998 0.155 13.09 2.08 13.64
1/20/2021 7:15:00 PM 1.09 33.962 0.155 13.07 2.03 13.65
1/20/2021 7:30:00 PM 1.06 33.908 0.155 13.11 2.06 13.65
1/20/2021 7:45:00 PM 1.02 33.836 0.155 13.14 2.08 13.67
1/20/2021 8:00:00 PM 0.98 33.764 0.155 13.17 2.02 13.69
1/20/2021 8:15:00 PM 0.94 33.692 0.155 13.17 2.03 13.68
1/20/2021 8:30:00 PM 0.89 33.602 0.155 13.19 2.02 13.71
1/20/2021 8:45:00 PM 0.84 33.512 0.155 13.12 2.07 13.73
1/20/2021 9:00:00 PM 0.8 33.44 0.155 13.17 2.06 13.74
1/20/2021 9:15:00 PM 0.75 33.35 0.155 13.2 2.08 13.76
1/20/2021 9:30:00 PM 0.7 33.26 0.155 13.19 2.04 13.78
1/20/2021 9:45:00 PM 0.67 33.206 0.155 13.23 2.03 13.8
1/20/2021 10:00:00 PM 0.66 33.188 0.155 13.21 2.13 13.8
1/20/2021 10:15:00 PM 0.66 33.188 0.155 13.22 2.07 13.8
1/20/2021 10:30:00 PM 0.67 33.206 0.155 13.21 2.03 13.8
1/20/2021 10:45:00 PM 0.69 33.242 0.155 13.23 2.05 13.78
1/20/2021 11:00:00 PM 0.72 33.296 0.155 13.21 2.05 13.76
1/20/2021 11:15:00 PM 0.74 33.332 0.155 13.21 2.02 13.75
1/20/2021 11:30:00 PM 0.74 33.332 0.155 13.24 2.01 13.74
1/20/2021 11:45:00 PM 0.72 33.296 0.155 13.19 2.04 13.75
1/21/2021 12:00:00 AM 0.69 33.242 0.155 13.21 2.02 13.76
1/21/2021 12:15:00 AM 0.66 33.188 0.155 13.17 2.08 13.76
1/21/2021 12:30:00 AM 0.61 33.098 0.155 13.16 2.04 13.78
1/21/2021 12:45:00 AM 0.56 33.008 0.155 13.19 2.02 13.8
1/21/2021 1:00:00 AM 0.52 32.936 0.155 13.17 2.01 13.82
1/21/2021 1:15:00 AM 0.47 32.846 0.155 13.15 2.04 13.83
1/21/2021 1:30:00 AM 0.42 32.756 0.155 13.15 2.06 13.85
1/21/2021 1:45:00 AM 0.37 32.666 0.155 13.2 2.01 13.88
1/21/2021 2:00:00 AM 0.32 32.576 0.155 13.14 2.03 13.89
1/21/2021 2:15:00 AM 0.27 32.486 0.155 13.24 2.07 13.9
1/21/2021 2:30:00 AM 0.24 32.432 0.155 13.3 2.02 13.91
1/21/2021 2:45:00 AM 0.2 32.36 0.155 13.24 2.06 13.92
1/21/2021 3:00:00 AM 0.19 32.342 0.155 13.27 2.04 13.92
1/21/2021 3:15:00 AM 0.17 32.306 0.155 13.26 2.05 13.92
1/21/2021 3:30:00 AM 0.17 32.306 0.155 13.26 2.06 13.92
1/21/2021 3:45:00 AM 0.19 32.342 0.155 13.25 2.03 13.91
1/21/2021 4:00:00 AM 0.22 32.396 0.155 13.27 2.05 13.9
1/21/2021 4:15:00 AM 0.27 32.486 0.155 13.27 2.01 13.87
1/21/2021 4:30:00 AM 0.33 32.594 0.155 13.28 2.05 13.85
1/21/2021 4:45:00 AM 0.38 32.684 0.155 13.29 2.03 13.82
1/21/2021 5:00:00 AM 0.42 32.756 0.155 13.29 2.05 13.81
1/21/2021 5:15:00 AM 0.45 32.81 0.155 13.22 2.02 13.79
1/21/2021 5:30:00 AM 0.47 32.846 0.155 13.21 2.05 13.78
1/21/2021 5:45:00 AM 0.48 32.864 0.155 13.24 2.03 13.77
1/21/2021 6:00:00 AM 0.49 32.882 0.155 13.23 2.09 13.77
1/21/2021 6:15:00 AM 0.5 32.9 0.155 13.22 2.03 13.75
1/21/2021 6:30:00 AM 0.52 32.936 0.155 13.21 2.03 13.75
1/21/2021 6:45:00 AM 0.55 32.99 0.155 13.19 2.1 13.73
1/21/2021 7:00:00 AM 0.58 33.044 0.155 13.16 2.04 13.71
1/21/2021 7:15:00 AM 0.61 33.098 0.155 13.26 2 13.69
1/21/2021 7:30:00 AM 0.64 33.152 0.155 13.19 2.12 13.68
1/21/2021 7:45:00 AM 0.67 33.206 0.155 13.25 2.05 13.67
1/21/2021 8:00:00 AM 0.7 33.26 0.155 13.14 2.06 13.66
1/21/2021 8:15:00 AM 0.73 33.314 0.154 13.18 2.11 13.65
1/21/2021 8:30:00 AM 0.76 33.368 0.154 13.14 2.06 13.64
1/21/2021 8:45:00 AM 0.81 33.458 0.154 13.09 2.04 13.62
1/21/2021 9:00:00 AM 0.86 33.548 0.154 13.2 2.02 13.6
1/21/2021 9:15:00 AM 0.91 33.638 0.154 13.1 2.04 13.58
1/21/2021 9:30:00 AM 0.96 33.728 0.154 13.07 2.01 13.55
1/21/2021 9:45:00 AM 1.02 33.836 0.154 13.06 2.06 13.53
1/21/2021 10:00:00 AM 1.09 33.962 0.154 13.13 2.06 13.52
1/21/2021 10:15:00 AM 1.17 34.106 0.154 13.04 2.02 13.49
1/21/2021 10:30:00 AM 1.25 34.25 0.154 13.03 2.01 13.47
1/21/2021 10:45:00 AM 1.36 34.448 0.154 12.96 2.03 13.43
1/21/2021 11:00:00 AM 1.42 34.556 0.154 12.98 2.08 13.4
1/21/2021 11:15:00 AM 1.47 34.646 0.153 12.95 2.03 13.36
1/21/2021 11:30:00 AM 1.56 34.808 0.153 12.9 2.06 13.31
1/21/2021 11:45:00 AM 1.63 34.934 0.153 12.88 2.04 13.27
1/21/2021 12:00:00 PM 1.72 35.096 0.153 12.96 2.01 13.24
1/21/2021 12:15:00 PM 1.81 35.258 0.153 12.9 2 13.21
1/21/2021 12:30:00 PM 1.89 35.402 0.154 12.89 2.01 13.18
1/21/2021 12:45:00 PM 1.96 35.528 0.154 12.91 2.04 13.16
1/21/2021 1:00:00 PM 2.05 35.69 0.154 12.9 2.02 13.12
1/21/2021 1:15:00 PM 2.14 35.852 0.154 12.89 2.05 13.09
1/21/2021 1:30:00 PM 2.21 35.978 0.153 12.85 2.02 13.05
1/21/2021 1:45:00 PM 2.27 36.086 0.153 12.83 2.04 13.03
1/21/2021 2:00:00 PM 2.32 36.176 0.153 12.82 2.03 13
1/21/2021 2:15:00 PM 2.34 36.212 0.153 12.81 2.03 12.99
1/21/2021 2:30:00 PM 2.34 36.212 0.153 12.8 2.04 12.99
1/21/2021 2:45:00 PM 2.32 36.176 0.153 12.8 2.05 12.99
1/21/2021 3:00:00 PM 2.3 36.14 0.153 12.76 2.09 13
1/21/2021 3:15:00 PM 2.28 36.104 0.153 12.78 2.06 13
1/21/2021 3:30:00 PM 2.26 36.068 0.153 12.83 2.04 13.01
1/21/2021 3:45:00 PM 2.23 36.014 0.153 12.82 2.06 13.02
1/21/2021 4:00:00 PM 2.2 35.96 0.153 12.85 2.05 13.04
1/21/2021 4:15:00 PM 2.18 35.924 0.153 12.82 2.09 13.05
1/21/2021 4:30:00 PM 2.16 35.888 0.153 12.84 2.06 13.05
1/21/2021 4:45:00 PM 2.14 35.852 0.153 12.85 2.15 13.06
1/21/2021 5:00:00 PM 2.12 35.816 0.153 12.79 2.09 13.07
1/21/2021 5:15:00 PM 2.11 35.798 0.153 12.82 2.07 13.07
1/21/2021 5:30:00 PM 2.1 35.78 0.153 12.83 2.04 13.07
1/21/2021 5:45:00 PM 2.08 35.744 0.153 12.81 2.1 13.08
1/21/2021 6:00:00 PM 2.08 35.744 0.154 12.82 2.1 13.09
1/21/2021 6:15:00 PM 2.07 35.726 0.154 12.85 2.05 13.09
1/21/2021 6:30:00 PM 2.06 35.708 0.154 12.85 2.04 13.09
1/21/2021 6:45:00 PM 2.07 35.726 0.154 12.87 2.07 13.09
1/21/2021 7:00:00 PM 2.08 35.744 0.154 12.89 2.07 13.09
1/21/2021 7:15:00 PM 2.07 35.726 0.154 12.87 2.09 13.09
1/21/2021 7:30:00 PM 2.06 35.708 0.155 12.9 2.04 13.09
1/21/2021 7:45:00 PM 2.07 35.726 0.155 12.89 2.04 13.09
1/21/2021 8:00:00 PM 2.06 35.708 0.155 12.88 2.04 13.09
1/21/2021 8:15:00 PM 2.06 35.708 0.155 12.89 2.03 13.09
1/21/2021 8:30:00 PM 2.05 35.69 0.155 12.84 2.1 13.1
1/21/2021 8:45:00 PM 2.05 35.69 0.156 12.86 2.03 13.1
1/21/2021 9:00:00 PM 2.06 35.708 0.156 12.88 2.08 13.1
1/21/2021 9:15:00 PM 2.08 35.744 0.156 12.84 2.08 13.09
1/21/2021 9:30:00 PM 2.09 35.762 0.156 12.85 2.06 13.09
1/21/2021 9:45:00 PM 2.11 35.798 0.156 12.86 2.12 13.09
1/21/2021 10:00:00 PM 2.12 35.816 0.156 12.91 2.05 13.07
1/21/2021 10:15:00 PM 2.14 35.852 0.156 12.86 2.04 13.07
1/21/2021 10:30:00 PM 2.15 35.87 0.156 12.82 2.03 13.06
1/21/2021 10:45:00 PM 2.16 35.888 0.155 12.86 2.03 13.06
1/21/2021 11:00:00 PM 2.16 35.888 0.155 12.87 2.07 13.06
1/21/2021 11:15:00 PM 2.17 35.906 0.155 12.85 2.06 13.05
1/21/2021 11:30:00 PM 2.17 35.906 0.155 12.86 2 13.05
1/21/2021 11:45:00 PM 2.18 35.924 0.155 12.85 2.03 13.05
1/22/2021 12:00:00 AM 2.18 35.924 0.155 12.84 2.02 13.05
1/22/2021 12:15:00 AM 2.17 35.906 0.155 12.83 2.03 13.05
1/22/2021 12:30:00 AM 2.17 35.906 0.155 12.85 2.03 13.06
1/22/2021 12:45:00 AM 2.16 35.888 0.155 12.82 2.02 13.06
1/22/2021 1:00:00 AM 2.16 35.888 0.155 12.82 2.02 13.06
1/22/2021 1:15:00 AM 2.16 35.888 0.155 12.81 2.04 13.06
1/22/2021 1:30:00 AM 2.16 35.888 0.155 12.82 2.08 13.06
1/22/2021 1:45:00 AM 2.17 35.906 0.156 12.83 2.03 13.06
1/22/2021 2:00:00 AM 2.16 35.888 0.156 12.83 2.04 13.07
1/22/2021 2:15:00 AM 2.14 35.852 0.156 12.83 2.05 13.07
1/22/2021 2:30:00 AM 2.13 35.834 0.156 12.83 2.03 13.09
1/22/2021 2:45:00 AM 2.09 35.762 0.156 12.85 2.03 13.1
1/22/2021 3:00:00 AM 2.05 35.69 0.156 12.84 2.01 13.12
1/22/2021 3:15:00 AM 2.02 35.636 0.156 12.79 2.13 13.13
1/22/2021 3:30:00 AM 1.99 35.582 0.157 12.84 2.05 13.15
1/22/2021 3:45:00 AM 1.99 35.582 0.157 12.85 2.04 13.15
1/22/2021 4:00:00 AM 1.97 35.546 0.157 12.85 2.13 13.16
1/22/2021 4:15:00 AM 1.94 35.492 0.157 12.85 2.09 13.17
1/22/2021 4:30:00 AM 1.93 35.474 0.157 12.88 2.01 13.17
1/22/2021 4:45:00 AM 1.94 35.492 0.157 12.88 2.01 13.17
1/22/2021 5:00:00 AM 1.95 35.51 0.157 12.88 2.03 13.17
1/22/2021 5:15:00 AM 1.94 35.492 0.157 12.88 2.07 13.17
1/22/2021 5:30:00 AM 1.93 35.474 0.157 12.89 2.02 13.17
1/22/2021 5:45:00 AM 1.92 35.456 0.157 12.86 2.05 13.18
1/22/2021 6:00:00 AM 1.9 35.42 0.157 12.87 2.02 13.19
1/22/2021 6:15:00 AM 1.88 35.384 0.157 12.9 2.02 13.2
1/22/2021 6:30:00 AM 1.87 35.366 0.157 12.94 2 13.2
1/22/2021 6:45:00 AM 1.88 35.384 0.157 12.89 2.07 13.2
1/22/2021 7:00:00 AM 1.88 35.384 0.157 12.9 2.04 13.2
1/22/2021 7:15:00 AM 1.88 35.384 0.156 12.88 2.08 13.2
1/22/2021 7:30:00 AM 1.89 35.402 0.156 12.88 2.05 13.2
1/22/2021 7:45:00 AM 1.9 35.42 0.156 12.86 2.01 13.2
1/22/2021 8:00:00 AM 1.9 35.42 0.156 12.91 2.04 13.2
1/22/2021 8:15:00 AM 1.91 35.438 0.156 12.94 2 13.21
1/22/2021 8:30:00 AM 1.93 35.474 0.156 12.92 2.12 13.21
1/22/2021 8:45:00 AM 1.94 35.492 0.156 12.88 2.06 13.2
1/22/2021 9:00:00 AM 1.95 35.51 0.156 12.85 2.02 13.2
1/22/2021 9:15:00 AM 1.97 35.546 0.156 12.88 2.02 13.2
1/22/2021 9:30:00 AM 1.98 35.564 0.156 12.85 2.01 13.2
1/22/2021 9:45:00 AM 2 35.6 0.156 12.87 2.04 13.2
1/22/2021 10:00:00 AM 2.03 35.654 0.155 12.83 2.03 13.19
1/22/2021 10:15:00 AM 2.06 35.708 0.155 12.83 2.06 13.18
1/22/2021 10:30:00 AM 2.09 35.762 0.155 12.81 2 13.17
1/22/2021 10:45:00 AM 2.12 35.816 0.155 12.81 2.01 13.16
1/22/2021 11:00:00 AM 2.16 35.888 0.155 12.79 2 13.14
1/22/2021 11:15:00 AM 2.18 35.924 0.155 12.82 1.99 13.13
1/22/2021 11:30:00 AM 2.2 35.96 0.155 12.82 2.02 13.13
1/22/2021 11:45:00 AM 2.22 35.996 0.155 12.8 2.03 13.11
1/22/2021 12:00:00 PM 2.23 36.014 0.155 12.82 2.03 13.11
1/22/2021 12:15:00 PM 2.21 35.978 0.155 12.8 2 13.11
1/22/2021 12:30:00 PM 2.21 35.978 0.155 12.81 1.99 13.12
1/22/2021 12:45:00 PM 2.21 35.978 0.155 12.81 2.12 13.12
1/22/2021 1:00:00 PM 2.2 35.96 0.155 12.81 2.01 13.12
1/22/2021 1:15:00 PM 2.19 35.942 0.154 12.78 2.01 13.12
1/22/2021 1:30:00 PM 2.18 35.924 0.154 12.82 2.03 13.13
1/22/2021 1:45:00 PM 2.16 35.888 0.154 12.81 2.05 13.13
1/22/2021 2:00:00 PM 2.16 35.888 0.154 12.82 2.01 13.14
1/22/2021 2:15:00 PM 2.14 35.852 0.154 12.8 2 13.14
1/22/2021 2:30:00 PM 2.11 35.798 0.154 12.79 2.01 13.15
1/22/2021 2:45:00 PM 2.1 35.78 0.154 12.79 2.08 13.17
1/22/2021 3:00:00 PM 2.02 35.636 0.154 12.81 2 13.19
1/22/2021 3:15:00 PM 1.97 35.546 0.154 12.82 2.02 13.22
1/22/2021 3:30:00 PM 1.97 35.546 0.154 12.86 2.03 13.23
1/22/2021 3:45:00 PM 1.96 35.528 0.154 12.86 2.03 13.24
1/22/2021 4:00:00 PM 1.94 35.492 0.154 12.88 1.99 13.25
1/22/2021 4:15:00 PM 1.91 35.438 0.154 12.86 2.04 13.26
1/22/2021 4:30:00 PM 1.91 35.438 0.154 12.87 2.01 13.26
1/22/2021 4:45:00 PM 1.9 35.42 0.154 12.86 2.03 13.27
1/22/2021 5:00:00 PM 1.88 35.384 0.154 12.84 2.04 13.28
1/22/2021 5:15:00 PM 1.87 35.366 0.154 12.85 2.01 13.29
1/22/2021 5:30:00 PM 1.83 35.294 0.154 12.88 2.07 13.3
1/22/2021 5:45:00 PM 1.81 35.258 0.154 12.87 2.04 13.3
1/22/2021 6:00:00 PM 1.79 35.222 0.154 12.83 2.05 13.31
1/22/2021 6:15:00 PM 1.77 35.186 0.154 12.84 2.04 13.32
1/22/2021 6:30:00 PM 1.74 35.132 0.154 12.85 2.07 13.34
1/22/2021 6:45:00 PM 1.71 35.078 0.154 12.88 2.03 13.35
1/22/2021 7:00:00 PM 1.69 35.042 0.154 12.89 2.08 13.36
1/22/2021 7:15:00 PM 1.66 34.988 0.154 12.92 2.04 13.37
1/22/2021 7:30:00 PM 1.64 34.952 0.154 12.92 2 13.38
1/22/2021 7:45:00 PM 1.62 34.916 0.154 12.91 2.02 13.38
1/22/2021 8:00:00 PM 1.61 34.898 0.154 12.9 2.02 13.39
1/22/2021 8:15:00 PM 1.59 34.862 0.154 12.94 2.12 13.39
1/22/2021 8:30:00 PM 1.57 34.826 0.154 12.92 2.06 13.4
1/22/2021 8:45:00 PM 1.56 34.808 0.154 12.91 2.05 13.41
1/22/2021 9:00:00 PM 1.54 34.772 0.154 12.93 2.01 13.42
1/22/2021 9:15:00 PM 1.5 34.7 0.154 12.97 2.08 13.43
1/22/2021 9:30:00 PM 1.45 34.61 0.153 12.95 2.02 13.46
1/22/2021 9:45:00 PM 1.43 34.574 0.153 12.96 2.1 13.47
1/22/2021 10:00:00 PM 1.41 34.538 0.153 12.97 2.08 13.49
1/22/2021 10:15:00 PM 1.39 34.502 0.153 12.97 2.07 13.5
1/22/2021 10:30:00 PM 1.38 34.484 0.153 12.97 2.04 13.5
1/22/2021 10:45:00 PM 1.36 34.448 0.153 12.96 2.05 13.51
1/22/2021 11:00:00 PM 1.34 34.412 0.153 12.96 2.07 13.52
1/22/2021 11:15:00 PM 1.32 34.376 0.153 12.95 2.06 13.53
1/22/2021 11:30:00 PM 1.31 34.358 0.153 12.98 2.01 13.54
1/22/2021 11:45:00 PM 1.29 34.322 0.153 12.97 2 13.55
1/23/2021 12:00:00 AM 1.27 34.286 0.153 12.99 2.06 13.56
1/23/2021 12:15:00 AM 1.23 34.214 0.153 12.98 2.03 13.58
1/23/2021 12:30:00 AM 1.21 34.178 0.153 12.99 2.02 13.59
1/23/2021 12:45:00 AM 1.17 34.106 0.153 13.01 2.02 13.6
1/23/2021 1:00:00 AM 1.12 34.016 0.153 13 2.01 13.63
1/23/2021 1:15:00 AM 1.07 33.926 0.153 13 2 13.64
1/23/2021 1:30:00 AM 1.04 33.872 0.153 13 2.01 13.65
1/23/2021 1:45:00 AM 1 33.8 0.153 13.02 1.98 13.67
1/23/2021 2:00:00 AM 0.97 33.746 0.153 13.04 2.02 13.68
1/23/2021 2:15:00 AM 0.93 33.674 0.153 13.03 2.05 13.69
1/23/2021 2:30:00 AM 0.9 33.62 0.153 13.01 2.02 13.71
1/23/2021 2:45:00 AM 0.87 33.566 0.153 13.04 2.02 13.72
1/23/2021 3:00:00 AM 0.83 33.494 0.153 13.03 2.01 13.73
1/23/2021 3:15:00 AM 0.77 33.386 0.153 13.05 2.03 13.76
1/23/2021 3:30:00 AM 0.73 33.314 0.153 13.04 2 13.77
1/23/2021 3:45:00 AM 0.71 33.278 0.153 13.05 2.02 13.79
1/23/2021 4:00:00 AM 0.69 33.242 0.153 13.08 2.01 13.8
1/23/2021 4:15:00 AM 0.66 33.188 0.153 13.07 2.02 13.81
1/23/2021 4:30:00 AM 0.64 33.152 0.153 13.1 2.02 13.82
1/23/2021 4:45:00 AM 0.62 33.116 0.153 13.11 2 13.84
1/23/2021 5:00:00 AM 0.58 33.044 0.153 13.1 2.03 13.86
1/23/2021 5:15:00 AM 0.56 33.008 0.153 13.09 2.04 13.87
1/23/2021 5:30:00 AM 0.54 32.972 0.153 13.12 2.03 13.88
1/23/2021 5:45:00 AM 0.52 32.936 0.153 13.25 2.05 13.9
1/23/2021 6:00:00 AM 0.5 32.9 0.153 13.27 2.07 13.91
1/23/2021 6:15:00 AM 0.47 32.846 0.153 13.05 1.99 13.93
1/23/2021 6:30:00 AM 0.44 32.792 0.153 13.16 1.98 13.95
1/23/2021 6:45:00 AM 0.41 32.738 0.153 13.19 2.12 13.97
1/23/2021 7:00:00 AM 0.39 32.702 0.153 13.03 2.05 13.98
1/23/2021 7:15:00 AM 0.37 32.666 0.153 13.06 2.09 13.99
1/23/2021 7:30:00 AM 0.34 32.612 0.153 13.09 2.1 14
1/23/2021 7:45:00 AM 0.32 32.576 0.153 13.13 2.03 14.01
1/23/2021 8:00:00 AM 0.3 32.54 0.153 13.23 2.02 14.03
1/23/2021 8:15:00 AM 0.28 32.504 0.153 13.19 2.04 14.04
1/23/2021 8:30:00 AM 0.27 32.486 0.153 13.12 2.05 14.04
1/23/2021 8:45:00 AM 0.26 32.468 0.153 13.16 2.01 14.06
1/23/2021 9:00:00 AM 0.27 32.486 0.153 13.19 2 14.06
1/23/2021 9:15:00 AM 0.28 32.504 0.153 13.12 1.98 14.06
1/23/2021 9:30:00 AM 0.31 32.558 0.153 13.19 2.01 14.06
1/23/2021 9:45:00 AM 0.33 32.594 0.153 13.18 2.06 14.05
1/23/2021 10:00:00 AM 0.36 32.648 0.153 13.18 1.97 14.04
1/23/2021 10:15:00 AM 0.39 32.702 0.153 13.16 2.01 14.04
1/23/2021 10:30:00 AM 0.41 32.738 0.152 13.12 2.02 14.03
1/23/2021 10:45:00 AM 0.43 32.774 0.152 13.09 2.03 14.03
1/23/2021 11:00:00 AM 0.46 32.828 0.152 13.09 2.02 14.02
1/23/2021 11:15:00 AM 0.5 32.9 0.152 13.1 2 14
1/23/2021 11:30:00 AM 0.51 32.918 0.152 13.12 2.04 14
1/23/2021 11:45:00 AM 0.52 32.936 0.152 13.08 2.01 13.99
1/23/2021 12:00:00 PM 0.53 32.954 0.152 13.19 2.04 13.98
1/23/2021 12:15:00 PM 0.55 32.99 0.152 13.16 2.02 13.98
1/23/2021 12:30:00 PM 0.55 32.99 0.152 13.22 2.05 13.98
1/23/2021 12:45:00 PM 0.54 32.972 0.152 13.19 1.99 13.98
1/23/2021 1:00:00 PM 0.55 32.99 0.152 13.18 1.99 13.98
1/23/2021 1:15:00 PM 0.56 33.008 0.152 13.17 2.03 13.97
1/23/2021 1:30:00 PM 0.55 32.99 0.152 13.23 2.01 13.97
1/23/2021 1:45:00 PM 0.55 32.99 0.152 13.07 2.03 13.98
1/23/2021 2:00:00 PM 0.56 33.008 0.152 13.18 2.04 13.97
1/23/2021 2:15:00 PM 0.58 33.044 0.152 13.14 2 13.96
1/23/2021 2:30:00 PM 0.59 33.062 0.152 13.06 2.01 13.96
1/23/2021 2:45:00 PM 0.59 33.062 0.152 13.11 2 13.96
1/23/2021 3:00:00 PM 0.59 33.062 0.152 13.09 2.03 13.96
1/23/2021 3:15:00 PM 0.59 33.062 0.152 13.07 1.99 13.96
1/23/2021 3:30:00 PM 0.58 33.044 0.152 13.09 2.01 13.96
1/23/2021 3:45:00 PM 0.56 33.008 0.152 13.09 1.97 13.97
1/23/2021 4:00:00 PM 0.54 32.972 0.152 13.06 2.03 13.98
1/23/2021 4:15:00 PM 0.52 32.936 0.152 13.09 1.99 13.99
1/23/2021 4:30:00 PM 0.49 32.882 0.152 13.14 1.96 13.99
1/23/2021 4:45:00 PM 0.47 32.846 0.152 13.14 2.01 14
1/23/2021 5:00:00 PM 0.45 32.81 0.152 13.15 2.04 14.01
1/23/2021 5:15:00 PM 0.43 32.774 0.152 13.13 2.04 14.02
1/23/2021 5:30:00 PM 0.4 32.72 0.152 13.12 1.99 14.03
1/23/2021 5:45:00 PM 0.37 32.666 0.152 13.21 1.99 14.04
1/23/2021 6:00:00 PM 0.36 32.648 0.151 13.26 1.98 14.05
1/23/2021 6:15:00 PM 0.33 32.594 0.151 13.2 1.95 14.06
1/23/2021 6:30:00 PM 0.3 32.54 0.151 13.14 2 14.06
1/23/2021 6:45:00 PM 0.28 32.504 0.151 13.15 2.02 14.08
1/23/2021 7:00:00 PM 0.27 32.486 0.151 13.24 2.01 14.07
1/23/2021 7:15:00 PM 0.27 32.486 0.151 13.17 1.99 14.08
1/23/2021 7:30:00 PM 0.26 32.468 0.151 13.2 2 14.08
1/23/2021 7:45:00 PM 0.24 32.432 0.151 13.25 2.02 14.09
1/23/2021 8:00:00 PM 0.24 32.432 0.151 13.23 2 14.09
1/23/2021 8:15:00 PM 0.25 32.45 0.151 13.23 1.96 14.09
1/23/2021 8:30:00 PM 0.25 32.45 0.151 13.19 2.01 14.08
1/23/2021 8:45:00 PM 0.26 32.468 0.151 13.16 2.02 14.08
1/23/2021 9:00:00 PM 0.26 32.468 0.151 13.17 2.02 14.08
1/23/2021 9:15:00 PM 0.26 32.468 0.151 13.14 1.97 14.08
1/23/2021 9:30:00 PM 0.25 32.45 0.151 13.2 2.01 14.08
1/23/2021 9:45:00 PM 0.24 32.432 0.151 13.18 2.01 14.08
1/23/2021 10:00:00 PM 0.23 32.414 0.151 13.18 1.98 14.09
1/23/2021 10:15:00 PM 0.23 32.414 0.151 13.19 2.01 14.09
1/23/2021 10:30:00 PM 0.23 32.414 0.151 13.17 1.97 14.09
1/23/2021 10:45:00 PM 0.22 32.396 0.151 13.24 2.06 14.09
1/23/2021 11:00:00 PM 0.21 32.378 0.151 13.21 2 14.1
1/23/2021 11:15:00 PM 0.21 32.378 0.151 13.21 2 14.09
1/23/2021 11:30:00 PM 0.21 32.378 0.151 13.18 2.02 14.09
1/23/2021 11:45:00 PM 0.22 32.396 0.151 13.18 2.01 14.09
1/24/2021 12:00:00 AM 0.22 32.396 0.151 13.16 2.03 14.1
1/24/2021 12:15:00 AM 0.21 32.378 0.151 13.11 2.01 14.09
1/24/2021 12:30:00 AM 0.21 32.378 0.151 13.15 2 14.09
1/24/2021 12:45:00 AM 0.21 32.378 0.151 13.14 2 14.09
1/24/2021 1:00:00 AM 0.21 32.378 0.151 13.12 1.99 14.09
1/24/2021 1:15:00 AM 0.22 32.396 0.151 13.12 1.96 14.08
1/24/2021 1:30:00 AM 0.21 32.378 0.151 13.14 1.99 14.09
1/24/2021 1:45:00 AM 0.2 32.36 0.151 13.17 2 14.09
1/24/2021 2:00:00 AM 0.2 32.36 0.15 13.15 2 14.09
1/24/2021 2:15:00 AM 0.19 32.342 0.15 13.15 2.02 14.09
1/24/2021 2:30:00 AM 0.19 32.342 0.15 13.17 1.98 14.1
1/24/2021 2:45:00 AM 0.19 32.342 0.15 13.16 2 14.09
1/24/2021 3:00:00 AM 0.18 32.324 0.15 13.16 1.99 14.09
1/24/2021 3:15:00 AM 0.18 32.324 0.15 13.18 2 14.1
1/24/2021 3:30:00 AM 0.18 32.324 0.15 13.21 1.97 14.1
1/24/2021 3:45:00 AM 0.16 32.288 0.15 13.24 2 14.1
1/24/2021 4:00:00 AM 0.15 32.27 0.15 13.17 1.99 14.11
1/24/2021 4:15:00 AM 0.13 32.234 0.15 13.25 1.98 14.11
1/24/2021 4:30:00 AM 0.1 32.18 0.15 13.14 1.97 14.13
1/24/2021 4:45:00 AM 0.06 32.108 0.15 13.19 2.05 14.16
1/24/2021 5:00:00 AM 0.03 32.054 0.151 13.32 1.98 14.17
1/24/2021 5:15:00 AM 0 32 0.151 13.29 1.96 14.18
1/24/2021 5:30:00 AM -0.02 31.964 0.151 13.24 2 14.2
1/24/2021 5:45:00 AM -0.04 31.928 0.15 13.24 2.02 14.21
1/24/2021 6:00:00 AM -0.05 31.91 0.15 13.26 1.99 14.21
1/24/2021 6:15:00 AM -0.07 31.874 0.15 13.32 1.98 14.22
1/24/2021 6:30:00 AM -0.11 31.802 0.15 13.23 2.09 14.24
1/24/2021 6:45:00 AM -0.14 31.748 0.151 13.17 2.04 14.27
1/24/2021 7:00:00 AM -0.17 31.694 0.151 13.19 2.04 14.29
1/24/2021 7:15:00 AM -0.16 31.712 0.151 13.22 2.34 14.3
1/24/2021 7:30:00 AM -0.15 31.73 0.151 13.21 2.34 14.3
1/24/2021 7:45:00 AM -0.15 31.73 0.151 13.16 2.39 14.3
1/24/2021 8:00:00 AM -0.14 31.748 0.151 13.17 2.33 14.32
1/24/2021 8:15:00 AM -0.14 31.748 0.151 13.15 2.41 14.32
1/24/2021 8:30:00 AM -0.14 31.748 0.151 13.17 2.72 14.32
1/24/2021 8:45:00 AM -0.14 31.748 0.151 13.18 2.65 14.32
1/24/2021 9:00:00 AM -0.14 31.748 0.151 13.18 2.57 14.31
1/24/2021 9:15:00 AM -0.14 31.748 0.151 13.18 2.38 14.32
1/24/2021 9:30:00 AM -0.14 31.748 0.151 13.14 2.43 14.31
1/24/2021 9:45:00 AM -0.14 31.748 0.15 13.16 2.47 14.31
1/24/2021 10:00:00 AM -0.13 31.766 0.15 13.17 2.54 14.3
1/24/2021 10:15:00 AM -0.13 31.766 0.15 13.17 2.46 14.3
1/24/2021 10:30:00 AM -0.13 31.766 0.15 13.19 2.51 14.29
1/24/2021 10:45:00 AM -0.13 31.766 0.15 13.2 2.47 14.27
1/24/2021 11:00:00 AM -0.13 31.766 0.149 13.2 2.57 14.25
1/24/2021 11:15:00 AM -0.13 31.766 0.149 13.16 2.46 14.24
1/24/2021 11:30:00 AM -0.13 31.766 0.149 13.17 2.49 14.2
1/24/2021 11:45:00 AM -0.1 31.82 0.149 13.15 2.38 14.15
1/24/2021 12:00:00 PM 0.1 32.18 0.149 13.12 2.24 14.07
1/24/2021 12:15:00 PM 0.27 32.486 0.149 13.11 2.06 14.03
1/24/2021 12:30:00 PM 0.4 32.72 0.149 13.09 2.07 13.99
1/24/2021 12:45:00 PM 0.5 32.9 0.149 13.08 2.12 13.97
1/24/2021 1:00:00 PM 0.58 33.044 0.149 13.06 2 13.94
1/24/2021 1:15:00 PM 0.67 33.206 0.149 13.06 2.11 13.91
1/24/2021 1:30:00 PM 0.75 33.35 0.149 13.02 2.07 13.86
1/24/2021 1:45:00 PM 0.84 33.512 0.149 13.03 2.04 13.83
1/24/2021 2:00:00 PM 0.92 33.656 0.149 13.03 2.08 13.78
1/24/2021 2:15:00 PM 0.97 33.746 0.149 12.94 2.03 13.75
1/24/2021 2:30:00 PM 1 33.8 0.149 12.98 1.97 13.74
1/24/2021 2:45:00 PM 1.04 33.872 0.149 13 2.04 13.72
1/24/2021 3:00:00 PM 1.06 33.908 0.149 12.95 2.01 13.7
1/24/2021 3:15:00 PM 1.06 33.908 0.149 12.9 2.02 13.71
1/24/2021 3:30:00 PM 1.07 33.926 0.149 12.97 2.02 13.7
1/24/2021 3:45:00 PM 1.07 33.926 0.149 12.97 2.05 13.71
1/24/2021 4:00:00 PM 1.05 33.89 0.149 12.95 2.01 13.71
1/24/2021 4:15:00 PM 1.03 33.854 0.149 12.97 2.06 13.71
1/24/2021 4:30:00 PM 1.01 33.818 0.149 12.97 2 13.71
1/24/2021 4:45:00 PM 1 33.8 0.149 13.02 2.02 13.72
1/24/2021 5:00:00 PM 0.98 33.764 0.149 12.97 1.97 13.72
1/24/2021 5:15:00 PM 0.96 33.728 0.149 12.94 2.01 13.73
1/24/2021 5:30:00 PM 0.94 33.692 0.149 12.98 2.02 13.74
1/24/2021 5:45:00 PM 0.92 33.656 0.149 13.01 2 13.75
1/24/2021 6:00:00 PM 0.91 33.638 0.149 13.01 2 13.75
1/24/2021 6:15:00 PM 0.9 33.62 0.149 13.02 1.97 13.75
1/24/2021 6:30:00 PM 0.89 33.602 0.149 13.02 2.06 13.76
1/24/2021 6:45:00 PM 0.88 33.584 0.149 12.99 1.98 13.76
1/24/2021 7:00:00 PM 0.88 33.584 0.149 13.02 2.01 13.76
1/24/2021 7:15:00 PM 0.87 33.566 0.149 12.98 2.09 13.76
1/24/2021 7:30:00 PM 0.87 33.566 0.149 12.98 1.99 13.76
1/24/2021 7:45:00 PM 0.88 33.584 0.149 12.95 1.99 13.76
1/24/2021 8:00:00 PM 0.87 33.566 0.149 12.99 2.06 13.76
1/24/2021 8:15:00 PM 0.87 33.566 0.149 12.99 2.01 13.76
1/24/2021 8:30:00 PM 0.87 33.566 0.148 13 2.02 13.76
1/24/2021 8:45:00 PM 0.87 33.566 0.148 12.94 2.03 13.76
1/24/2021 9:00:00 PM 0.86 33.548 0.148 13 1.99 13.76
1/24/2021 9:15:00 PM 0.86 33.548 0.148 13.03 1.97 13.76
1/24/2021 9:30:00 PM 0.86 33.548 0.148 13.03 1.96 13.75
1/24/2021 9:45:00 PM 0.87 33.566 0.148 13.09 2.02 13.75
1/24/2021 10:00:00 PM 0.87 33.566 0.148 13.01 1.99 13.75
1/24/2021 10:15:00 PM 0.87 33.566 0.148 13.04 1.96 13.75
1/24/2021 10:30:00 PM 0.87 33.566 0.148 13.06 1.99 13.75
1/24/2021 10:45:00 PM 0.88 33.584 0.148 13 2.04 13.75
1/24/2021 11:00:00 PM 0.88 33.584 0.148 12.97 2.01 13.75
1/24/2021 11:15:00 PM 0.88 33.584 0.148 13 1.97 13.74
1/24/2021 11:30:00 PM 0.88 33.584 0.148 13.01 1.99 13.74
1/24/2021 11:45:00 PM 0.89 33.602 0.148 12.98 2 13.74
1/25/2021 12:00:00 AM 0.89 33.602 0.148 12.98 1.98 13.73
1/25/2021 12:15:00 AM 0.89 33.602 0.148 13 2.01 13.73
1/25/2021 12:30:00 AM 0.89 33.602 0.148 13.02 2.01 13.73
1/25/2021 12:45:00 AM 0.89 33.602 0.148 13.01 2 13.72
1/25/2021 1:00:00 AM 0.89 33.602 0.148 13.01 1.98 13.72
1/25/2021 1:15:00 AM 0.89 33.602 0.148 13.01 1.99 13.73
1/25/2021 1:30:00 AM 0.89 33.602 0.148 13.01 1.98 13.72
1/25/2021 1:45:00 AM 0.9 33.62 0.148 13.01 1.99 13.72
1/25/2021 2:00:00 AM 0.9 33.62 0.148 13.01 2.03 13.72
1/25/2021 2:15:00 AM 0.91 33.638 0.148 13 2.01 13.72
1/25/2021 2:30:00 AM 0.92 33.656 0.148 13.02 1.99 13.71
1/25/2021 2:45:00 AM 0.92 33.656 0.148 12.99 1.97 13.71
1/25/2021 3:00:00 AM 0.93 33.674 0.147 12.97 2.02 13.7
1/25/2021 3:15:00 AM 0.93 33.674 0.147 13.02 1.98 13.71
1/25/2021 3:30:00 AM 0.93 33.674 0.147 13.01 1.97 13.7
1/25/2021 3:45:00 AM 0.94 33.692 0.147 13.01 1.98 13.7
1/25/2021 4:00:00 AM 0.94 33.692 0.147 13 1.97 13.7
1/25/2021 4:15:00 AM 0.94 33.692 0.147 13.02 2.01 13.7
1/25/2021 4:30:00 AM 0.95 33.71 0.147 13.02 2.02 13.7
1/25/2021 4:45:00 AM 0.95 33.71 0.147 13.06 1.99 13.7
1/25/2021 5:00:00 AM 0.95 33.71 0.147 13.11 2.01 13.7
1/25/2021 5:15:00 AM 0.95 33.71 0.147 13.07 1.99 13.7
1/25/2021 5:30:00 AM 0.95 33.71 0.147 13.1 1.98 13.7
1/25/2021 5:45:00 AM 0.95 33.71 0.147 13.07 2 13.7
1/25/2021 6:00:00 AM 0.95 33.71 0.147 13.1 2.01 13.7
1/25/2021 6:15:00 AM 0.95 33.71 0.147 13.06 1.99 13.7
1/25/2021 6:30:00 AM 0.96 33.728 0.147 13.05 1.99 13.7
1/25/2021 6:45:00 AM 0.96 33.728 0.147 13.13 1.99 13.71
1/25/2021 7:00:00 AM 0.97 33.746 0.147 13.03 2.05 13.7
1/25/2021 7:15:00 AM 0.97 33.746 0.147 13.02 1.97 13.7
1/25/2021 7:30:00 AM 0.97 33.746 0.147 13.03 2.03 13.7
1/25/2021 7:45:00 AM 0.97 33.746 0.147 13 1.97 13.7
1/25/2021 8:00:00 AM 0.97 33.746 0.147 13.02 2.03 13.7
1/25/2021 8:15:00 AM 0.98 33.764 0.147 13.13 2.03 13.71
1/25/2021 8:30:00 AM 0.99 33.782 0.147 13.04 2.02 13.7
1/25/2021 8:45:00 AM 1.01 33.818 0.147 13 1.95 13.7
1/25/2021 9:00:00 AM 1.03 33.854 0.147 12.99 1.96 13.69
1/25/2021 9:15:00 AM 1.05 33.89 0.147 12.97 1.98 13.68
1/25/2021 9:30:00 AM 1.09 33.962 0.147 13.04 1.98 13.67
1/25/2021 9:45:00 AM 1.13 34.034 0.147 13 1.97 13.65
1/25/2021 10:00:00 AM 1.16 34.088 0.147 12.99 2 13.65
1/25/2021 10:15:00 AM 1.19 34.142 0.147 13 1.98 13.65
1/25/2021 10:30:00 AM 1.23 34.214 0.147 13.03 1.95 13.64
1/25/2021 10:45:00 AM 1.28 34.304 0.147 12.98 1.96 13.62
1/25/2021 11:00:00 AM 1.33 34.394 0.146 12.97 1.94 13.6
1/25/2021 11:15:00 AM 1.4 34.52 0.146 12.93 2 13.58
1/25/2021 11:30:00 AM 1.45 34.61 0.146 12.94 1.97 13.56
1/25/2021 11:45:00 AM 1.51 34.718 0.146 12.88 2 13.53
1/25/2021 12:00:00 PM 1.58 34.844 0.146 12.89 2 13.49
1/25/2021 12:15:00 PM 1.65 34.97 0.146 12.89 2.02 13.45
1/25/2021 12:30:00 PM 1.71 35.078 0.146 12.88 1.94 13.42
1/25/2021 12:45:00 PM 1.77 35.186 0.146 12.85 1.97 13.39
1/25/2021 1:00:00 PM 1.82 35.276 0.146 12.83 1.99 13.37
1/25/2021 1:15:00 PM 1.88 35.384 0.146 12.84 1.97 13.36
1/25/2021 1:30:00 PM 1.91 35.438 0.146 12.81 1.95 13.34
1/25/2021 1:45:00 PM 1.95 35.51 0.146 12.82 2.01 13.32
1/25/2021 2:00:00 PM 1.98 35.564 0.146 12.84 2.02 13.32
1/25/2021 2:15:00 PM 2.01 35.618 0.146 12.8 1.99 13.31
1/25/2021 2:30:00 PM 2.02 35.636 0.145 12.83 2 13.3
1/25/2021 2:45:00 PM 2.04 35.672 0.145 12.85 1.98 13.29
1/25/2021 3:00:00 PM 2.05 35.69 0.145 12.83 2.01 13.29
1/25/2021 3:15:00 PM 2.05 35.69 0.145 12.84 1.98 13.29
1/25/2021 3:30:00 PM 2.05 35.69 0.145 12.86 1.95 13.29
1/25/2021 3:45:00 PM 2.04 35.672 0.145 12.85 1.94 13.28
1/25/2021 4:00:00 PM 2.02 35.636 0.145 12.86 2 13.29
1/25/2021 4:15:00 PM 2.01 35.618 0.145 12.87 1.96 13.3
1/25/2021 4:30:00 PM 1.98 35.564 0.145 12.86 2.02 13.3
1/25/2021 4:45:00 PM 1.96 35.528 0.145 12.87 2 13.31
1/25/2021 5:00:00 PM 1.94 35.492 0.145 12.88 1.99 13.31
1/25/2021 5:15:00 PM 1.92 35.456 0.145 12.85 2 13.31
1/25/2021 5:30:00 PM 1.89 35.402 0.145 12.9 1.98 13.32
1/25/2021 5:45:00 PM 1.87 35.366 0.145 12.86 2.01 13.33
1/25/2021 6:00:00 PM 1.84 35.312 0.145 12.88 2.01 13.33
1/25/2021 6:15:00 PM 1.82 35.276 0.146 12.88 1.98 13.34
1/25/2021 6:30:00 PM 1.8 35.24 0.146 12.88 1.94 13.34
1/25/2021 6:45:00 PM 1.78 35.204 0.146 12.92 2 13.35
1/25/2021 7:00:00 PM 1.76 35.168 0.146 12.9 2 13.35
1/25/2021 7:15:00 PM 1.74 35.132 0.145 12.98 1.95 13.36
1/25/2021 7:30:00 PM 1.74 35.132 0.146 12.99 2.01 13.36
1/25/2021 7:45:00 PM 1.73 35.114 0.145 12.98 1.99 13.37
1/25/2021 8:00:00 PM 1.72 35.096 0.145 12.95 1.99 13.37
1/25/2021 8:15:00 PM 1.72 35.096 0.145 12.97 1.98 13.37
1/25/2021 8:30:00 PM 1.71 35.078 0.145 12.95 1.99 13.38
1/25/2021 8:45:00 PM 1.7 35.06 0.145 12.92 1.99 13.38
1/25/2021 9:00:00 PM 1.69 35.042 0.145 12.97 1.98 13.38
1/25/2021 9:15:00 PM -99999.99 -179968 -99999.99 -99999.99 -99999.99 -99999.99
1/25/2021 9:30:00 PM -99999.99 -179968 -99999.99 -99999.99 -99999.99 -99999.99
1/25/2021 9:45:00 PM -99999.99 -179968 -99999.99 -99999.99 -99999.99 -99999.99
1/25/2021 10:00:00 PM -99999.99 -179968 -99999.99 -99999.99 -99999.99 -99999.99
1/25/2021 10:15:00 PM -99999.99 -179968 -99999.99 -99999.99 -99999.99 -99999.99
1/25/2021 10:30:00 PM -99999.99 -179968 -99999.99 -99999.99 -99999.99 -99999.99
1/25/2021 10:45:00 PM -99999.99 -179968 -99999.99 -99999.99 -99999.99 -99999.99
1/25/2021 11:00:00 PM -99999.99 -179968 -99999.99 -99999.99 -99999.99 -99999.99
1/25/2021 11:15:00 PM -99999.99 -179968 -99999.99 -99999.99 -99999.99 -99999.99
1/25/2021 11:30:00 PM -99999.99 -179968 -99999.99 -99999.99 -99999.99 -99999.99
1/25/2021 11:45:00 PM -99999.99 -179968 -99999.99 -99999.99 -99999.99 -99999.99
1/26/2021 12:00:00 AM -99999.99 -179968 -99999.99 -99999.99 -99999.99 -99999.99
1/26/2021 12:15:00 AM -99999.99 -179968 -99999.99 -99999.99 -99999.99 -99999.99
1/26/2021 12:30:00 AM -99999.99 -179968 -99999.99 -99999.99 -99999.99 -99999.99
1/26/2021 12:45:00 AM -99999.99 -179968 -99999.99 -99999.99 -99999.99 -99999.99
1/26/2021 1:00:00 AM -99999.99 -179968 -99999.99 -99999.99 -99999.99 -99999.99
1/26/2021 1:15:00 AM -99999.99 -179968 -99999.99 -99999.99 -99999.99 -99999.99
1/26/2021 1:30:00 AM -99999.99 -179968 -99999.99 -99999.99 -99999.99 -99999.99
1/26/2021 1:45:00 AM -99999.99 -179968 -99999.99 -99999.99 -99999.99 -99999.99
1/26/2021 2:00:00 AM -99999.99 -179968 -99999.99 -99999.99 -99999.99 -99999.99
1/26/2021 2:15:00 AM -99999.99 -179968 -99999.99 -99999.99 -99999.99 -99999.99
1/26/2021 2:30:00 AM -99999.99 -179968 -99999.99 -99999.99 -99999.99 -99999.99
1/26/2021 2:45:00 AM -99999.99 -179968 -99999.99 -99999.99 -99999.99 -99999.99
1/26/2021 3:00:00 AM -99999.99 -179968 -99999.99 -99999.99 -99999.99 -99999.99
1/26/2021 3:15:00 AM -99999.99 -179968 -99999.99 -99999.99 -99999.99 -99999.99
1/26/2021 3:30:00 AM -99999.99 -179968 -99999.99 -99999.99 -99999.99 -99999.99
1/26/2021 3:45:00 AM -99999.99 -179968 -99999.99 -99999.99 -99999.99 -99999.99
1/26/2021 4:00:00 AM -99999.99 -179968 -99999.99 -99999.99 -99999.99 -99999.99
1/26/2021 4:15:00 AM -99999.99 -179968 -99999.99 -99999.99 -99999.99 -99999.99
1/26/2021 4:30:00 AM -99999.99 -179968 -99999.99 -99999.99 -99999.99 -99999.99
1/26/2021 4:45:00 AM -99999.99 -179968 -99999.99 -99999.99 -99999.99 -99999.99
1/26/2021 5:00:00 AM -99999.99 -179968 -99999.99 -99999.99 -99999.99 -99999.99
1/26/2021 5:15:00 AM -99999.99 -179968 -99999.99 -99999.99 -99999.99 -99999.99
1/26/2021 5:30:00 AM -99999.99 -179968 -99999.99 -99999.99 -99999.99 -99999.99
1/26/2021 5:45:00 AM -99999.99 -179968 -99999.99 -99999.99 -99999.99 -99999.99
1/26/2021 6:00:00 AM -99999.99 -179968 -99999.99 -99999.99 -99999.99 -99999.99
1/26/2021 6:15:00 AM -99999.99 -179968 -99999.99 -99999.99 -99999.99 -99999.99
1/26/2021 6:30:00 AM -99999.99 -179968 -99999.99 -99999.99 -99999.99 -99999.99
1/26/2021 6:45:00 AM -99999.99 -179968 -99999.99 -99999.99 -99999.99 -99999.99
1/26/2021 7:00:00 AM -99999.99 -179968 -99999.99 -99999.99 -99999.99 -99999.99
1/26/2021 7:15:00 AM -99999.99 -179968 -99999.99 -99999.99 -99999.99 -99999.99
1/26/2021 7:30:00 AM -99999.99 -179968 -99999.99 -99999.99 -99999.99 -99999.99
1/26/2021 7:45:00 AM -99999.99 -179968 -99999.99 -99999.99 -99999.99 -99999.99
1/26/2021 8:00:00 AM -99999.99 -179968 -99999.99 -99999.99 -99999.99 -99999.99
1/26/2021 8:15:00 AM -99999.99 -179968 -99999.99 -99999.99 -99999.99 -99999.99
1/26/2021 8:30:00 AM -99999.99 -179968 -99999.99 -99999.99 -99999.99 -99999.99
1/26/2021 8:45:00 AM -99999.99 -179968 -99999.99 -99999.99 -99999.99 -99999.99
1/26/2021 9:00:00 AM -99999.99 -179968 -99999.99 -99999.99 -99999.99 -99999.99
1/26/2021 9:15:00 AM -99999.99 -179968 -99999.99 -99999.99 -99999.99 -99999.99
1/26/2021 9:30:00 AM -99999.99 -179968 -99999.99 -99999.99 -99999.99 -99999.99
1/26/2021 9:45:00 AM -99999.99 -179968 -99999.99 -99999.99 -99999.99 -99999.99
1/26/2021 10:00:00 AM -99999.99 -179968 -99999.99 -99999.99 -99999.99 -99999.99
1/26/2021 10:15:00 AM -99999.99 -179968 -99999.99 -99999.99 -99999.99 -99999.99
1/26/2021 10:30:00 AM -99999.99 -179968 -99999.99 -99999.99 -99999.99 -99999.99
1/26/2021 10:45:00 AM -99999.99 -179968 -99999.99 -99999.99 -99999.99 -99999.99
1/26/2021 11:00:00 AM -99999.99 -179968 -99999.99 -99999.99 -99999.99 -99999.99
1/26/2021 11:15:00 AM -99999.99 -179968 -99999.99 -99999.99 -99999.99 -99999.99
1/26/2021 11:30:00 AM -99999.99 -179968 -99999.99 -99999.99 -99999.99 -99999.99
1/26/2021 11:45:00 AM -99999.99 -179968 -99999.99 -99999.99 -99999.99 -99999.99
1/26/2021 12:00:00 PM -99999.99 -179968 -99999.99 -99999.99 -99999.99 -99999.99
1/26/2021 12:15:00 PM -99999.99 -179968 -99999.99 -99999.99 -99999.99 -99999.99
1/26/2021 12:30:00 PM -99999.99 -179968 -99999.99 -99999.99 -99999.99 -99999.99
1/26/2021 12:45:00 PM -99999.99 -179968 -99999.99 -99999.99 -99999.99 -99999.99
1/26/2021 1:00:00 PM -99999.99 -179968 -99999.99 -99999.99 -99999.99 -99999.99
1/26/2021 1:15:00 PM -99999.99 -179968 -99999.99 -99999.99 -99999.99 -99999.99
1/26/2021 1:30:00 PM -99999.99 -179968 -99999.99 -99999.99 -99999.99 -99999.99
1/26/2021 1:45:00 PM -99999.99 -179968 -99999.99 -99999.99 -99999.99 -99999.99
1/26/2021 2:00:00 PM -99999.99 -179968 -99999.99 -99999.99 -99999.99 -99999.99
1/26/2021 2:15:00 PM -99999.99 -179968 -99999.99 -99999.99 -99999.99 -99999.99
1/26/2021 2:30:00 PM -99999.99 -179968 -99999.99 -99999.99 -99999.99 -99999.99
1/26/2021 2:45:00 PM -99999.99 -179968 -99999.99 -99999.99 -99999.99 -99999.99
1/26/2021 3:00:00 PM -99999.99 -179968 -99999.99 -99999.99 -99999.99 -99999.99
1/26/2021 3:15:00 PM -99999.99 -179968 -99999.99 -99999.99 -99999.99 -99999.99
1/26/2021 3:30:00 PM -99999.99 -179968 -99999.99 -99999.99 -99999.99 -99999.99
1/26/2021 3:45:00 PM -99999.99 -179968 -99999.99 -99999.99 -99999.99 -99999.99
1/26/2021 4:00:00 PM -99999.99 -179968 -99999.99 -99999.99 -99999.99 -99999.99
1/26/2021 4:15:00 PM -99999.99 -179968 -99999.99 -99999.99 -99999.99 -99999.99
1/26/2021 4:30:00 PM -99999.99 -179968 -99999.99 -99999.99 -99999.99 -99999.99
1/26/2021 4:45:00 PM -99999.99 -179968 -99999.99 -99999.99 -99999.99 -99999.99
1/26/2021 5:00:00 PM -99999.99 -179968 -99999.99 -99999.99 -99999.99 -99999.99
1/26/2021 5:15:00 PM -99999.99 -179968 -99999.99 -99999.99 -99999.99 -99999.99
1/26/2021 5:30:00 PM -99999.99 -179968 -99999.99 -99999.99 -99999.99 -99999.99
1/26/2021 5:45:00 PM -99999.99 -179968 -99999.99 -99999.99 -99999.99 -99999.99
1/26/2021 6:00:00 PM -99999.99 -179968 -99999.99 -99999.99 -99999.99 -99999.99
1/26/2021 6:15:00 PM -99999.99 -179968 -99999.99 -99999.99 -99999.99 -99999.99
1/26/2021 6:30:00 PM -99999.99 -179968 -99999.99 -99999.99 -99999.99 -99999.99
1/26/2021 6:45:00 PM -99999.99 -179968 -99999.99 -99999.99 -99999.99 -99999.99
1/26/2021 7:00:00 PM -99999.99 -179968 -99999.99 -99999.99 -99999.99 -99999.99
1/26/2021 7:15:00 PM -99999.99 -179968 -99999.99 -99999.99 -99999.99 -99999.99
1/26/2021 7:30:00 PM -99999.99 -179968 -99999.99 -99999.99 -99999.99 -99999.99
1/26/2021 7:45:00 PM -99999.99 -179968 -99999.99 -99999.99 -99999.99 -99999.99
1/26/2021 8:00:00 PM -99999.99 -179968 -99999.99 -99999.99 -99999.99 -99999.99
1/26/2021 8:15:00 PM -99999.99 -179968 -99999.99 -99999.99 -99999.99 -99999.99
1/26/2021 8:30:00 PM -99999.99 -179968 -99999.99 -99999.99 -99999.99 -99999.99
1/26/2021 8:45:00 PM -99999.99 -179968 -99999.99 -99999.99 -99999.99 -99999.99
1/26/2021 9:00:00 PM -99999.99 -179968 -99999.99 -99999.99 -99999.99 -99999.99
1/26/2021 9:15:00 PM -99999.99 -179968 -99999.99 -99999.99 -99999.99 -99999.99
1/26/2021 9:30:00 PM -99999.99 -179968 -99999.99 -99999.99 -99999.99 -99999.99
1/26/2021 9:45:00 PM -99999.99 -179968 -99999.99 -99999.99 -99999.99 -99999.99
1/26/2021 10:00:00 PM -99999.99 -179968 -99999.99 -99999.99 -99999.99 -99999.99
1/26/2021 10:15:00 PM -99999.99 -179968 -99999.99 -99999.99 -99999.99 -99999.99
1/26/2021 10:30:00 PM -99999.99 -179968 -99999.99 -99999.99 -99999.99 -99999.99
1/26/2021 10:45:00 PM -99999.99 -179968 -99999.99 -99999.99 -99999.99 -99999.99
1/26/2021 11:00:00 PM -99999.99 -179968 -99999.99 -99999.99 -99999.99 -99999.99
1/26/2021 11:15:00 PM -99999.99 -179968 -99999.99 -99999.99 -99999.99 -99999.99
1/26/2021 11:30:00 PM -99999.99 -179968 -99999.99 -99999.99 -99999.99 -99999.99
1/26/2021 11:45:00 PM -99999.99 -179968 -99999.99 -99999.99 -99999.99 -99999.99
1/27/2021 12:00:00 AM -99999.99 -179968 -99999.99 -99999.99 -99999.99 -99999.99
1/27/2021 12:15:00 AM -99999.99 -179968 -99999.99 -99999.99 -99999.99 -99999.99
1/27/2021 12:30:00 AM -99999.99 -179968 -99999.99 -99999.99 -99999.99 -99999.99
1/27/2021 12:45:00 AM -99999.99 -179968 -99999.99 -99999.99 -99999.99 -99999.99
1/27/2021 1:00:00 AM -99999.99 -179968 -99999.99 -99999.99 -99999.99 -99999.99
1/27/2021 1:15:00 AM -99999.99 -179968 -99999.99 -99999.99 -99999.99 -99999.99
1/27/2021 1:30:00 AM -99999.99 -179968 -99999.99 -99999.99 -99999.99 -99999.99
1/27/2021 1:45:00 AM -99999.99 -179968 -99999.99 -99999.99 -99999.99 -99999.99
1/27/2021 2:00:00 AM -99999.99 -179968 -99999.99 -99999.99 -99999.99 -99999.99
1/27/2021 2:15:00 AM -99999.99 -179968 -99999.99 -99999.99 -99999.99 -99999.99
1/27/2021 2:30:00 AM -99999.99 -179968 -99999.99 -99999.99 -99999.99 -99999.99
1/27/2021 2:45:00 AM -99999.99 -179968 -99999.99 -99999.99 -99999.99 -99999.99
1/27/2021 3:00:00 AM -99999.99 -179968 -99999.99 -99999.99 -99999.99 -99999.99
1/27/2021 3:15:00 AM -99999.99 -179968 -99999.99 -99999.99 -99999.99 -99999.99
1/27/2021 3:30:00 AM -99999.99 -179968 -99999.99 -99999.99 -99999.99 -99999.99
1/27/2021 3:45:00 AM -99999.99 -179968 -99999.99 -99999.99 -99999.99 -99999.99
1/27/2021 4:00:00 AM -99999.99 -179968 -99999.99 -99999.99 -99999.99 -99999.99
1/27/2021 4:15:00 AM -99999.99 -179968 -99999.99 -99999.99 -99999.99 -99999.99
1/27/2021 4:30:00 AM -99999.99 -179968 -99999.99 -99999.99 -99999.99 -99999.99
1/27/2021 4:45:00 AM -99999.99 -179968 -99999.99 -99999.99 -99999.99 -99999.99
1/27/2021 5:00:00 AM -99999.99 -179968 -99999.99 -99999.99 -99999.99 -99999.99
1/27/2021 5:15:00 AM -99999.99 -179968 -99999.99 -99999.99 -99999.99 -99999.99
1/27/2021 5:30:00 AM -99999.99 -179968 -99999.99 -99999.99 -99999.99 -99999.99
1/27/2021 5:45:00 AM -99999.99 -179968 -99999.99 -99999.99 -99999.99 -99999.99
1/27/2021 6:00:00 AM -99999.99 -179968 -99999.99 -99999.99 -99999.99 -99999.99
1/27/2021 6:15:00 AM -99999.99 -179968 -99999.99 -99999.99 -99999.99 -99999.99
1/27/2021 6:30:00 AM -99999.99 -179968 -99999.99 -99999.99 -99999.99 -99999.99
1/27/2021 6:45:00 AM -99999.99 -179968 -99999.99 -99999.99 -99999.99 -99999.99
1/27/2021 7:00:00 AM -99999.99 -179968 -99999.99 -99999.99 -99999.99 -99999.99
1/27/2021 7:15:00 AM -99999.99 -179968 -99999.99 -99999.99 -99999.99 -99999.99
1/27/2021 7:30:00 AM -99999.99 -179968 -99999.99 -99999.99 -99999.99 -99999.99
1/27/2021 7:45:00 AM -99999.99 -179968 -99999.99 -99999.99 -99999.99 -99999.99
1/27/2021 8:00:00 AM -99999.99 -179968 -99999.99 -99999.99 -99999.99 -99999.99
1/27/2021 8:15:00 AM -99999.99 -179968 -99999.99 -99999.99 -99999.99 -99999.99
1/27/2021 8:30:00 AM -99999.99 -179968 -99999.99 -99999.99 -99999.99 -99999.99
1/27/2021 8:45:00 AM -99999.99 -179968 -99999.99 -99999.99 -99999.99 -99999.99
1/27/2021 9:00:00 AM -99999.99 -179968 -99999.99 -99999.99 -99999.99 -99999.99
1/27/2021 9:15:00 AM -99999.99 -179968 -99999.99 -99999.99 -99999.99 -99999.99
1/27/2021 9:30:00 AM -99999.99 -179968 -99999.99 -99999.99 -99999.99 -99999.99
1/27/2021 9:45:00 AM -99999.99 -179968 -99999.99 -99999.99 -99999.99 -99999.99
1/27/2021 10:00:00 AM -99999.99 -179968 -99999.99 -99999.99 -99999.99 -99999.99
1/27/2021 10:15:00 AM -99999.99 -179968 -99999.99 -99999.99 -99999.99 -99999.99
1/27/2021 10:30:00 AM -99999.99 -179968 -99999.99 -99999.99 -99999.99 -99999.99
1/27/2021 10:45:00 AM -99999.99 -179968 -99999.99 -99999.99 -99999.99 -99999.99
1/27/2021 11:00:00 AM -99999.99 -179968 -99999.99 -99999.99 -99999.99 -99999.99
1/27/2021 11:15:00 AM -99999.99 -179968 -99999.99 -99999.99 -99999.99 -99999.99
1/27/2021 11:30:00 AM -99999.99 -179968 -99999.99 -99999.99 -99999.99 -99999.99
1/27/2021 11:45:00 AM -99999.99 -179968 -99999.99 -99999.99 -99999.99 -99999.99
1/27/2021 12:00:00 PM -99999.99 -179968 -99999.99 -99999.99 -99999.99 -99999.99
1/27/2021 12:15:00 PM -99999.99 -179968 -99999.99 -99999.99 -99999.99 -99999.99
1/27/2021 12:30:00 PM -99999.99 -179968 -99999.99 -99999.99 -99999.99 -99999.99
1/27/2021 12:45:00 PM -99999.99 -179968 -99999.99 -99999.99 -99999.99 -99999.99
1/27/2021 1:00:00 PM -99999.99 -179968 -99999.99 -99999.99 -99999.99 -99999.99
1/27/2021 1:15:00 PM -99999.99 -179968 -99999.99 -99999.99 -99999.99 -99999.99
1/27/2021 1:30:00 PM -99999.99 -179968 -99999.99 -99999.99 -99999.99 -99999.99
1/27/2021 1:45:00 PM -99999.99 -179968 -99999.99 -99999.99 -99999.99 -99999.99
1/27/2021 2:00:00 PM -99999.99 -179968 -99999.99 -99999.99 -99999.99 -99999.99
1/27/2021 2:15:00 PM -99999.99 -179968 -99999.99 -99999.99 -99999.99 -99999.99
1/27/2021 2:30:00 PM -99999.99 -179968 -99999.99 -99999.99 -99999.99 -99999.99
1/27/2021 2:45:00 PM -99999.99 -179968 -99999.99 -99999.99 -99999.99 -99999.99
1/27/2021 3:00:00 PM -99999.99 -179968 -99999.99 -99999.99 -99999.99 -99999.99
1/27/2021 3:15:00 PM -99999.99 -179968 -99999.99 -99999.99 -99999.99 -99999.99
1/27/2021 3:30:00 PM -99999.99 -179968 -99999.99 -99999.99 -99999.99 -99999.99
1/27/2021 3:45:00 PM -99999.99 -179968 -99999.99 -99999.99 -99999.99 -99999.99
1/27/2021 4:00:00 PM -99999.99 -179968 -99999.99 -99999.99 -99999.99 -99999.99
1/27/2021 4:15:00 PM -99999.99 -179968 -99999.99 -99999.99 -99999.99 -99999.99
1/27/2021 4:30:00 PM -99999.99 -179968 -99999.99 -99999.99 -99999.99 -99999.99
1/27/2021 4:45:00 PM -99999.99 -179968 -99999.99 -99999.99 -99999.99 -99999.99
1/27/2021 5:00:00 PM -99999.99 -179968 -99999.99 -99999.99 -99999.99 -99999.99
1/27/2021 5:15:00 PM -99999.99 -179968 -99999.99 -99999.99 -99999.99 -99999.99
1/27/2021 5:30:00 PM -99999.99 -179968 -99999.99 -99999.99 -99999.99 -99999.99
1/27/2021 5:45:00 PM -99999.99 -179968 -99999.99 -99999.99 -99999.99 -99999.99
1/27/2021 6:00:00 PM -99999.99 -179968 -99999.99 -99999.99 -99999.99 -99999.99
1/27/2021 6:15:00 PM -99999.99 -179968 -99999.99 -99999.99 -99999.99 -99999.99
1/27/2021 6:30:00 PM -99999.99 -179968 -99999.99 -99999.99 -99999.99 -99999.99
1/27/2021 6:45:00 PM -99999.99 -179968 -99999.99 -99999.99 -99999.99 -99999.99
1/27/2021 7:00:00 PM -99999.99 -179968 -99999.99 -99999.99 -99999.99 -99999.99
1/27/2021 7:15:00 PM -99999.99 -179968 -99999.99 -99999.99 -99999.99 -99999.99
1/27/2021 7:30:00 PM -99999.99 -179968 -99999.99 -99999.99 -99999.99 -99999.99
1/27/2021 7:45:00 PM -99999.99 -179968 -99999.99 -99999.99 -99999.99 -99999.99
1/27/2021 8:00:00 PM -99999.99 -179968 -99999.99 -99999.99 -99999.99 -99999.99
1/27/2021 8:15:00 PM -99999.99 -179968 -99999.99 -99999.99 -99999.99 -99999.99
1/27/2021 8:30:00 PM -99999.99 -179968 -99999.99 -99999.99 -99999.99 -99999.99
1/27/2021 8:45:00 PM -99999.99 -179968 -99999.99 -99999.99 -99999.99 -99999.99
1/27/2021 9:00:00 PM -99999.99 -179968 -99999.99 -99999.99 -99999.99 -99999.99
1/27/2021 9:15:00 PM -99999.99 -179968 -99999.99 -99999.99 -99999.99 -99999.99
1/27/2021 9:30:00 PM -99999.99 -179968 -99999.99 -99999.99 -99999.99 -99999.99
1/27/2021 9:45:00 PM -99999.99 -179968 -99999.99 -99999.99 -99999.99 -99999.99
1/27/2021 10:00:00 PM -99999.99 -179968 -99999.99 -99999.99 -99999.99 -99999.99
1/27/2021 10:15:00 PM -99999.99 -179968 -99999.99 -99999.99 -99999.99 -99999.99
1/27/2021 10:30:00 PM -99999.99 -179968 -99999.99 -99999.99 -99999.99 -99999.99
1/27/2021 10:45:00 PM -99999.99 -179968 -99999.99 -99999.99 -99999.99 -99999.99
1/27/2021 11:00:00 PM -99999.99 -179968 -99999.99 -99999.99 -99999.99 -99999.99
1/27/2021 11:15:00 PM -99999.99 -179968 -99999.99 -99999.99 -99999.99 -99999.99
1/27/2021 11:30:00 PM -99999.99 -179968 -99999.99 -99999.99 -99999.99 -99999.99
1/27/2021 11:45:00 PM -99999.99 -179968 -99999.99 -99999.99 -99999.99 -99999.99
1/28/2021 12:00:00 AM -99999.99 -179968 -99999.99 -99999.99 -99999.99 -99999.99
1/28/2021 12:15:00 AM -99999.99 -179968 -99999.99 -99999.99 -99999.99 -99999.99
1/28/2021 12:30:00 AM -99999.99 -179968 -99999.99 -99999.99 -99999.99 -99999.99
1/28/2021 12:45:00 AM -99999.99 -179968 -99999.99 -99999.99 -99999.99 -99999.99
1/28/2021 1:00:00 AM -99999.99 -179968 -99999.99 -99999.99 -99999.99 -99999.99
1/28/2021 1:15:00 AM -99999.99 -179968 -99999.99 -99999.99 -99999.99 -99999.99
1/28/2021 1:30:00 AM -99999.99 -179968 -99999.99 -99999.99 -99999.99 -99999.99
1/28/2021 1:45:00 AM -99999.99 -179968 -99999.99 -99999.99 -99999.99 -99999.99
1/28/2021 2:00:00 AM -99999.99 -179968 -99999.99 -99999.99 -99999.99 -99999.99
1/28/2021 2:15:00 AM -99999.99 -179968 -99999.99 -99999.99 -99999.99 -99999.99
1/28/2021 2:30:00 AM -99999.99 -179968 -99999.99 -99999.99 -99999.99 -99999.99
1/28/2021 2:45:00 AM -99999.99 -179968 -99999.99 -99999.99 -99999.99 -99999.99
1/28/2021 3:00:00 AM -99999.99 -179968 -99999.99 -99999.99 -99999.99 -99999.99
1/28/2021 3:15:00 AM -99999.99 -179968 -99999.99 -99999.99 -99999.99 -99999.99
1/28/2021 3:30:00 AM -99999.99 -179968 -99999.99 -99999.99 -99999.99 -99999.99
1/28/2021 3:45:00 AM -99999.99 -179968 -99999.99 -99999.99 -99999.99 -99999.99
1/28/2021 4:00:00 AM -99999.99 -179968 -99999.99 -99999.99 -99999.99 -99999.99
1/28/2021 4:15:00 AM -99999.99 -179968 -99999.99 -99999.99 -99999.99 -99999.99
1/28/2021 4:30:00 AM -99999.99 -179968 -99999.99 -99999.99 -99999.99 -99999.99
1/28/2021 4:45:00 AM -99999.99 -179968 -99999.99 -99999.99 -99999.99 -99999.99
1/28/2021 5:00:00 AM -99999.99 -179968 -99999.99 -99999.99 -99999.99 -99999.99
1/28/2021 5:15:00 AM -99999.99 -179968 -99999.99 -99999.99 -99999.99 -99999.99
1/28/2021 5:30:00 AM -99999.99 -179968 -99999.99 -99999.99 -99999.99 -99999.99
1/28/2021 5:45:00 AM -99999.99 -179968 -99999.99 -99999.99 -99999.99 -99999.99
1/28/2021 6:00:00 AM -99999.99 -179968 -99999.99 -99999.99 -99999.99 -99999.99
1/28/2021 6:15:00 AM -99999.99 -179968 -99999.99 -99999.99 -99999.99 -99999.99
1/28/2021 6:30:00 AM -99999.99 -179968 -99999.99 -99999.99 -99999.99 -99999.99
1/28/2021 6:45:00 AM -99999.99 -179968 -99999.99 -99999.99 -99999.99 -99999.99
1/28/2021 7:00:00 AM -99999.99 -179968 -99999.99 -99999.99 -99999.99 -99999.99
1/28/2021 7:15:00 AM -99999.99 -179968 -99999.99 -99999.99 -99999.99 -99999.99
1/28/2021 7:30:00 AM -99999.99 -179968 -99999.99 -99999.99 -99999.99 -99999.99
1/28/2021 7:45:00 AM -99999.99 -179968 -99999.99 -99999.99 -99999.99 -99999.99
1/28/2021 8:00:00 AM -99999.99 -179968 -99999.99 -99999.99 -99999.99 -99999.99
1/28/2021 8:15:00 AM -99999.99 -179968 -99999.99 -99999.99 -99999.99 -99999.99
1/28/2021 8:30:00 AM -99999.99 -179968 -99999.99 -99999.99 -99999.99 -99999.99
1/28/2021 8:45:00 AM -99999.99 -179968 -99999.99 -99999.99 -99999.99 -99999.99
1/28/2021 9:00:00 AM -99999.99 -179968 -99999.99 -99999.99 -99999.99 -99999.99
1/28/2021 9:15:00 AM -99999.99 -179968 -99999.99 -99999.99 -99999.99 -99999.99
1/28/2021 9:30:00 AM -99999.99 -179968 -99999.99 -99999.99 -99999.99 -99999.99
1/28/2021 9:45:00 AM -99999.99 -179968 -99999.99 -99999.99 -99999.99 -99999.99
1/28/2021 10:00:00 AM -99999.99 -179968 -99999.99 -99999.99 -99999.99 -99999.99
1/28/2021 10:15:00 AM -99999.99 -179968 -99999.99 -99999.99 -99999.99 -99999.99
1/28/2021 10:30:00 AM -99999.99 -179968 -99999.99 -99999.99 -99999.99 -99999.99
1/28/2021 10:45:00 AM -99999.99 -179968 -99999.99 -99999.99 -99999.99 -99999.99
1/28/2021 11:00:00 AM -99999.99 -179968 -99999.99 -99999.99 -99999.99 -99999.99
1/28/2021 11:15:00 AM -99999.99 -179968 -99999.99 -99999.99 -99999.99 -99999.99
1/28/2021 11:30:00 AM -99999.99 -179968 -99999.99 -99999.99 -99999.99 -99999.99
1/28/2021 11:45:00 AM -99999.99 -179968 -99999.99 -99999.99 -99999.99 -99999.99
1/28/2021 12:00:00 PM -99999.99 -179968 -99999.99 -99999.99 -99999.99 -99999.99
1/28/2021 12:15:00 PM -99999.99 -179968 -99999.99 -99999.99 -99999.99 -99999.99
1/28/2021 12:30:00 PM -99999.99 -179968 -99999.99 -99999.99 -99999.99 -99999.99
1/28/2021 12:45:00 PM -99999.99 -179968 -99999.99 -99999.99 -99999.99 -99999.99
1/28/2021 1:00:00 PM -99999.99 -179968 -99999.99 -99999.99 -99999.99 -99999.99
1/28/2021 1:15:00 PM -99999.99 -179968 -99999.99 -99999.99 -99999.99 -99999.99
1/28/2021 1:30:00 PM -99999.99 -179968 -99999.99 -99999.99 -99999.99 -99999.99
1/28/2021 1:45:00 PM -99999.99 -179968 -99999.99 -99999.99 -99999.99 -99999.99
1/28/2021 2:00:00 PM -99999.99 -179968 -99999.99 -99999.99 -99999.99 -99999.99
1/28/2021 2:15:00 PM -99999.99 -179968 -99999.99 -99999.99 -99999.99 -99999.99
1/28/2021 2:30:00 PM -99999.99 -179968 -99999.99 -99999.99 -99999.99 -99999.99
1/28/2021 2:45:00 PM -99999.99 -179968 -99999.99 -99999.99 -99999.99 -99999.99
1/28/2021 3:00:00 PM -99999.99 -179968 -99999.99 -99999.99 -99999.99 -99999.99
1/28/2021 3:15:00 PM -99999.99 -179968 -99999.99 -99999.99 -99999.99 -99999.99
1/28/2021 3:30:00 PM -99999.99 -179968 -99999.99 -99999.99 -99999.99 -99999.99
1/28/2021 3:45:00 PM -99999.99 -179968 -99999.99 -99999.99 -99999.99 -99999.99
1/28/2021 4:00:00 PM -99999.99 -179968 -99999.99 -99999.99 -99999.99 -99999.99
1/28/2021 4:15:00 PM -99999.99 -179968 -99999.99 -99999.99 -99999.99 -99999.99
1/28/2021 4:30:00 PM -99999.99 -179968 -99999.99 -99999.99 -99999.99 -99999.99
1/28/2021 4:45:00 PM -99999.99 -179968 -99999.99 -99999.99 -99999.99 -99999.99
1/28/2021 5:00:00 PM -99999.99 -179968 -99999.99 -99999.99 -99999.99 -99999.99
1/28/2021 5:15:00 PM -99999.99 -179968 -99999.99 -99999.99 -99999.99 -99999.99
1/28/2021 5:30:00 PM -99999.99 -179968 -99999.99 -99999.99 -99999.99 -99999.99
1/28/2021 5:45:00 PM -99999.99 -179968 -99999.99 -99999.99 -99999.99 -99999.99
1/28/2021 6:00:00 PM -99999.99 -179968 -99999.99 -99999.99 -99999.99 -99999.99
1/28/2021 6:15:00 PM -99999.99 -179968 -99999.99 -99999.99 -99999.99 -99999.99
1/28/2021 6:30:00 PM -99999.99 -179968 -99999.99 -99999.99 -99999.99 -99999.99
1/28/2021 6:45:00 PM -99999.99 -179968 -99999.99 -99999.99 -99999.99 -99999.99
1/28/2021 7:00:00 PM -99999.99 -179968 -99999.99 -99999.99 -99999.99 -99999.99
1/28/2021 7:15:00 PM -99999.99 -179968 -99999.99 -99999.99 -99999.99 -99999.99
1/28/2021 7:30:00 PM -99999.99 -179968 -99999.99 -99999.99 -99999.99 -99999.99
1/28/2021 7:45:00 PM -99999.99 -179968 -99999.99 -99999.99 -99999.99 -99999.99
1/28/2021 8:00:00 PM -99999.99 -179968 -99999.99 -99999.99 -99999.99 -99999.99
1/28/2021 8:15:00 PM -99999.99 -179968 -99999.99 -99999.99 -99999.99 -99999.99
1/28/2021 8:30:00 PM -99999.99 -179968 -99999.99 -99999.99 -99999.99 -99999.99
1/28/2021 8:45:00 PM -99999.99 -179968 -99999.99 -99999.99 -99999.99 -99999.99
1/28/2021 9:00:00 PM -99999.99 -179968 -99999.99 -99999.99 -99999.99 -99999.99
1/28/2021 9:15:00 PM -99999.99 -179968 -99999.99 -99999.99 -99999.99 -99999.99
1/28/2021 9:30:00 PM -99999.99 -179968 -99999.99 -99999.99 -99999.99 -99999.99
1/28/2021 9:45:00 PM -99999.99 -179968 -99999.99 -99999.99 -99999.99 -99999.99
1/28/2021 10:00:00 PM -99999.99 -179968 -99999.99 -99999.99 -99999.99 -99999.99
1/28/2021 10:15:00 PM -99999.99 -179968 -99999.99 -99999.99 -99999.99 -99999.99
1/28/2021 10:30:00 PM -99999.99 -179968 -99999.99 -99999.99 -99999.99 -99999.99
1/28/2021 10:45:00 PM -99999.99 -179968 -99999.99 -99999.99 -99999.99 -99999.99
1/28/2021 11:00:00 PM -99999.99 -179968 -99999.99 -99999.99 -99999.99 -99999.99
1/28/2021 11:15:00 PM -99999.99 -179968 -99999.99 -99999.99 -99999.99 -99999.99
1/28/2021 11:30:00 PM -99999.99 -179968 -99999.99 -99999.99 -99999.99 -99999.99
1/28/2021 11:45:00 PM -99999.99 -179968 -99999.99 -99999.99 -99999.99 -99999.99
1/29/2021 12:00:00 AM -99999.99 -179968 -99999.99 -99999.99 -99999.99 -99999.99
1/29/2021 12:15:00 AM -99999.99 -179968 -99999.99 -99999.99 -99999.99 -99999.99
1/29/2021 12:30:00 AM -99999.99 -179968 -99999.99 -99999.99 -99999.99 -99999.99
1/29/2021 12:45:00 AM -99999.99 -179968 -99999.99 -99999.99 -99999.99 -99999.99
1/29/2021 1:00:00 AM -99999.99 -179968 -99999.99 -99999.99 -99999.99 -99999.99
1/29/2021 1:15:00 AM -99999.99 -179968 -99999.99 -99999.99 -99999.99 -99999.99
1/29/2021 1:30:00 AM -99999.99 -179968 -99999.99 -99999.99 -99999.99 -99999.99
1/29/2021 1:45:00 AM -99999.99 -179968 -99999.99 -99999.99 -99999.99 -99999.99
1/29/2021 2:00:00 AM -99999.99 -179968 -99999.99 -99999.99 -99999.99 -99999.99
1/29/2021 2:15:00 AM -99999.99 -179968 -99999.99 -99999.99 -99999.99 -99999.99
1/29/2021 2:30:00 AM -99999.99 -179968 -99999.99 -99999.99 -99999.99 -99999.99
1/29/2021 2:45:00 AM -99999.99 -179968 -99999.99 -99999.99 -99999.99 -99999.99
1/29/2021 3:00:00 AM -99999.99 -179968 -99999.99 -99999.99 -99999.99 -99999.99
1/29/2021 3:15:00 AM -99999.99 -179968 -99999.99 -99999.99 -99999.99 -99999.99
1/29/2021 3:30:00 AM -99999.99 -179968 -99999.99 -99999.99 -99999.99 -99999.99
1/29/2021 3:45:00 AM -99999.99 -179968 -99999.99 -99999.99 -99999.99 -99999.99
1/29/2021 4:00:00 AM -99999.99 -179968 -99999.99 -99999.99 -99999.99 -99999.99
1/29/2021 4:15:00 AM -99999.99 -179968 -99999.99 -99999.99 -99999.99 -99999.99
1/29/2021 4:30:00 AM -99999.99 -179968 -99999.99 -99999.99 -99999.99 -99999.99
1/29/2021 4:45:00 AM -99999.99 -179968 -99999.99 -99999.99 -99999.99 -99999.99
1/29/2021 5:00:00 AM -99999.99 -179968 -99999.99 -99999.99 -99999.99 -99999.99
1/29/2021 5:15:00 AM -99999.99 -179968 -99999.99 -99999.99 -99999.99 -99999.99
1/29/2021 5:30:00 AM -99999.99 -179968 -99999.99 -99999.99 -99999.99 -99999.99
1/29/2021 5:45:00 AM -99999.99 -179968 -99999.99 -99999.99 -99999.99 -99999.99
1/29/2021 6:00:00 AM -99999.99 -179968 -99999.99 -99999.99 -99999.99 -99999.99
1/29/2021 6:15:00 AM -99999.99 -179968 -99999.99 -99999.99 -99999.99 -99999.99
1/29/2021 6:30:00 AM -99999.99 -179968 -99999.99 -99999.99 -99999.99 -99999.99
1/29/2021 6:45:00 AM -99999.99 -179968 -99999.99 -99999.99 -99999.99 -99999.99
1/29/2021 7:00:00 AM -99999.99 -179968 -99999.99 -99999.99 -99999.99 -99999.99
1/29/2021 7:15:00 AM -99999.99 -179968 -99999.99 -99999.99 -99999.99 -99999.99
1/29/2021 7:30:00 AM -99999.99 -179968 -99999.99 -99999.99 -99999.99 -99999.99
1/29/2021 7:45:00 AM -99999.99 -179968 -99999.99 -99999.99 -99999.99 -99999.99
1/29/2021 8:00:00 AM -99999.99 -179968 -99999.99 -99999.99 -99999.99 -99999.99
1/29/2021 8:15:00 AM -99999.99 -179968 -99999.99 -99999.99 -99999.99 -99999.99
1/29/2021 8:30:00 AM -99999.99 -179968 -99999.99 -99999.99 -99999.99 -99999.99
1/29/2021 8:45:00 AM -99999.99 -179968 -99999.99 -99999.99 -99999.99 -99999.99
1/29/2021 9:00:00 AM -99999.99 -179968 -99999.99 -99999.99 -99999.99 -99999.99
1/29/2021 9:15:00 AM -99999.99 -179968 -99999.99 -99999.99 -99999.99 -99999.99
1/29/2021 9:30:00 AM -99999.99 -179968 -99999.99 -99999.99 -99999.99 -99999.99
1/29/2021 9:45:00 AM -99999.99 -179968 -99999.99 -99999.99 -99999.99 -99999.99
1/29/2021 10:00:00 AM -99999.99 -179968 -99999.99 -99999.99 -99999.99 -99999.99
1/29/2021 10:15:00 AM -99999.99 -179968 -99999.99 -99999.99 -99999.99 -99999.99
1/29/2021 10:30:00 AM -99999.99 -179968 -99999.99 -99999.99 -99999.99 -99999.99
1/29/2021 10:45:00 AM -99999.99 -179968 -99999.99 -99999.99 -99999.99 -99999.99
1/29/2021 11:00:00 AM -99999.99 -179968 -99999.99 -99999.99 -99999.99 -99999.99
1/29/2021 11:15:00 AM -99999.99 -179968 -99999.99 -99999.99 -99999.99 -99999.99
1/29/2021 11:30:00 AM -99999.99 -179968 -99999.99 -99999.99 -99999.99 -99999.99
1/29/2021 11:45:00 AM -99999.99 -179968 -99999.99 -99999.99 -99999.99 -99999.99
1/29/2021 12:00:00 PM -99999.99 -179968 -99999.99 -99999.99 -99999.99 -99999.99
1/29/2021 12:15:00 PM -99999.99 -179968 -99999.99 -99999.99 -99999.99 -99999.99
1/29/2021 12:30:00 PM -99999.99 -179968 -99999.99 -99999.99 -99999.99 -99999.99
1/29/2021 12:45:00 PM -99999.99 -179968 -99999.99 -99999.99 -99999.99 -99999.99
1/29/2021 1:00:00 PM -99999.99 -179968 -99999.99 -99999.99 -99999.99 -99999.99
1/29/2021 1:15:00 PM -99999.99 -179968 -99999.99 -99999.99 -99999.99 -99999.99
1/29/2021 1:30:00 PM -99999.99 -179968 -99999.99 -99999.99 -99999.99 -99999.99
1/29/2021 1:45:00 PM -99999.99 -179968 -99999.99 -99999.99 -99999.99 -99999.99
1/29/2021 2:00:00 PM -99999.99 -179968 -99999.99 -99999.99 -99999.99 -99999.99
1/29/2021 2:15:00 PM -99999.99 -179968 -99999.99 -99999.99 -99999.99 -99999.99
1/29/2021 2:30:00 PM -99999.99 -179968 -99999.99 -99999.99 -99999.99 -99999.99
1/29/2021 2:45:00 PM -99999.99 -179968 -99999.99 -99999.99 -99999.99 -99999.99
1/29/2021 3:00:00 PM -99999.99 -179968 -99999.99 -99999.99 -99999.99 -99999.99
1/29/2021 3:15:00 PM -99999.99 -179968 -99999.99 -99999.99 -99999.99 -99999.99
1/29/2021 3:30:00 PM -99999.99 -179968 -99999.99 -99999.99 -99999.99 -99999.99
1/29/2021 3:45:00 PM -99999.99 -179968 -99999.99 -99999.99 -99999.99 -99999.99
1/29/2021 4:00:00 PM -99999.99 -179968 -99999.99 -99999.99 -99999.99 -99999.99
1/29/2021 4:15:00 PM -99999.99 -179968 -99999.99 -99999.99 -99999.99 -99999.99
1/29/2021 4:30:00 PM -99999.99 -179968 -99999.99 -99999.99 -99999.99 -99999.99
1/29/2021 4:45:00 PM -99999.99 -179968 -99999.99 -99999.99 -99999.99 -99999.99
1/29/2021 5:00:00 PM -99999.99 -179968 -99999.99 -99999.99 -99999.99 -99999.99
1/29/2021 5:15:00 PM -99999.99 -179968 -99999.99 -99999.99 -99999.99 -99999.99
1/29/2021 5:30:00 PM -99999.99 -179968 -99999.99 -99999.99 -99999.99 -99999.99
1/29/2021 5:45:00 PM -99999.99 -179968 -99999.99 -99999.99 -99999.99 -99999.99
1/29/2021 6:00:00 PM -99999.99 -179968 -99999.99 -99999.99 -99999.99 -99999.99
1/29/2021 6:15:00 PM -99999.99 -179968 -99999.99 -99999.99 -99999.99 -99999.99
1/29/2021 6:30:00 PM -99999.99 -179968 -99999.99 -99999.99 -99999.99 -99999.99
1/29/2021 6:45:00 PM -99999.99 -179968 -99999.99 -99999.99 -99999.99 -99999.99
1/29/2021 7:00:00 PM -99999.99 -179968 -99999.99 -99999.99 -99999.99 -99999.99
1/29/2021 7:15:00 PM -99999.99 -179968 -99999.99 -99999.99 -99999.99 -99999.99
1/29/2021 7:30:00 PM -99999.99 -179968 -99999.99 -99999.99 -99999.99 -99999.99
1/29/2021 7:45:00 PM -99999.99 -179968 -99999.99 -99999.99 -99999.99 -99999.99
1/29/2021 8:00:00 PM -99999.99 -179968 -99999.99 -99999.99 -99999.99 -99999.99
1/29/2021 8:15:00 PM -99999.99 -179968 -99999.99 -99999.99 -99999.99 -99999.99
1/29/2021 8:30:00 PM -99999.99 -179968 -99999.99 -99999.99 -99999.99 -99999.99
1/29/2021 8:45:00 PM -99999.99 -179968 -99999.99 -99999.99 -99999.99 -99999.99
1/29/2021 9:00:00 PM -99999.99 -179968 -99999.99 -99999.99 -99999.99 -99999.99
1/29/2021 9:15:00 PM -99999.99 -179968 -99999.99 -99999.99 -99999.99 -99999.99
1/29/2021 9:30:00 PM -99999.99 -179968 -99999.99 -99999.99 -99999.99 -99999.99
1/29/2021 9:45:00 PM -99999.99 -179968 -99999.99 -99999.99 -99999.99 -99999.99
1/29/2021 10:00:00 PM -99999.99 -179968 -99999.99 -99999.99 -99999.99 -99999.99
1/29/2021 10:15:00 PM -99999.99 -179968 -99999.99 -99999.99 -99999.99 -99999.99
1/29/2021 10:30:00 PM -99999.99 -179968 -99999.99 -99999.99 -99999.99 -99999.99
1/29/2021 10:45:00 PM -99999.99 -179968 -99999.99 -99999.99 -99999.99 -99999.99
1/29/2021 11:00:00 PM -99999.99 -179968 -99999.99 -99999.99 -99999.99 -99999.99
1/29/2021 11:15:00 PM -99999.99 -179968 -99999.99 -99999.99 -99999.99 -99999.99
1/29/2021 11:30:00 PM -99999.99 -179968 -99999.99 -99999.99 -99999.99 -99999.99
1/29/2021 11:45:00 PM -99999.99 -179968 -99999.99 -99999.99 -99999.99 -99999.99
1/30/2021 12:00:00 AM -99999.99 -179968 -99999.99 -99999.99 -99999.99 -99999.99
1/30/2021 12:15:00 AM -99999.99 -179968 -99999.99 -99999.99 -99999.99 -99999.99
1/30/2021 12:30:00 AM -99999.99 -179968 -99999.99 -99999.99 -99999.99 -99999.99
1/30/2021 12:45:00 AM -99999.99 -179968 -99999.99 -99999.99 -99999.99 -99999.99
1/30/2021 1:00:00 AM -99999.99 -179968 -99999.99 -99999.99 -99999.99 -99999.99
1/30/2021 1:15:00 AM -99999.99 -179968 -99999.99 -99999.99 -99999.99 -99999.99
1/30/2021 1:30:00 AM -99999.99 -179968 -99999.99 -99999.99 -99999.99 -99999.99
1/30/2021 1:45:00 AM -99999.99 -179968 -99999.99 -99999.99 -99999.99 -99999.99
1/30/2021 2:00:00 AM -99999.99 -179968 -99999.99 -99999.99 -99999.99 -99999.99
1/30/2021 2:15:00 AM -99999.99 -179968 -99999.99 -99999.99 -99999.99 -99999.99
1/30/2021 2:30:00 AM -99999.99 -179968 -99999.99 -99999.99 -99999.99 -99999.99
1/30/2021 2:45:00 AM -99999.99 -179968 -99999.99 -99999.99 -99999.99 -99999.99
1/30/2021 3:00:00 AM -99999.99 -179968 -99999.99 -99999.99 -99999.99 -99999.99
1/30/2021 3:15:00 AM -99999.99 -179968 -99999.99 -99999.99 -99999.99 -99999.99
1/30/2021 3:30:00 AM -99999.99 -179968 -99999.99 -99999.99 -99999.99 -99999.99
1/30/2021 3:45:00 AM -99999.99 -179968 -99999.99 -99999.99 -99999.99 -99999.99
1/30/2021 4:00:00 AM -99999.99 -179968 -99999.99 -99999.99 -99999.99 -99999.99
1/30/2021 4:15:00 AM -99999.99 -179968 -99999.99 -99999.99 -99999.99 -99999.99
1/30/2021 4:30:00 AM -99999.99 -179968 -99999.99 -99999.99 -99999.99 -99999.99
1/30/2021 4:45:00 AM -99999.99 -179968 -99999.99 -99999.99 -99999.99 -99999.99
1/30/2021 5:00:00 AM -99999.99 -179968 -99999.99 -99999.99 -99999.99 -99999.99
1/30/2021 5:15:00 AM -99999.99 -179968 -99999.99 -99999.99 -99999.99 -99999.99
1/30/2021 5:30:00 AM -99999.99 -179968 -99999.99 -99999.99 -99999.99 -99999.99
1/30/2021 5:45:00 AM -99999.99 -179968 -99999.99 -99999.99 -99999.99 -99999.99
1/30/2021 6:00:00 AM -99999.99 -179968 -99999.99 -99999.99 -99999.99 -99999.99
1/30/2021 6:15:00 AM -99999.99 -179968 -99999.99 -99999.99 -99999.99 -99999.99
1/30/2021 6:30:00 AM -99999.99 -179968 -99999.99 -99999.99 -99999.99 -99999.99
1/30/2021 6:45:00 AM -99999.99 -179968 -99999.99 -99999.99 -99999.99 -99999.99
1/30/2021 7:00:00 AM -99999.99 -179968 -99999.99 -99999.99 -99999.99 -99999.99
1/30/2021 7:15:00 AM -99999.99 -179968 -99999.99 -99999.99 -99999.99 -99999.99
1/30/2021 7:30:00 AM -99999.99 -179968 -99999.99 -99999.99 -99999.99 -99999.99
1/30/2021 7:45:00 AM -99999.99 -179968 -99999.99 -99999.99 -99999.99 -99999.99
1/30/2021 8:00:00 AM -99999.99 -179968 -99999.99 -99999.99 -99999.99 -99999.99
1/30/2021 8:15:00 AM -99999.99 -179968 -99999.99 -99999.99 -99999.99 -99999.99
1/30/2021 8:30:00 AM -99999.99 -179968 -99999.99 -99999.99 -99999.99 -99999.99
1/30/2021 8:45:00 AM -99999.99 -179968 -99999.99 -99999.99 -99999.99 -99999.99
1/30/2021 9:00:00 AM -99999.99 -179968 -99999.99 -99999.99 -99999.99 -99999.99
1/30/2021 9:15:00 AM -99999.99 -179968 -99999.99 -99999.99 -99999.99 -99999.99
1/30/2021 9:30:00 AM -99999.99 -179968 -99999.99 -99999.99 -99999.99 -99999.99
1/30/2021 9:45:00 AM -99999.99 -179968 -99999.99 -99999.99 -99999.99 -99999.99
1/30/2021 10:00:00 AM -99999.99 -179968 -99999.99 -99999.99 -99999.99 -99999.99
1/30/2021 10:15:00 AM -99999.99 -179968 -99999.99 -99999.99 -99999.99 -99999.99
1/30/2021 10:30:00 AM -99999.99 -179968 -99999.99 -99999.99 -99999.99 -99999.99
1/30/2021 10:45:00 AM -99999.99 -179968 -99999.99 -99999.99 -99999.99 -99999.99
1/30/2021 11:00:00 AM -99999.99 -179968 -99999.99 -99999.99 -99999.99 -99999.99
1/30/2021 11:15:00 AM -99999.99 -179968 -99999.99 -99999.99 -99999.99 -99999.99
1/30/2021 11:30:00 AM -99999.99 -179968 -99999.99 -99999.99 -99999.99 -99999.99
1/30/2021 11:45:00 AM -99999.99 -179968 -99999.99 -99999.99 -99999.99 -99999.99
1/30/2021 12:00:00 PM -99999.99 -179968 -99999.99 -99999.99 -99999.99 -99999.99
1/30/2021 12:15:00 PM -99999.99 -179968 -99999.99 -99999.99 -99999.99 -99999.99
1/30/2021 12:30:00 PM -99999.99 -179968 -99999.99 -99999.99 -99999.99 -99999.99
1/30/2021 12:45:00 PM -99999.99 -179968 -99999.99 -99999.99 -99999.99 -99999.99
1/30/2021 1:00:00 PM -99999.99 -179968 -99999.99 -99999.99 -99999.99 -99999.99
1/30/2021 1:15:00 PM -99999.99 -179968 -99999.99 -99999.99 -99999.99 -99999.99
1/30/2021 1:30:00 PM -99999.99 -179968 -99999.99 -99999.99 -99999.99 -99999.99
1/30/2021 1:45:00 PM -99999.99 -179968 -99999.99 -99999.99 -99999.99 -99999.99
1/30/2021 2:00:00 PM -99999.99 -179968 -99999.99 -99999.99 -99999.99 -99999.99
1/30/2021 2:15:00 PM -99999.99 -179968 -99999.99 -99999.99 -99999.99 -99999.99
1/30/2021 2:30:00 PM -99999.99 -179968 -99999.99 -99999.99 -99999.99 -99999.99
1/30/2021 2:45:00 PM -99999.99 -179968 -99999.99 -99999.99 -99999.99 -99999.99
1/30/2021 3:00:00 PM -99999.99 -179968 -99999.99 -99999.99 -99999.99 -99999.99
1/30/2021 3:15:00 PM -99999.99 -179968 -99999.99 -99999.99 -99999.99 -99999.99
1/30/2021 3:30:00 PM -99999.99 -179968 -99999.99 -99999.99 -99999.99 -99999.99
1/30/2021 3:45:00 PM -99999.99 -179968 -99999.99 -99999.99 -99999.99 -99999.99
1/30/2021 4:00:00 PM -99999.99 -179968 -99999.99 -99999.99 -99999.99 -99999.99
1/30/2021 4:15:00 PM -99999.99 -179968 -99999.99 -99999.99 -99999.99 -99999.99
1/30/2021 4:30:00 PM -99999.99 -179968 -99999.99 -99999.99 -99999.99 -99999.99
1/30/2021 4:45:00 PM -99999.99 -179968 -99999.99 -99999.99 -99999.99 -99999.99
1/30/2021 5:00:00 PM -99999.99 -179968 -99999.99 -99999.99 -99999.99 -99999.99
1/30/2021 5:15:00 PM -99999.99 -179968 -99999.99 -99999.99 -99999.99 -99999.99
1/30/2021 5:30:00 PM -99999.99 -179968 -99999.99 -99999.99 -99999.99 -99999.99
1/30/2021 5:45:00 PM -99999.99 -179968 -99999.99 -99999.99 -99999.99 -99999.99
1/30/2021 6:00:00 PM -99999.99 -179968 -99999.99 -99999.99 -99999.99 -99999.99
1/30/2021 6:15:00 PM -99999.99 -179968 -99999.99 -99999.99 -99999.99 -99999.99
1/30/2021 6:30:00 PM -99999.99 -179968 -99999.99 -99999.99 -99999.99 -99999.99
1/30/2021 6:45:00 PM -99999.99 -179968 -99999.99 -99999.99 -99999.99 -99999.99
1/30/2021 7:00:00 PM -99999.99 -179968 -99999.99 -99999.99 -99999.99 -99999.99
1/30/2021 7:15:00 PM -99999.99 -179968 -99999.99 -99999.99 -99999.99 -99999.99
1/30/2021 7:30:00 PM -99999.99 -179968 -99999.99 -99999.99 -99999.99 -99999.99
1/30/2021 7:45:00 PM -99999.99 -179968 -99999.99 -99999.99 -99999.99 -99999.99
1/30/2021 8:00:00 PM -99999.99 -179968 -99999.99 -99999.99 -99999.99 -99999.99
1/30/2021 8:15:00 PM -99999.99 -179968 -99999.99 -99999.99 -99999.99 -99999.99
1/30/2021 8:30:00 PM -99999.99 -179968 -99999.99 -99999.99 -99999.99 -99999.99
1/30/2021 8:45:00 PM -99999.99 -179968 -99999.99 -99999.99 -99999.99 -99999.99
1/30/2021 9:00:00 PM -99999.99 -179968 -99999.99 -99999.99 -99999.99 -99999.99
1/30/2021 9:15:00 PM -99999.99 -179968 -99999.99 -99999.99 -99999.99 -99999.99
1/30/2021 9:30:00 PM -99999.99 -179968 -99999.99 -99999.99 -99999.99 -99999.99
1/30/2021 9:45:00 PM -99999.99 -179968 -99999.99 -99999.99 -99999.99 -99999.99
1/30/2021 10:00:00 PM -99999.99 -179968 -99999.99 -99999.99 -99999.99 -99999.99
1/30/2021 10:15:00 PM -99999.99 -179968 -99999.99 -99999.99 -99999.99 -99999.99
1/30/2021 10:30:00 PM -99999.99 -179968 -99999.99 -99999.99 -99999.99 -99999.99
1/30/2021 10:45:00 PM -99999.99 -179968 -99999.99 -99999.99 -99999.99 -99999.99
1/30/2021 11:00:00 PM -99999.99 -179968 -99999.99 -99999.99 -99999.99 -99999.99
1/30/2021 11:15:00 PM -99999.99 -179968 -99999.99 -99999.99 -99999.99 -99999.99
1/30/2021 11:30:00 PM -99999.99 -179968 -99999.99 -99999.99 -99999.99 -99999.99
1/30/2021 11:45:00 PM -99999.99 -179968 -99999.99 -99999.99 -99999.99 -99999.99
1/31/2021 12:00:00 AM -99999.99 -179968 -99999.99 -99999.99 -99999.99 -99999.99
1/31/2021 12:15:00 AM -99999.99 -179968 -99999.99 -99999.99 -99999.99 -99999.99
1/31/2021 12:30:00 AM -99999.99 -179968 -99999.99 -99999.99 -99999.99 -99999.99
1/31/2021 12:45:00 AM -99999.99 -179968 -99999.99 -99999.99 -99999.99 -99999.99
1/31/2021 1:00:00 AM -99999.99 -179968 -99999.99 -99999.99 -99999.99 -99999.99
1/31/2021 1:15:00 AM -99999.99 -179968 -99999.99 -99999.99 -99999.99 -99999.99
1/31/2021 1:30:00 AM -99999.99 -179968 -99999.99 -99999.99 -99999.99 -99999.99
1/31/2021 1:45:00 AM -99999.99 -179968 -99999.99 -99999.99 -99999.99 -99999.99
1/31/2021 2:00:00 AM -99999.99 -179968 -99999.99 -99999.99 -99999.99 -99999.99
1/31/2021 2:15:00 AM -99999.99 -179968 -99999.99 -99999.99 -99999.99 -99999.99
1/31/2021 2:30:00 AM -99999.99 -179968 -99999.99 -99999.99 -99999.99 -99999.99
1/31/2021 2:45:00 AM -99999.99 -179968 -99999.99 -99999.99 -99999.99 -99999.99
1/31/2021 3:00:00 AM -99999.99 -179968 -99999.99 -99999.99 -99999.99 -99999.99
1/31/2021 3:15:00 AM -99999.99 -179968 -99999.99 -99999.99 -99999.99 -99999.99
1/31/2021 3:30:00 AM -99999.99 -179968 -99999.99 -99999.99 -99999.99 -99999.99
1/31/2021 3:45:00 AM -99999.99 -179968 -99999.99 -99999.99 -99999.99 -99999.99
1/31/2021 4:00:00 AM -99999.99 -179968 -99999.99 -99999.99 -99999.99 -99999.99
1/31/2021 4:15:00 AM -99999.99 -179968 -99999.99 -99999.99 -99999.99 -99999.99
1/31/2021 4:30:00 AM -99999.99 -179968 -99999.99 -99999.99 -99999.99 -99999.99
1/31/2021 4:45:00 AM -99999.99 -179968 -99999.99 -99999.99 -99999.99 -99999.99
1/31/2021 5:00:00 AM -99999.99 -179968 -99999.99 -99999.99 -99999.99 -99999.99
1/31/2021 5:15:00 AM -99999.99 -179968 -99999.99 -99999.99 -99999.99 -99999.99
1/31/2021 5:30:00 AM -99999.99 -179968 -99999.99 -99999.99 -99999.99 -99999.99
1/31/2021 5:45:00 AM -99999.99 -179968 -99999.99 -99999.99 -99999.99 -99999.99
1/31/2021 6:00:00 AM -99999.99 -179968 -99999.99 -99999.99 -99999.99 -99999.99
1/31/2021 6:15:00 AM -99999.99 -179968 -99999.99 -99999.99 -99999.99 -99999.99
1/31/2021 6:30:00 AM -99999.99 -179968 -99999.99 -99999.99 -99999.99 -99999.99
1/31/2021 6:45:00 AM -99999.99 -179968 -99999.99 -99999.99 -99999.99 -99999.99
1/31/2021 7:00:00 AM -99999.99 -179968 -99999.99 -99999.99 -99999.99 -99999.99
1/31/2021 7:15:00 AM -99999.99 -179968 -99999.99 -99999.99 -99999.99 -99999.99
1/31/2021 7:30:00 AM -99999.99 -179968 -99999.99 -99999.99 -99999.99 -99999.99
1/31/2021 7:45:00 AM -99999.99 -179968 -99999.99 -99999.99 -99999.99 -99999.99
1/31/2021 8:00:00 AM -99999.99 -179968 -99999.99 -99999.99 -99999.99 -99999.99
1/31/2021 8:15:00 AM -99999.99 -179968 -99999.99 -99999.99 -99999.99 -99999.99
1/31/2021 8:30:00 AM -99999.99 -179968 -99999.99 -99999.99 -99999.99 -99999.99
1/31/2021 8:45:00 AM -99999.99 -179968 -99999.99 -99999.99 -99999.99 -99999.99
1/31/2021 9:00:00 AM -99999.99 -179968 -99999.99 -99999.99 -99999.99 -99999.99
1/31/2021 9:15:00 AM -99999.99 -179968 -99999.99 -99999.99 -99999.99 -99999.99
1/31/2021 9:30:00 AM -99999.99 -179968 -99999.99 -99999.99 -99999.99 -99999.99
1/31/2021 9:45:00 AM -99999.99 -179968 -99999.99 -99999.99 -99999.99 -99999.99
1/31/2021 10:00:00 AM -99999.99 -179968 -99999.99 -99999.99 -99999.99 -99999.99
1/31/2021 10:15:00 AM -99999.99 -179968 -99999.99 -99999.99 -99999.99 -99999.99
1/31/2021 10:30:00 AM -99999.99 -179968 -99999.99 -99999.99 -99999.99 -99999.99
1/31/2021 10:45:00 AM -99999.99 -179968 -99999.99 -99999.99 -99999.99 -99999.99
1/31/2021 11:00:00 AM -99999.99 -179968 -99999.99 -99999.99 -99999.99 -99999.99
1/31/2021 11:15:00 AM -99999.99 -179968 -99999.99 -99999.99 -99999.99 -99999.99
1/31/2021 11:30:00 AM -99999.99 -179968 -99999.99 -99999.99 -99999.99 -99999.99
1/31/2021 11:45:00 AM -99999.99 -179968 -99999.99 -99999.99 -99999.99 -99999.99
1/31/2021 12:00:00 PM -99999.99 -179968 -99999.99 -99999.99 -99999.99 -99999.99
1/31/2021 12:15:00 PM -99999.99 -179968 -99999.99 -99999.99 -99999.99 -99999.99
1/31/2021 12:30:00 PM -99999.99 -179968 -99999.99 -99999.99 -99999.99 -99999.99
1/31/2021 12:45:00 PM -99999.99 -179968 -99999.99 -99999.99 -99999.99 -99999.99
1/31/2021 1:00:00 PM -99999.99 -179968 -99999.99 -99999.99 -99999.99 -99999.99
1/31/2021 1:15:00 PM -99999.99 -179968 -99999.99 -99999.99 -99999.99 -99999.99
1/31/2021 1:30:00 PM -99999.99 -179968 -99999.99 -99999.99 -99999.99 -99999.99
1/31/2021 1:45:00 PM -99999.99 -179968 -99999.99 -99999.99 -99999.99 -99999.99
1/31/2021 2:00:00 PM -99999.99 -179968 -99999.99 -99999.99 -99999.99 -99999.99
1/31/2021 2:15:00 PM -99999.99 -179968 -99999.99 -99999.99 -99999.99 -99999.99
1/31/2021 2:30:00 PM -99999.99 -179968 -99999.99 -99999.99 -99999.99 -99999.99
1/31/2021 2:45:00 PM -99999.99 -179968 -99999.99 -99999.99 -99999.99 -99999.99
1/31/2021 3:00:00 PM -99999.99 -179968 -99999.99 -99999.99 -99999.99 -99999.99
1/31/2021 3:15:00 PM -99999.99 -179968 -99999.99 -99999.99 -99999.99 -99999.99
1/31/2021 3:30:00 PM -99999.99 -179968 -99999.99 -99999.99 -99999.99 -99999.99
1/31/2021 3:45:00 PM -99999.99 -179968 -99999.99 -99999.99 -99999.99 -99999.99
1/31/2021 4:00:00 PM -99999.99 -179968 -99999.99 -99999.99 -99999.99 -99999.99
1/31/2021 4:15:00 PM -99999.99 -179968 -99999.99 -99999.99 -99999.99 -99999.99
1/31/2021 4:30:00 PM -99999.99 -179968 -99999.99 -99999.99 -99999.99 -99999.99
1/31/2021 4:45:00 PM -99999.99 -179968 -99999.99 -99999.99 -99999.99 -99999.99
1/31/2021 5:00:00 PM -99999.99 -179968 -99999.99 -99999.99 -99999.99 -99999.99
1/31/2021 5:15:00 PM -99999.99 -179968 -99999.99 -99999.99 -99999.99 -99999.99
1/31/2021 5:30:00 PM -99999.99 -179968 -99999.99 -99999.99 -99999.99 -99999.99
1/31/2021 5:45:00 PM -99999.99 -179968 -99999.99 -99999.99 -99999.99 -99999.99
1/31/2021 6:00:00 PM -99999.99 -179968 -99999.99 -99999.99 -99999.99 -99999.99
1/31/2021 6:15:00 PM -99999.99 -179968 -99999.99 -99999.99 -99999.99 -99999.99
1/31/2021 6:30:00 PM -99999.99 -179968 -99999.99 -99999.99 -99999.99 -99999.99
1/31/2021 6:45:00 PM -99999.99 -179968 -99999.99 -99999.99 -99999.99 -99999.99
1/31/2021 7:00:00 PM -99999.99 -179968 -99999.99 -99999.99 -99999.99 -99999.99
1/31/2021 7:15:00 PM -99999.99 -179968 -99999.99 -99999.99 -99999.99 -99999.99
1/31/2021 7:30:00 PM -99999.99 -179968 -99999.99 -99999.99 -99999.99 -99999.99
1/31/2021 7:45:00 PM -99999.99 -179968 -99999.99 -99999.99 -99999.99 -99999.99
1/31/2021 8:00:00 PM -99999.99 -179968 -99999.99 -99999.99 -99999.99 -99999.99
1/31/2021 8:15:00 PM -99999.99 -179968 -99999.99 -99999.99 -99999.99 -99999.99
1/31/2021 8:30:00 PM -99999.99 -179968 -99999.99 -99999.99 -99999.99 -99999.99
1/31/2021 8:45:00 PM -99999.99 -179968 -99999.99 -99999.99 -99999.99 -99999.99
1/31/2021 9:00:00 PM -99999.99 -179968 -99999.99 -99999.99 -99999.99 -99999.99
1/31/2021 9:15:00 PM -99999.99 -179968 -99999.99 -99999.99 -99999.99 -99999.99
1/31/2021 9:30:00 PM -99999.99 -179968 -99999.99 -99999.99 -99999.99 -99999.99
1/31/2021 9:45:00 PM -99999.99 -179968 -99999.99 -99999.99 -99999.99 -99999.99
1/31/2021 10:00:00 PM -99999.99 -179968 -99999.99 -99999.99 -99999.99 -99999.99
1/31/2021 10:15:00 PM -99999.99 -179968 -99999.99 -99999.99 -99999.99 -99999.99
1/31/2021 10:30:00 PM -99999.99 -179968 -99999.99 -99999.99 -99999.99 -99999.99
1/31/2021 10:45:00 PM -99999.99 -179968 -99999.99 -99999.99 -99999.99 -99999.99
1/31/2021 11:00:00 PM -99999.99 -179968 -99999.99 -99999.99 -99999.99 -99999.99
1/31/2021 11:15:00 PM -99999.99 -179968 -99999.99 -99999.99 -99999.99 -99999.99
1/31/2021 11:30:00 PM -99999.99 -179968 -99999.99 -99999.99 -99999.99 -99999.99
1/31/2021 11:45:00 PM -99999.99 -179968 -99999.99 -99999.99 -99999.99 -99999.99
2/1/2021 12:00:00 AM -99999.99 -179968 -99999.99 -99999.99 -99999.99 -99999.99
2/1/2021 12:15:00 AM -99999.99 -179968 -99999.99 -99999.99 -99999.99 -99999.99
2/1/2021 12:30:00 AM -99999.99 -179968 -99999.99 -99999.99 -99999.99 -99999.99
2/1/2021 12:45:00 AM -99999.99 -179968 -99999.99 -99999.99 -99999.99 -99999.99
2/1/2021 1:00:00 AM -99999.99 -179968 -99999.99 -99999.99 -99999.99 -99999.99
2/1/2021 1:15:00 AM -99999.99 -179968 -99999.99 -99999.99 -99999.99 -99999.99
2/1/2021 1:30:00 AM -99999.99 -179968 -99999.99 -99999.99 -99999.99 -99999.99
2/1/2021 1:45:00 AM -99999.99 -179968 -99999.99 -99999.99 -99999.99 -99999.99
2/1/2021 2:00:00 AM -99999.99 -179968 -99999.99 -99999.99 -99999.99 -99999.99
2/1/2021 2:15:00 AM -99999.99 -179968 -99999.99 -99999.99 -99999.99 -99999.99
2/1/2021 2:30:00 AM -99999.99 -179968 -99999.99 -99999.99 -99999.99 -99999.99
2/1/2021 2:45:00 AM -99999.99 -179968 -99999.99 -99999.99 -99999.99 -99999.99
2/1/2021 3:00:00 AM -99999.99 -179968 -99999.99 -99999.99 -99999.99 -99999.99
2/1/2021 3:15:00 AM -99999.99 -179968 -99999.99 -99999.99 -99999.99 -99999.99
2/1/2021 3:30:00 AM -99999.99 -179968 -99999.99 -99999.99 -99999.99 -99999.99
2/1/2021 3:45:00 AM -99999.99 -179968 -99999.99 -99999.99 -99999.99 -99999.99
2/1/2021 4:00:00 AM -99999.99 -179968 -99999.99 -99999.99 -99999.99 -99999.99
2/1/2021 4:15:00 AM -99999.99 -179968 -99999.99 -99999.99 -99999.99 -99999.99
2/1/2021 4:30:00 AM -99999.99 -179968 -99999.99 -99999.99 -99999.99 -99999.99
2/1/2021 4:45:00 AM -99999.99 -179968 -99999.99 -99999.99 -99999.99 -99999.99
2/1/2021 5:00:00 AM -99999.99 -179968 -99999.99 -99999.99 -99999.99 -99999.99
2/1/2021 5:15:00 AM -99999.99 -179968 -99999.99 -99999.99 -99999.99 -99999.99
2/1/2021 5:30:00 AM -99999.99 -179968 -99999.99 -99999.99 -99999.99 -99999.99
2/1/2021 5:45:00 AM -99999.99 -179968 -99999.99 -99999.99 -99999.99 -99999.99
2/1/2021 6:00:00 AM -99999.99 -179968 -99999.99 -99999.99 -99999.99 -99999.99
2/1/2021 6:15:00 AM -99999.99 -179968 -99999.99 -99999.99 -99999.99 -99999.99
2/1/2021 6:30:00 AM -99999.99 -179968 -99999.99 -99999.99 -99999.99 -99999.99
2/1/2021 6:45:00 AM -99999.99 -179968 -99999.99 -99999.99 -99999.99 -99999.99
2/1/2021 7:00:00 AM -99999.99 -179968 -99999.99 -99999.99 -99999.99 -99999.99
2/1/2021 7:15:00 AM -99999.99 -179968 -99999.99 -99999.99 -99999.99 -99999.99
2/1/2021 7:30:00 AM -99999.99 -179968 -99999.99 -99999.99 -99999.99 -99999.99
2/1/2021 7:45:00 AM -99999.99 -179968 -99999.99 -99999.99 -99999.99 -99999.99
2/1/2021 8:00:00 AM -99999.99 -179968 -99999.99 -99999.99 -99999.99 -99999.99
2/1/2021 8:15:00 AM -99999.99 -179968 -99999.99 -99999.99 -99999.99 -99999.99
2/1/2021 8:30:00 AM -99999.99 -179968 -99999.99 -99999.99 -99999.99 -99999.99
2/1/2021 8:45:00 AM -99999.99 -179968 -99999.99 -99999.99 -99999.99 -99999.99
2/1/2021 9:00:00 AM -99999.99 -179968 -99999.99 -99999.99 -99999.99 -99999.99
2/1/2021 9:15:00 AM -99999.99 -179968 -99999.99 -99999.99 -99999.99 -99999.99
2/1/2021 9:30:00 AM -99999.99 -179968 -99999.99 -99999.99 -99999.99 -99999.99
2/1/2021 9:45:00 AM -99999.99 -179968 -99999.99 -99999.99 -99999.99 -99999.99
2/1/2021 10:00:00 AM -99999.99 -179968 -99999.99 -99999.99 -99999.99 -99999.99
2/1/2021 10:15:00 AM -99999.99 -179968 -99999.99 -99999.99 -99999.99 -99999.99
2/1/2021 10:30:00 AM -99999.99 -179968 -99999.99 -99999.99 -99999.99 -99999.99
2/1/2021 10:45:00 AM -99999.99 -179968 -99999.99 -99999.99 -99999.99 -99999.99
2/1/2021 11:00:00 AM -99999.99 -179968 -99999.99 -99999.99 -99999.99 -99999.99
2/1/2021 11:15:00 AM -99999.99 -179968 -99999.99 -99999.99 -99999.99 -99999.99
2/1/2021 11:30:00 AM -99999.99 -179968 -99999.99 -99999.99 -99999.99 -99999.99
2/1/2021 11:45:00 AM -99999.99 -179968 -99999.99 -99999.99 -99999.99 -99999.99
2/1/2021 12:00:00 PM -99999.99 -179968 -99999.99 -99999.99 -99999.99 -99999.99
2/1/2021 12:15:00 PM -99999.99 -179968 -99999.99 -99999.99 -99999.99 -99999.99
2/1/2021 12:30:00 PM -99999.99 -179968 -99999.99 -99999.99 -99999.99 -99999.99
2/1/2021 12:45:00 PM -99999.99 -179968 -99999.99 -99999.99 -99999.99 -99999.99
2/1/2021 1:00:00 PM -99999.99 -179968 -99999.99 -99999.99 -99999.99 -99999.99
2/1/2021 1:15:00 PM -99999.99 -179968 -99999.99 -99999.99 -99999.99 -99999.99
2/1/2021 1:30:00 PM -99999.99 -179968 -99999.99 -99999.99 -99999.99 -99999.99
2/1/2021 1:45:00 PM -99999.99 -179968 -99999.99 -99999.99 -99999.99 -99999.99
2/1/2021 2:00:00 PM -99999.99 -179968 -99999.99 -99999.99 -99999.99 -99999.99
2/1/2021 2:15:00 PM -99999.99 -179968 -99999.99 -99999.99 -99999.99 -99999.99
2/1/2021 2:30:00 PM -99999.99 -179968 -99999.99 -99999.99 -99999.99 -99999.99
2/1/2021 2:45:00 PM -99999.99 -179968 -99999.99 -99999.99 -99999.99 -99999.99
2/1/2021 3:00:00 PM -99999.99 -179968 -99999.99 -99999.99 -99999.99 -99999.99
2/1/2021 3:15:00 PM -99999.99 -179968 -99999.99 -99999.99 -99999.99 -99999.99
2/1/2021 3:30:00 PM -99999.99 -179968 -99999.99 -99999.99 -99999.99 -99999.99
2/1/2021 3:45:00 PM -99999.99 -179968 -99999.99 -99999.99 -99999.99 -99999.99
2/1/2021 4:00:00 PM -99999.99 -179968 -99999.99 -99999.99 -99999.99 -99999.99
2/1/2021 4:15:00 PM -99999.99 -179968 -99999.99 -99999.99 -99999.99 -99999.99
2/1/2021 4:30:00 PM -99999.99 -179968 -99999.99 -99999.99 -99999.99 -99999.99
2/1/2021 4:45:00 PM -99999.99 -179968 -99999.99 -99999.99 -99999.99 -99999.99
2/1/2021 5:00:00 PM -99999.99 -179968 -99999.99 -99999.99 -99999.99 -99999.99
2/1/2021 5:15:00 PM -99999.99 -179968 -99999.99 -99999.99 -99999.99 -99999.99
2/1/2021 5:30:00 PM -99999.99 -179968 -99999.99 -99999.99 -99999.99 -99999.99
2/1/2021 5:45:00 PM -99999.99 -179968 -99999.99 -99999.99 -99999.99 -99999.99
2/1/2021 6:00:00 PM -99999.99 -179968 -99999.99 -99999.99 -99999.99 -99999.99
2/1/2021 6:15:00 PM -99999.99 -179968 -99999.99 -99999.99 -99999.99 -99999.99
2/1/2021 6:30:00 PM -99999.99 -179968 -99999.99 -99999.99 -99999.99 -99999.99
2/1/2021 6:45:00 PM -99999.99 -179968 -99999.99 -99999.99 -99999.99 -99999.99
2/1/2021 7:00:00 PM -99999.99 -179968 -99999.99 -99999.99 -99999.99 -99999.99
2/1/2021 7:15:00 PM -99999.99 -179968 -99999.99 -99999.99 -99999.99 -99999.99
2/1/2021 7:30:00 PM -99999.99 -179968 -99999.99 -99999.99 -99999.99 -99999.99
2/1/2021 7:45:00 PM -99999.99 -179968 -99999.99 -99999.99 -99999.99 -99999.99
2/1/2021 8:00:00 PM -99999.99 -179968 -99999.99 -99999.99 -99999.99 -99999.99
2/1/2021 8:15:00 PM -99999.99 -179968 -99999.99 -99999.99 -99999.99 -99999.99
2/1/2021 8:30:00 PM -99999.99 -179968 -99999.99 -99999.99 -99999.99 -99999.99
2/1/2021 8:45:00 PM -99999.99 -179968 -99999.99 -99999.99 -99999.99 -99999.99
2/1/2021 9:00:00 PM -99999.99 -179968 -99999.99 -99999.99 -99999.99 -99999.99
2/1/2021 9:15:00 PM -99999.99 -179968 -99999.99 -99999.99 -99999.99 -99999.99
2/1/2021 9:30:00 PM -99999.99 -179968 -99999.99 -99999.99 -99999.99 -99999.99
2/1/2021 9:45:00 PM -99999.99 -179968 -99999.99 -99999.99 -99999.99 -99999.99
2/1/2021 10:00:00 PM -99999.99 -179968 -99999.99 -99999.99 -99999.99 -99999.99
2/1/2021 10:15:00 PM -99999.99 -179968 -99999.99 -99999.99 -99999.99 -99999.99
2/1/2021 10:30:00 PM -99999.99 -179968 -99999.99 -99999.99 -99999.99 -99999.99
2/1/2021 10:45:00 PM -99999.99 -179968 -99999.99 -99999.99 -99999.99 -99999.99
2/1/2021 11:00:00 PM -99999.99 -179968 -99999.99 -99999.99 -99999.99 -99999.99
2/1/2021 11:15:00 PM -99999.99 -179968 -99999.99 -99999.99 -99999.99 -99999.99
2/1/2021 11:30:00 PM -99999.99 -179968 -99999.99 -99999.99 -99999.99 -99999.99
2/1/2021 11:45:00 PM -99999.99 -179968 -99999.99 -99999.99 -99999.99 -99999.99
2/2/2021 12:00:00 AM -99999.99 -179968 -99999.99 -99999.99 -99999.99 -99999.99
2/2/2021 12:15:00 AM -99999.99 -179968 -99999.99 -99999.99 -99999.99 -99999.99
2/2/2021 12:30:00 AM -99999.99 -179968 -99999.99 -99999.99 -99999.99 -99999.99
2/2/2021 12:45:00 AM -99999.99 -179968 -99999.99 -99999.99 -99999.99 -99999.99
2/2/2021 1:00:00 AM -99999.99 -179968 -99999.99 -99999.99 -99999.99 -99999.99
2/2/2021 1:15:00 AM -99999.99 -179968 -99999.99 -99999.99 -99999.99 -99999.99
2/2/2021 1:30:00 AM -99999.99 -179968 -99999.99 -99999.99 -99999.99 -99999.99
2/2/2021 1:45:00 AM -99999.99 -179968 -99999.99 -99999.99 -99999.99 -99999.99
2/2/2021 2:00:00 AM -99999.99 -179968 -99999.99 -99999.99 -99999.99 -99999.99
2/2/2021 2:15:00 AM -99999.99 -179968 -99999.99 -99999.99 -99999.99 -99999.99
2/2/2021 2:30:00 AM -99999.99 -179968 -99999.99 -99999.99 -99999.99 -99999.99
2/2/2021 2:45:00 AM -99999.99 -179968 -99999.99 -99999.99 -99999.99 -99999.99
2/2/2021 3:00:00 AM -99999.99 -179968 -99999.99 -99999.99 -99999.99 -99999.99
2/2/2021 3:15:00 AM -99999.99 -179968 -99999.99 -99999.99 -99999.99 -99999.99
2/2/2021 3:30:00 AM -99999.99 -179968 -99999.99 -99999.99 -99999.99 -99999.99
2/2/2021 3:45:00 AM -99999.99 -179968 -99999.99 -99999.99 -99999.99 -99999.99
2/2/2021 4:00:00 AM -99999.99 -179968 -99999.99 -99999.99 -99999.99 -99999.99
2/2/2021 4:15:00 AM -99999.99 -179968 -99999.99 -99999.99 -99999.99 -99999.99
2/2/2021 4:30:00 AM -99999.99 -179968 -99999.99 -99999.99 -99999.99 -99999.99
2/2/2021 4:45:00 AM -99999.99 -179968 -99999.99 -99999.99 -99999.99 -99999.99
2/2/2021 5:00:00 AM -99999.99 -179968 -99999.99 -99999.99 -99999.99 -99999.99
2/2/2021 5:15:00 AM -99999.99 -179968 -99999.99 -99999.99 -99999.99 -99999.99
2/2/2021 5:30:00 AM -99999.99 -179968 -99999.99 -99999.99 -99999.99 -99999.99
2/2/2021 5:45:00 AM -99999.99 -179968 -99999.99 -99999.99 -99999.99 -99999.99
2/2/2021 6:00:00 AM -99999.99 -179968 -99999.99 -99999.99 -99999.99 -99999.99
2/2/2021 6:15:00 AM -99999.99 -179968 -99999.99 -99999.99 -99999.99 -99999.99
2/2/2021 6:30:00 AM -99999.99 -179968 -99999.99 -99999.99 -99999.99 -99999.99
2/2/2021 6:45:00 AM -99999.99 -179968 -99999.99 -99999.99 -99999.99 -99999.99
2/2/2021 7:00:00 AM -99999.99 -179968 -99999.99 -99999.99 -99999.99 -99999.99
2/2/2021 7:15:00 AM -99999.99 -179968 -99999.99 -99999.99 -99999.99 -99999.99
2/2/2021 7:30:00 AM -99999.99 -179968 -99999.99 -99999.99 -99999.99 -99999.99
2/2/2021 7:45:00 AM -99999.99 -179968 -99999.99 -99999.99 -99999.99 -99999.99
2/2/2021 8:00:00 AM -99999.99 -179968 -99999.99 -99999.99 -99999.99 -99999.99
2/2/2021 8:15:00 AM -99999.99 -179968 -99999.99 -99999.99 -99999.99 -99999.99
2/2/2021 8:30:00 AM -99999.99 -179968 -99999.99 -99999.99 -99999.99 -99999.99
2/2/2021 8:45:00 AM -99999.99 -179968 -99999.99 -99999.99 -99999.99 -99999.99
2/2/2021 9:00:00 AM -99999.99 -179968 -99999.99 -99999.99 -99999.99 -99999.99
2/2/2021 9:15:00 AM -99999.99 -179968 -99999.99 -99999.99 -99999.99 -99999.99
2/2/2021 9:30:00 AM -99999.99 -179968 -99999.99 -99999.99 -99999.99 -99999.99
2/2/2021 9:45:00 AM -99999.99 -179968 -99999.99 -99999.99 -99999.99 -99999.99
2/2/2021 10:00:00 AM -99999.99 -179968 -99999.99 -99999.99 -99999.99 -99999.99
2/2/2021 10:15:00 AM -99999.99 -179968 -99999.99 -99999.99 -99999.99 -99999.99
2/2/2021 10:30:00 AM -99999.99 -179968 -99999.99 -99999.99 -99999.99 -99999.99
2/2/2021 10:45:00 AM -99999.99 -179968 -99999.99 -99999.99 -99999.99 -99999.99
2/2/2021 11:00:00 AM -99999.99 -179968 -99999.99 -99999.99 -99999.99 -99999.99
2/2/2021 11:15:00 AM -99999.99 -179968 -99999.99 -99999.99 -99999.99 -99999.99
2/2/2021 11:30:00 AM -99999.99 -179968 -99999.99 -99999.99 -99999.99 -99999.99
2/2/2021 11:45:00 AM -99999.99 -179968 -99999.99 -99999.99 -99999.99 -99999.99
2/2/2021 12:00:00 PM -99999.99 -179968 -99999.99 -99999.99 -99999.99 -99999.99
2/2/2021 12:15:00 PM -99999.99 -179968 -99999.99 -99999.99 -99999.99 -99999.99
2/2/2021 12:30:00 PM -99999.99 -179968 -99999.99 -99999.99 -99999.99 -99999.99
2/2/2021 12:45:00 PM -99999.99 -179968 -99999.99 -99999.99 -99999.99 -99999.99
2/2/2021 1:00:00 PM -99999.99 -179968 -99999.99 -99999.99 -99999.99 -99999.99
2/2/2021 1:15:00 PM -99999.99 -179968 -99999.99 -99999.99 -99999.99 -99999.99
2/2/2021 1:30:00 PM -99999.99 -179968 -99999.99 -99999.99 -99999.99 -99999.99
2/2/2021 1:45:00 PM -99999.99 -179968 -99999.99 -99999.99 -99999.99 -99999.99
2/2/2021 2:00:00 PM -99999.99 -179968 -99999.99 -99999.99 -99999.99 -99999.99
2/2/2021 2:15:00 PM -99999.99 -179968 -99999.99 -99999.99 -99999.99 -99999.99
2/2/2021 2:30:00 PM -99999.99 -179968 -99999.99 -99999.99 -99999.99 -99999.99
2/2/2021 2:45:00 PM -99999.99 -179968 -99999.99 -99999.99 -99999.99 -99999.99
2/2/2021 3:00:00 PM -99999.99 -179968 -99999.99 -99999.99 -99999.99 -99999.99
2/2/2021 3:15:00 PM -99999.99 -179968 -99999.99 -99999.99 -99999.99 -99999.99
2/2/2021 3:30:00 PM -99999.99 -179968 -99999.99 -99999.99 -99999.99 -99999.99
2/2/2021 3:45:00 PM -99999.99 -179968 -99999.99 -99999.99 -99999.99 -99999.99
2/2/2021 4:00:00 PM -99999.99 -179968 -99999.99 -99999.99 -99999.99 -99999.99
2/2/2021 4:15:00 PM -99999.99 -179968 -99999.99 -99999.99 -99999.99 -99999.99
2/2/2021 4:30:00 PM -99999.99 -179968 -99999.99 -99999.99 -99999.99 -99999.99
2/2/2021 4:45:00 PM -99999.99 -179968 -99999.99 -99999.99 -99999.99 -99999.99
2/2/2021 5:00:00 PM -99999.99 -179968 -99999.99 -99999.99 -99999.99 -99999.99
2/2/2021 5:15:00 PM -99999.99 -179968 -99999.99 -99999.99 -99999.99 -99999.99
2/2/2021 5:30:00 PM -99999.99 -179968 -99999.99 -99999.99 -99999.99 -99999.99
2/2/2021 5:45:00 PM -99999.99 -179968 -99999.99 -99999.99 -99999.99 -99999.99
2/2/2021 6:00:00 PM -99999.99 -179968 -99999.99 -99999.99 -99999.99 -99999.99
2/2/2021 6:15:00 PM -99999.99 -179968 -99999.99 -99999.99 -99999.99 -99999.99
2/2/2021 6:30:00 PM -99999.99 -179968 -99999.99 -99999.99 -99999.99 -99999.99
2/2/2021 6:45:00 PM -99999.99 -179968 -99999.99 -99999.99 -99999.99 -99999.99
2/2/2021 7:00:00 PM -99999.99 -179968 -99999.99 -99999.99 -99999.99 -99999.99
2/2/2021 7:15:00 PM -99999.99 -179968 -99999.99 -99999.99 -99999.99 -99999.99
2/2/2021 7:30:00 PM -99999.99 -179968 -99999.99 -99999.99 -99999.99 -99999.99
2/2/2021 7:45:00 PM -99999.99 -179968 -99999.99 -99999.99 -99999.99 -99999.99
2/2/2021 8:00:00 PM -99999.99 -179968 -99999.99 -99999.99 -99999.99 -99999.99
2/2/2021 8:15:00 PM -99999.99 -179968 -99999.99 -99999.99 -99999.99 -99999.99
2/2/2021 8:30:00 PM -99999.99 -179968 -99999.99 -99999.99 -99999.99 -99999.99
2/2/2021 8:45:00 PM -99999.99 -179968 -99999.99 -99999.99 -99999.99 -99999.99
2/2/2021 9:00:00 PM -99999.99 -179968 -99999.99 -99999.99 -99999.99 -99999.99
2/2/2021 9:15:00 PM -99999.99 -179968 -99999.99 -99999.99 -99999.99 -99999.99
2/2/2021 9:30:00 PM -99999.99 -179968 -99999.99 -99999.99 -99999.99 -99999.99
2/2/2021 9:45:00 PM -99999.99 -179968 -99999.99 -99999.99 -99999.99 -99999.99
2/2/2021 10:00:00 PM -99999.99 -179968 -99999.99 -99999.99 -99999.99 -99999.99
2/2/2021 10:15:00 PM -99999.99 -179968 -99999.99 -99999.99 -99999.99 -99999.99
2/2/2021 10:30:00 PM -99999.99 -179968 -99999.99 -99999.99 -99999.99 -99999.99
2/2/2021 10:45:00 PM -99999.99 -179968 -99999.99 -99999.99 -99999.99 -99999.99
2/2/2021 11:00:00 PM -99999.99 -179968 -99999.99 -99999.99 -99999.99 -99999.99
2/2/2021 11:15:00 PM -99999.99 -179968 -99999.99 -99999.99 -99999.99 -99999.99
2/2/2021 11:30:00 PM -99999.99 -179968 -99999.99 -99999.99 -99999.99 -99999.99
2/2/2021 11:45:00 PM -99999.99 -179968 -99999.99 -99999.99 -99999.99 -99999.99
2/3/2021 12:00:00 AM -99999.99 -179968 -99999.99 -99999.99 -99999.99 -99999.99
2/3/2021 12:15:00 AM -99999.99 -179968 -99999.99 -99999.99 -99999.99 -99999.99
2/3/2021 12:30:00 AM -99999.99 -179968 -99999.99 -99999.99 -99999.99 -99999.99
2/3/2021 12:45:00 AM -99999.99 -179968 -99999.99 -99999.99 -99999.99 -99999.99
2/3/2021 1:00:00 AM -99999.99 -179968 -99999.99 -99999.99 -99999.99 -99999.99
2/3/2021 1:15:00 AM -99999.99 -179968 -99999.99 -99999.99 -99999.99 -99999.99
2/3/2021 1:30:00 AM -99999.99 -179968 -99999.99 -99999.99 -99999.99 -99999.99
2/3/2021 1:45:00 AM -99999.99 -179968 -99999.99 -99999.99 -99999.99 -99999.99
2/3/2021 2:00:00 AM -99999.99 -179968 -99999.99 -99999.99 -99999.99 -99999.99
2/3/2021 2:15:00 AM -99999.99 -179968 -99999.99 -99999.99 -99999.99 -99999.99
2/3/2021 2:30:00 AM -99999.99 -179968 -99999.99 -99999.99 -99999.99 -99999.99
2/3/2021 2:45:00 AM -99999.99 -179968 -99999.99 -99999.99 -99999.99 -99999.99
2/3/2021 3:00:00 AM -99999.99 -179968 -99999.99 -99999.99 -99999.99 -99999.99
2/3/2021 3:15:00 AM -99999.99 -179968 -99999.99 -99999.99 -99999.99 -99999.99
2/3/2021 3:30:00 AM -99999.99 -179968 -99999.99 -99999.99 -99999.99 -99999.99
2/3/2021 3:45:00 AM -99999.99 -179968 -99999.99 -99999.99 -99999.99 -99999.99
2/3/2021 4:00:00 AM -99999.99 -179968 -99999.99 -99999.99 -99999.99 -99999.99
2/3/2021 4:15:00 AM -99999.99 -179968 -99999.99 -99999.99 -99999.99 -99999.99
2/3/2021 4:30:00 AM -99999.99 -179968 -99999.99 -99999.99 -99999.99 -99999.99
2/3/2021 4:45:00 AM -99999.99 -179968 -99999.99 -99999.99 -99999.99 -99999.99
2/3/2021 5:00:00 AM -99999.99 -179968 -99999.99 -99999.99 -99999.99 -99999.99
2/3/2021 5:15:00 AM -99999.99 -179968 -99999.99 -99999.99 -99999.99 -99999.99
2/3/2021 5:30:00 AM -99999.99 -179968 -99999.99 -99999.99 -99999.99 -99999.99
2/3/2021 5:45:00 AM -99999.99 -179968 -99999.99 -99999.99 -99999.99 -99999.99
2/3/2021 6:00:00 AM -99999.99 -179968 -99999.99 -99999.99 -99999.99 -99999.99
2/3/2021 6:15:00 AM -99999.99 -179968 -99999.99 -99999.99 -99999.99 -99999.99
2/3/2021 6:30:00 AM -99999.99 -179968 -99999.99 -99999.99 -99999.99 -99999.99
2/3/2021 6:45:00 AM -99999.99 -179968 -99999.99 -99999.99 -99999.99 -99999.99
2/3/2021 7:00:00 AM -99999.99 -179968 -99999.99 -99999.99 -99999.99 -99999.99
2/3/2021 7:15:00 AM -99999.99 -179968 -99999.99 -99999.99 -99999.99 -99999.99
2/3/2021 7:30:00 AM -99999.99 -179968 -99999.99 -99999.99 -99999.99 -99999.99
2/3/2021 7:45:00 AM -99999.99 -179968 -99999.99 -99999.99 -99999.99 -99999.99
2/3/2021 8:00:00 AM -99999.99 -179968 -99999.99 -99999.99 -99999.99 -99999.99
2/3/2021 8:15:00 AM -99999.99 -179968 -99999.99 -99999.99 -99999.99 -99999.99
2/3/2021 8:30:00 AM -99999.99 -179968 -99999.99 -99999.99 -99999.99 -99999.99
2/3/2021 8:45:00 AM -99999.99 -179968 -99999.99 -99999.99 -99999.99 -99999.99
2/3/2021 9:00:00 AM -99999.99 -179968 -99999.99 -99999.99 -99999.99 -99999.99
2/3/2021 9:15:00 AM -99999.99 -179968 -99999.99 -99999.99 -99999.99 -99999.99
2/3/2021 9:30:00 AM -99999.99 -179968 -99999.99 -99999.99 -99999.99 -99999.99
2/3/2021 9:45:00 AM -99999.99 -179968 -99999.99 -99999.99 -99999.99 -99999.99
2/3/2021 10:00:00 AM -99999.99 -179968 -99999.99 -99999.99 -99999.99 -99999.99
2/3/2021 10:15:00 AM -99999.99 -179968 -99999.99 -99999.99 -99999.99 -99999.99
2/3/2021 10:30:00 AM -99999.99 -179968 -99999.99 -99999.99 -99999.99 -99999.99
2/3/2021 10:45:00 AM -99999.99 -179968 -99999.99 -99999.99 -99999.99 -99999.99
2/3/2021 11:00:00 AM -99999.99 -179968 -99999.99 -99999.99 -99999.99 -99999.99
2/3/2021 11:15:00 AM -99999.99 -179968 -99999.99 -99999.99 -99999.99 -99999.99
2/3/2021 11:30:00 AM -99999.99 -179968 -99999.99 -99999.99 -99999.99 -99999.99
2/3/2021 11:45:00 AM 0.64 33.152 0.146 13.96 2.15 13.69
2/3/2021 12:00:00 PM 0.79 33.422 0.147 6.85 2.24 13.55
2/3/2021 12:15:00 PM 0.84 33.512 0.147 6.8 2.26 13.53
2/3/2021 12:30:00 PM 0.87 33.566 0.146 6.77 2.23 13.51
2/3/2021 12:45:00 PM 0.92 33.656 0.146 6.75 2.21 13.5
2/3/2021 1:00:00 PM 0.99 33.782 0.146 6.71 2.23 13.47
2/3/2021 1:15:00 PM 1.06 33.908 0.146 6.7 2.17 13.44
2/3/2021 1:30:00 PM 1.12 34.016 0.146 6.69 2.22 13.41
2/3/2021 1:45:00 PM 1.18 34.124 0.146 6.68 2.22 13.38
2/3/2021 2:00:00 PM 1.24 34.232 0.146 6.68 2.18 13.36
2/3/2021 2:15:00 PM 1.26 34.268 0.145 6.68 2.2 13.36
2/3/2021 2:30:00 PM 1.27 34.286 0.145 6.68 2.23 13.35
2/3/2021 2:45:00 PM 1.29 34.322 0.145 6.68 2.24 13.34
2/3/2021 3:00:00 PM 1.31 34.358 0.145 6.68 2.22 13.33
2/3/2021 3:15:00 PM 1.3 34.34 0.145 6.68 2.24 13.34
2/3/2021 3:30:00 PM 1.3 34.34 0.145 6.67 2.18 13.34
2/3/2021 3:45:00 PM 1.28 34.304 0.145 6.67 2.2 13.35
2/3/2021 4:00:00 PM 1.24 34.232 0.145 6.67 2.24 13.37
2/3/2021 4:15:00 PM 1.2 34.16 0.145 6.66 2.25 13.38
2/3/2021 4:30:00 PM 1.16 34.088 0.145 6.65 2.23 13.39
2/3/2021 4:45:00 PM 1.15 34.07 0.145 6.64 2.22 13.4
2/3/2021 5:00:00 PM 1.14 34.052 0.145 6.64 2.21 13.41
2/3/2021 5:15:00 PM 1.11 33.998 0.145 6.63 2.24 13.43
2/3/2021 5:30:00 PM 1.09 33.962 0.145 6.63 2.25 13.44
2/3/2021 5:45:00 PM 1.06 33.908 0.145 6.62 2.24 13.45
2/3/2021 6:00:00 PM 1.04 33.872 0.146 6.61 2.21 13.46
2/3/2021 6:15:00 PM 1.01 33.818 0.146 6.61 2.23 13.47
2/3/2021 6:30:00 PM 0.99 33.782 0.146 6.6 2.23 13.48
2/3/2021 6:45:00 PM 0.97 33.746 0.146 6.6 2.23 13.5
2/3/2021 7:00:00 PM 0.95 33.71 0.146 6.59 2.24 13.51
2/4/2021 8:30:00 AM 0.29 32.522 0.146 6.57 2.24 13.83
2/4/2021 8:45:00 AM 0.32 32.576 0.146 6.57 2.27 13.82
2/4/2021 9:00:00 AM 0.36 32.648 0.146 6.57 2.28 13.81
2/4/2021 9:15:00 AM 0.41 32.738 0.146 6.57 2.23 13.79
2/4/2021 9:30:00 AM 0.46 32.828 0.146 6.58 2.2 13.77
2/4/2021 9:45:00 AM 0.52 32.936 0.146 6.58 2.2 13.75
2/4/2021 10:00:00 AM 0.56 33.008 0.146 6.58 2.2 13.73
2/4/2021 10:15:00 AM 0.61 33.098 0.146 6.58 2.25 13.7
2/4/2021 10:30:00 AM 0.65 33.17 0.146 6.59 2.22 13.69
2/4/2021 10:45:00 AM 0.69 33.242 0.146 6.59 2.22 13.67
2/4/2021 11:00:00 AM 0.74 33.332 0.145 6.59 2.18 13.65
2/4/2021 11:15:00 AM 0.81 33.458 0.145 6.59 2.39 13.62
2/4/2021 11:30:00 AM 0.87 33.566 0.145 6.59 2.23 13.59
2/4/2021 11:45:00 AM 0.96 33.728 0.145 6.59 2.22 13.55
2/4/2021 12:00:00 PM 1.06 33.908 0.145 6.59 2.21 13.51
2/4/2021 12:15:00 PM 1.18 34.124 0.145 6.59 2.2 13.45
2/4/2021 12:30:00 PM 1.29 34.322 0.145 6.6 2.18 13.4
2/4/2021 12:45:00 PM 1.41 34.538 0.145 6.6 2.2 13.35
2/4/2021 1:00:00 PM 1.52 34.736 0.145 6.6 2.16 13.3
2/4/2021 1:15:00 PM 1.61 34.898 0.145 6.6 2.22 13.27
2/4/2021 1:30:00 PM 1.68 35.024 0.145 6.6 2.18 13.24
2/4/2021 1:45:00 PM 1.74 35.132 0.145 6.6 2.18 13.21
2/4/2021 2:00:00 PM 1.78 35.204 0.145 6.6 2.22 13.19
2/4/2021 2:15:00 PM 1.8 35.24 0.145 6.6 2.23 13.18
2/4/2021 2:30:00 PM 1.81 35.258 0.145 6.6 2.23 13.18
2/4/2021 2:45:00 PM 1.81 35.258 0.145 6.6 2.22 13.18
2/4/2021 3:00:00 PM 1.8 35.24 0.145 6.6 2.2 13.17
2/4/2021 3:15:00 PM 1.77 35.186 0.145 6.59 2.22 13.18
2/4/2021 3:30:00 PM 1.72 35.096 0.146 6.59 2.26 13.19
2/4/2021 3:45:00 PM 1.69 35.042 0.146 6.59 2.26 13.2
2/4/2021 4:00:00 PM 1.65 34.97 0.146 6.59 2.26 13.21
2/4/2021 4:15:00 PM 1.6 34.88 0.146 6.6 2.25 13.22
2/4/2021 4:30:00 PM 1.55 34.79 0.146 6.59 2.24 13.24
2/4/2021 4:45:00 PM 1.5 34.7 0.146 6.6 2.2 13.26
2/4/2021 5:00:00 PM 1.46 34.628 0.147 6.59 2.22 13.28
2/4/2021 5:15:00 PM 1.41 34.538 0.148 6.59 2.24 13.29
2/4/2021 5:30:00 PM 1.36 34.448 0.15 6.59 2.27 13.31
2/4/2021 5:45:00 PM 1.32 34.376 0.151 6.59 2.27 13.33
2/4/2021 6:00:00 PM 1.28 34.304 0.152 6.58 2.33 13.34
2/4/2021 6:15:00 PM 1.26 34.268 0.153 6.58 2.27 13.35
2/4/2021 6:30:00 PM 1.24 34.232 0.153 6.58 2.32 13.36
2/4/2021 6:45:00 PM 1.22 34.196 0.153 6.58 2.27 13.36
2/4/2021 7:00:00 PM 1.21 34.178 0.153 6.59 2.25 13.36
2/4/2021 7:15:00 PM 1.21 34.178 0.152 6.59 2.27 13.36
2/4/2021 7:30:00 PM 1.2 34.16 0.152 6.58 2.26 13.36
2/4/2021 7:45:00 PM 1.19 34.142 0.152 6.58 2.29 13.36
2/4/2021 8:00:00 PM 1.2 34.16 0.152 6.58 2.23 13.35
2/4/2021 8:15:00 PM 1.21 34.178 0.152 6.58 2.23 13.35
2/4/2021 8:30:00 PM 1.22 34.196 0.152 6.59 2.23 13.33
2/4/2021 8:45:00 PM 1.23 34.214 0.151 6.59 2.24 13.33
2/4/2021 9:00:00 PM 1.25 34.25 0.151 6.59 2.25 13.32
2/4/2021 9:15:00 PM 1.27 34.286 0.151 6.59 2.25 13.31
2/4/2021 9:30:00 PM 1.28 34.304 0.151 6.59 2.25 13.3
2/4/2021 9:45:00 PM 1.29 34.322 0.151 6.59 2.25 13.29
2/4/2021 10:00:00 PM 1.31 34.358 0.15 6.59 2.21 13.28
2/4/2021 10:15:00 PM 1.32 34.376 0.15 6.59 2.23 13.27
2/4/2021 10:30:00 PM 1.32 34.376 0.15 6.59 2.23 13.26
2/4/2021 10:45:00 PM 1.34 34.412 0.15 6.59 2.26 13.26
2/4/2021 11:00:00 PM 1.29 34.322 0.15 6.59 2.26 13.26
2/4/2021 11:15:00 PM 1.28 34.304 0.149 6.59 2.23 13.27
2/4/2021 11:30:00 PM 1.3 34.34 0.149 6.59 2.24 13.26
2/4/2021 11:45:00 PM 1.32 34.376 0.149 6.59 2.24 13.25
2/5/2021 12:00:00 AM 1.34 34.412 0.149 6.59 2.27 13.25
2/5/2021 12:15:00 AM 1.3 34.34 0.149 6.6 2.27 13.25
2/5/2021 12:30:00 AM 1.2 34.16 0.148 6.6 2.3 13.26
2/5/2021 12:45:00 AM 1.19 34.142 0.148 6.6 2.24 13.28
2/5/2021 1:00:00 AM 1.14 34.052 0.148 6.6 2.28 13.27
2/5/2021 1:15:00 AM 1.1 33.98 0.147 6.6 2.27 13.3
2/5/2021 1:30:00 AM 1.07 33.926 0.147 6.6 2.29 13.32
2/5/2021 1:45:00 AM 1.04 33.872 0.147 6.59 2.3 13.32
2/5/2021 2:00:00 AM 0.96 33.728 0.147 6.59 2.31 13.34
2/5/2021 2:15:00 AM 0.91 33.638 0.146 6.59 2.32 13.36
2/5/2021 2:30:00 AM 0.93 33.674 0.146 6.59 2.27 13.36
2/5/2021 2:45:00 AM 0.96 33.728 0.146 6.59 2.33 13.35
2/5/2021 3:00:00 AM 0.97 33.746 0.146 6.59 2.29 13.34
2/5/2021 3:15:00 AM 0.96 33.728 0.146 6.59 2.29 13.33
2/5/2021 3:30:00 AM 0.99 33.782 0.146 6.59 2.27 13.32
2/5/2021 3:45:00 AM 1.04 33.872 0.146 6.59 2.27 13.3
2/5/2021 4:00:00 AM 1.09 33.962 0.147 6.59 2.25 13.28
2/5/2021 4:15:00 AM 1.13 34.034 0.147 6.59 2.24 13.27
2/5/2021 4:30:00 AM 1.16 34.088 0.147 6.59 2.27 13.25
2/5/2021 4:45:00 AM 1.18 34.124 0.147 6.59 2.26 13.23
2/5/2021 5:00:00 AM 1.15 34.07 0.147 6.59 2.28 13.23
2/5/2021 5:15:00 AM 1.17 34.106 0.147 6.59 2.36 13.23
2/5/2021 5:30:00 AM 1.18 34.124 0.147 6.59 2.27 13.23
2/5/2021 5:45:00 AM 1.2 34.16 0.147 6.59 2.24 13.22
2/5/2021 6:00:00 AM 1.22 34.196 0.148 6.59 2.27 13.21
2/5/2021 6:15:00 AM 1.16 34.088 0.147 6.59 2.25 13.22
2/5/2021 6:30:00 AM 1.12 34.016 0.147 6.59 2.25 13.25
2/5/2021 6:45:00 AM 1.17 34.106 0.148 6.59 2.23 13.24
2/5/2021 7:00:00 AM 1.2 34.16 0.148 6.59 2.24 13.23
2/5/2021 7:15:00 AM 1.22 34.196 0.148 6.59 2.26 13.22
2/5/2021 7:30:00 AM 1.24 34.232 0.149 6.59 2.26 13.21
2/5/2021 7:45:00 AM 1.28 34.304 0.15 6.59 2.3 13.2
2/5/2021 8:00:00 AM 1.31 34.358 0.15 6.59 2.27 13.2
2/5/2021 8:15:00 AM 1.33 34.394 0.15 6.59 2.29 13.2
2/5/2021 8:30:00 AM 1.37 34.466 0.15 6.6 2.27 13.19
2/5/2021 8:45:00 AM 1.41 34.538 0.15 6.59 2.26 13.17
2/5/2021 9:00:00 AM 1.45 34.61 0.151 6.59 2.24 13.16
2/5/2021 9:15:00 AM 1.49 34.682 0.151 6.59 2.27 13.15
2/5/2021 9:30:00 AM 1.53 34.754 0.151 6.59 2.26 13.14
2/5/2021 9:45:00 AM 1.54 34.772 0.151 6.59 2.23 13.13
2/5/2021 10:00:00 AM 1.58 34.844 0.151 6.59 2.23 13.11
2/5/2021 10:15:00 AM 1.66 34.988 0.152 6.6 2.34 13.09
2/5/2021 10:30:00 AM 1.73 35.114 0.152 6.6 2.26 13.07
2/5/2021 10:45:00 AM 1.78 35.204 0.152 6.6 2.21 13.05
2/5/2021 11:00:00 AM 1.8 35.24 0.153 6.6 2.24 13.04
2/5/2021 11:15:00 AM 1.83 35.294